Time,TemperatureF,DewpointF,PressureIn,WindDirection,WindDirectionDegrees,WindSpeedMPH,WindSpeedGustMPH,Humidity,HourlyPrecipIn,Conditions,Clouds,dailyrainin,SoftwareType,DateUTC
2013-01-15 00:00:00,26.2,18.1,30.35,North,0,1.7,1.7,71,0.00,,---,0.00,VWS V14.01,2013-01-15 06:00:00,
2013-01-15 00:01:00,26.2,18.1,30.35,North,0,1.7,1.7,71,0.00,,---,0.00,VWS V14.01,2013-01-15 06:01:00,
2013-01-15 00:02:00,26.2,18.1,30.35,North,0,1.7,1.7,71,0.00,,---,0.00,VWS V14.01,2013-01-15 06:02:00,
2013-01-15 00:03:00,26.2,18.1,30.35,North,0,1.7,1.7,71,0.00,,---,0.00,VWS V14.01,2013-01-15 06:03:00,
2013-01-15 00:04:00,26.2,18.1,30.35,North,0,1.7,1.7,71,0.00,,---,0.00,VWS V14.01,2013-01-15 06:04:00,
2013-01-15 00:05:00,26.2,17.8,30.34,North,0,0.0,1.7,70,0.00,,---,0.00,VWS V14.01,2013-01-15 06:05:00,
2013-01-15 00:06:00,26.2,17.8,30.34,North,0,0.0,0.0,70,0.00,,---,0.00,VWS V14.01,2013-01-15 06:06:00,
2013-01-15 00:07:00,26.2,17.8,30.34,NNE,22,0.0,0.0,70,0.00,,---,0.00,VWS V14.01,2013-01-15 06:07:00,
2013-01-15 00:08:00,26.2,17.8,30.34,NNE,22,0.0,0.0,70,0.00,,---,0.00,VWS V14.01,2013-01-15 06:08:00,
2013-01-15 00:09:00,26.2,17.8,30.34,NNE,22,1.1,1.1,70,0.00,,---,0.00,VWS V14.01,2013-01-15 06:09:00,
2013-01-15 00:10:00,26.2,17.8,30.34,NNE,22,1.1,1.1,70,0.00,,---,0.00,VWS V14.01,2013-01-15 06:10:00,
2013-01-15 00:11:00,26.2,17.8,30.34,North,0,3.8,3.8,70,0.00,,---,0.00,VWS V14.01,2013-01-15 06:11:00,
2013-01-15 00:12:00,26.2,17.8,30.34,North,0,3.8,3.8,70,0.00,,---,0.00,VWS V14.01,2013-01-15 06:12:00,
2013-01-15 00:13:00,26.2,17.8,30.34,NNE,22,0.2,0.2,70,0.00,,---,0.00,VWS V14.01,2013-01-15 06:13:00,
2013-01-15 00:14:00,26.2,17.8,30.34,NNE,22,0.2,0.2,70,0.00,,---,0.00,VWS V14.01,2013-01-15 06:14:00,
2013-01-15 00:15:00,26.2,17.8,30.34,NNE,22,0.0,0.2,70,0.00,,---,0.00,VWS V14.01,2013-01-15 06:15:00,
2013-01-15 00:16:00,26.2,17.8,30.34,NNE,22,0.0,0.0,70,0.00,,---,0.00,VWS V14.01,2013-01-15 06:16:00,
2013-01-15 00:17:00,26.2,17.8,30.34,NNE,22,0.0,0.0,70,0.00,,---,0.00,VWS V14.01,2013-01-15 06:17:00,
2013-01-15 00:18:00,26.2,17.8,30.34,NNE,22,0.0,0.0,70,0.00,,---,0.00,VWS V14.01,2013-01-15 06:18:00,
2013-01-15 00:19:00,26.2,17.8,30.34,NNE,22,0.0,0.0,70,0.00,,---,0.00,VWS V14.01,2013-01-15 06:19:00,
2013-01-15 00:20:00,26.2,17.8,30.34,NNE,22,0.0,0.0,70,0.00,,---,0.00,VWS V14.01,2013-01-15 06:20:00,
2013-01-15 00:21:00,26.2,17.8,30.34,NNE,22,0.0,0.0,70,0.00,,---,0.00,VWS V14.01,2013-01-15 06:21:00,
2013-01-15 00:22:00,26.2,17.8,30.34,NNE,22,0.0,0.0,70,0.00,,---,0.00,VWS V14.01,2013-01-15 06:22:00,
2013-01-15 00:23:00,26.2,17.8,30.34,NNE,22,0.0,0.0,70,0.00,,---,0.00,VWS V14.01,2013-01-15 06:23:00,
2013-01-15 00:24:00,26.2,17.4,30.34,North,0,0.0,0.0,69,0.00,,---,0.00,VWS V14.01,2013-01-15 06:24:00,
2013-01-15 00:25:00,26.2,17.4,30.33,North,0,0.0,0.0,69,0.00,,---,0.00,VWS V14.01,2013-01-15 06:25:00,
2013-01-15 00:26:00,26.2,17.4,30.33,NNE,22,0.0,0.0,69,0.00,,---,0.00,VWS V14.01,2013-01-15 06:26:00,
2013-01-15 00:27:00,26.2,17.4,30.33,NNE,22,0.0,0.0,69,0.00,,---,0.00,VWS V14.01,2013-01-15 06:27:00,
2013-01-15 00:28:00,26.2,17.4,30.33,NE,45,0.0,0.0,69,0.00,,---,0.00,VWS V14.01,2013-01-15 06:28:00,
2013-01-15 00:29:00,26.2,17.4,30.33,NE,45,0.0,0.0,69,0.00,,---,0.00,VWS V14.01,2013-01-15 06:29:00,
2013-01-15 00:30:00,26.2,17.4,30.33,NNE,22,0.0,0.0,69,0.00,,---,0.00,VWS V14.01,2013-01-15 06:30:00,
2013-01-15 00:31:00,26.2,17.4,30.33,NNE,22,0.0,0.0,69,0.00,,---,0.00,VWS V14.01,2013-01-15 06:31:00,
2013-01-15 00:32:00,26.2,17.4,30.33,North,0,0.0,0.0,69,0.00,,---,0.00,VWS V14.01,2013-01-15 06:32:00,
2013-01-15 00:33:00,26.2,17.4,30.33,North,0,0.0,0.0,69,0.00,,---,0.00,VWS V14.01,2013-01-15 06:33:00,
2013-01-15 00:34:00,26.2,17.4,30.33,North,0,0.0,0.0,69,0.00,,---,0.00,VWS V14.01,2013-01-15 06:34:00,
2013-01-15 00:35:00,26.2,17.4,30.33,NNE,22,0.0,0.0,69,0.00,,---,0.00,VWS V14.01,2013-01-15 06:35:00,
2013-01-15 00:36:00,26.2,17.4,30.33,NNE,22,0.0,0.0,69,0.00,,---,0.00,VWS V14.01,2013-01-15 06:36:00,
2013-01-15 00:37:00,26.2,17.4,30.33,NNE,22,2.0,2.0,69,0.00,,---,0.00,VWS V14.01,2013-01-15 06:37:00,
2013-01-15 00:38:00,26.2,17.4,30.33,NNE,22,2.0,2.0,69,0.00,,---,0.00,VWS V14.01,2013-01-15 06:38:00,
2013-01-15 00:39:00,26.2,17.4,30.33,NNE,22,0.0,2.0,69,0.00,,---,0.00,VWS V14.01,2013-01-15 06:39:00,
2013-01-15 00:40:00,26.2,17.4,30.33,NNE,22,0.0,0.0,69,0.00,,---,0.00,VWS V14.01,2013-01-15 06:40:00,
2013-01-15 00:41:00,26.2,17.4,30.33,NNE,22,1.1,1.1,69,0.00,,---,0.00,VWS V14.01,2013-01-15 06:41:00,
2013-01-15 00:42:00,26.2,17.4,30.33,NNE,22,1.1,1.1,69,0.00,,---,0.00,VWS V14.01,2013-01-15 06:42:00,
2013-01-15 00:43:00,26.2,17.4,30.33,South,180,0.0,0.0,69,0.00,,---,0.00,VWS V14.01,2013-01-15 06:43:00,
2013-01-15 00:44:00,26.2,17.4,30.33,South,180,0.0,0.0,69,0.00,,---,0.00,VWS V14.01,2013-01-15 06:44:00,
2013-01-15 00:45:00,26.2,17.4,30.33,NNE,22,0.0,0.0,69,0.00,,---,0.00,VWS V14.01,2013-01-15 06:45:00,
2013-01-15 00:46:00,26.2,17.4,30.33,NNE,22,0.0,0.0,69,0.00,,---,0.00,VWS V14.01,2013-01-15 06:46:00,
2013-01-15 00:47:00,26.0,17.2,30.33,North,0,2.4,2.4,69,0.00,,---,0.00,VWS V14.01,2013-01-15 06:47:00,
2013-01-15 00:48:00,26.0,17.2,30.33,North,0,2.4,2.4,69,0.00,,---,0.00,VWS V14.01,2013-01-15 06:48:00,
2013-01-15 00:49:00,26.0,17.2,30.33,North,0,2.4,2.4,69,0.00,,---,0.00,VWS V14.01,2013-01-15 06:49:00,
2013-01-15 00:50:00,26.0,17.2,30.33,North,0,0.4,2.4,69,0.00,,---,0.00,VWS V14.01,2013-01-15 06:50:00,
2013-01-15 00:51:00,26.0,17.2,30.33,North,0,0.4,0.4,69,0.00,,---,0.00,VWS V14.01,2013-01-15 06:51:00,
2013-01-15 00:52:00,26.0,17.2,30.33,NNE,22,1.3,1.3,69,0.00,,---,0.00,VWS V14.01,2013-01-15 06:52:00,
2013-01-15 00:53:00,26.0,17.2,30.33,NNE,22,1.3,1.3,69,0.00,,---,0.00,VWS V14.01,2013-01-15 06:53:00,
2013-01-15 00:54:00,26.0,17.2,30.33,NNE,22,0.0,1.3,69,0.00,,---,0.00,VWS V14.01,2013-01-15 06:54:00,
2013-01-15 00:55:00,26.0,17.2,30.33,NNE,22,0.0,0.0,69,0.00,,---,0.00,VWS V14.01,2013-01-15 06:55:00,
2013-01-15 00:56:00,26.0,17.2,30.33,NNE,22,0.0,0.0,69,0.00,,---,0.00,VWS V14.01,2013-01-15 06:56:00,
2013-01-15 00:57:00,26.0,17.2,30.33,NNE,22,0.0,0.0,69,0.00,,---,0.00,VWS V14.01,2013-01-15 06:57:00,
2013-01-15 00:58:00,26.0,17.2,30.33,NNE,22,0.0,0.0,69,0.00,,---,0.00,VWS V14.01,2013-01-15 06:58:00,
2013-01-15 00:59:00,26.0,17.2,30.33,NNE,22,0.0,0.0,69,0.00,,---,0.00,VWS V14.01,2013-01-15 06:59:00,
2013-01-15 01:00:00,26.0,16.9,30.33,NNE,22,0.0,0.0,68,0.00,,---,0.00,VWS V14.01,2013-01-15 07:00:00,
2013-01-15 01:01:00,26.0,16.9,30.33,NNE,22,0.0,0.0,68,0.00,,---,0.00,VWS V14.01,2013-01-15 07:01:00,
2013-01-15 01:02:00,26.0,16.9,30.33,NNE,22,0.0,0.0,68,0.00,,---,0.00,VWS V14.01,2013-01-15 07:02:00,
2013-01-15 01:03:00,26.0,17.2,30.33,NNE,22,2.0,2.0,69,0.00,,---,0.00,VWS V14.01,2013-01-15 07:03:00,
2013-01-15 01:04:00,26.0,17.2,30.33,NNE,22,2.0,2.0,69,0.00,,---,0.00,VWS V14.01,2013-01-15 07:04:00,
2013-01-15 01:05:00,25.8,17.0,30.33,NNE,22,0.0,2.0,69,0.00,,---,0.00,VWS V14.01,2013-01-15 07:05:00,
2013-01-15 01:06:00,25.8,17.0,30.33,NNE,22,0.0,0.0,69,0.00,,---,0.00,VWS V14.01,2013-01-15 07:06:00,
2013-01-15 01:07:00,25.8,16.7,30.33,NNE,22,0.0,0.0,68,0.00,,---,0.00,VWS V14.01,2013-01-15 07:07:00,
2013-01-15 01:08:00,25.8,16.7,30.33,NNE,22,0.0,0.0,68,0.00,,---,0.00,VWS V14.01,2013-01-15 07:08:00,
2013-01-15 01:09:00,25.8,16.7,30.33,North,0,1.5,1.5,68,0.00,,---,0.00,VWS V14.01,2013-01-15 07:09:00,
2013-01-15 01:10:00,25.8,16.7,30.33,North,0,1.5,1.5,68,0.00,,---,0.00,VWS V14.01,2013-01-15 07:10:00,
2013-01-15 01:11:00,25.8,16.7,30.33,North,0,0.6,1.5,68,0.00,,---,0.00,VWS V14.01,2013-01-15 07:11:00,
2013-01-15 01:12:00,25.8,16.7,30.33,North,0,0.6,0.6,68,0.00,,---,0.00,VWS V14.01,2013-01-15 07:12:00,
2013-01-15 01:13:00,25.8,17.0,30.33,North,0,2.6,2.6,69,0.00,,---,0.00,VWS V14.01,2013-01-15 07:13:00,
2013-01-15 01:14:00,25.8,17.0,30.33,North,0,2.6,2.6,69,0.00,,---,0.00,VWS V14.01,2013-01-15 07:14:00,
2013-01-15 01:15:00,25.8,16.7,30.33,North,0,1.3,2.6,68,0.00,,---,0.00,VWS V14.01,2013-01-15 07:15:00,
2013-01-15 01:16:00,25.8,16.7,30.33,North,0,1.3,1.3,68,0.00,,---,0.00,VWS V14.01,2013-01-15 07:16:00,
2013-01-15 01:17:00,25.8,16.7,30.33,North,0,0.0,1.3,68,0.00,,---,0.00,VWS V14.01,2013-01-15 07:17:00,
2013-01-15 01:18:00,25.8,16.7,30.33,North,0,0.0,0.0,68,0.00,,---,0.00,VWS V14.01,2013-01-15 07:18:00,
2013-01-15 01:19:00,25.8,16.7,30.33,North,0,0.0,0.0,68,0.00,,---,0.00,VWS V14.01,2013-01-15 07:19:00,
2013-01-15 01:20:00,25.8,16.7,30.33,North,0,0.6,0.6,68,0.00,,---,0.00,VWS V14.01,2013-01-15 07:20:00,
2013-01-15 01:21:00,25.8,16.7,30.33,North,0,0.6,0.6,68,0.00,,---,0.00,VWS V14.01,2013-01-15 07:21:00,
2013-01-15 01:22:00,25.8,17.0,30.33,North,0,0.0,0.6,69,0.00,,---,0.00,VWS V14.01,2013-01-15 07:22:00,
2013-01-15 01:23:00,25.8,17.0,30.33,North,0,0.0,0.0,69,0.00,,---,0.00,VWS V14.01,2013-01-15 07:23:00,
2013-01-15 01:24:00,25.7,17.0,30.32,North,0,1.5,1.5,69,0.00,,---,0.00,VWS V14.01,2013-01-15 07:24:00,
2013-01-15 01:25:00,25.7,17.0,30.33,North,0,1.5,1.5,69,0.00,,---,0.00,VWS V14.01,2013-01-15 07:25:00,
2013-01-15 01:26:00,25.7,17.0,30.33,NNE,22,4.2,4.2,69,0.00,,---,0.00,VWS V14.01,2013-01-15 07:26:00,
2013-01-15 01:27:00,25.7,17.0,30.33,NNE,22,4.2,4.2,69,0.00,,---,0.00,VWS V14.01,2013-01-15 07:27:00,
2013-01-15 01:28:00,25.7,17.0,30.33,North,0,2.9,2.9,69,0.00,,---,0.00,VWS V14.01,2013-01-15 07:28:00,
2013-01-15 01:29:00,25.7,17.0,30.33,North,0,2.9,2.9,69,0.00,,---,0.00,VWS V14.01,2013-01-15 07:29:00,
2013-01-15 01:30:00,25.7,17.0,30.33,North,0,2.9,2.9,69,0.00,,---,0.00,VWS V14.01,2013-01-15 07:30:00,
2013-01-15 01:31:00,25.7,17.0,30.33,North,0,2.9,2.9,69,0.00,,---,0.00,VWS V14.01,2013-01-15 07:31:00,
2013-01-15 01:32:00,25.7,17.0,30.33,NNW,338,6.4,6.4,69,0.00,,---,0.00,VWS V14.01,2013-01-15 07:32:00,
2013-01-15 01:33:00,25.7,17.0,30.33,NNW,338,6.4,6.4,69,0.00,,---,0.00,VWS V14.01,2013-01-15 07:33:00,
2013-01-15 01:34:00,25.7,17.0,30.33,NNW,338,6.4,6.4,69,0.00,,---,0.00,VWS V14.01,2013-01-15 07:34:00,
2013-01-15 01:35:00,25.7,17.0,30.33,North,0,4.0,6.4,69,0.00,,---,0.00,VWS V14.01,2013-01-15 07:35:00,
2013-01-15 01:36:00,25.7,17.0,30.33,North,0,4.0,4.0,69,0.00,,---,0.00,VWS V14.01,2013-01-15 07:36:00,
2013-01-15 01:37:00,25.7,17.0,30.33,North,0,4.0,4.0,69,0.00,,---,0.00,VWS V14.01,2013-01-15 07:37:00,
2013-01-15 01:38:00,25.7,17.0,30.33,North,0,4.0,4.0,69,0.00,,---,0.00,VWS V14.01,2013-01-15 07:38:00,
2013-01-15 01:39:00,25.7,17.0,30.33,NNE,22,4.0,4.0,69,0.00,,---,0.00,VWS V14.01,2013-01-15 07:39:00,
2013-01-15 01:40:00,25.7,17.0,30.33,NNE,22,4.0,4.0,69,0.00,,---,0.00,VWS V14.01,2013-01-15 07:40:00,
2013-01-15 01:41:00,25.5,16.8,30.33,North,0,1.5,4.0,69,0.00,,---,0.00,VWS V14.01,2013-01-15 07:41:00,
2013-01-15 01:42:00,25.5,16.8,30.33,North,0,1.5,1.5,69,0.00,,---,0.00,VWS V14.01,2013-01-15 07:42:00,
2013-01-15 01:43:00,25.5,16.8,30.32,North,0,5.1,5.1,69,0.00,,---,0.00,VWS V14.01,2013-01-15 07:43:00,
2013-01-15 01:44:00,25.5,16.8,30.33,North,0,5.1,5.1,69,0.00,,---,0.00,VWS V14.01,2013-01-15 07:44:00,
2013-01-15 01:45:00,25.5,16.8,30.32,North,0,0.6,5.1,69,0.00,,---,0.00,VWS V14.01,2013-01-15 07:45:00,
2013-01-15 01:46:00,25.5,16.8,30.32,North,0,0.6,0.6,69,0.00,,---,0.00,VWS V14.01,2013-01-15 07:46:00,
2013-01-15 01:47:00,25.5,16.8,30.32,North,0,2.0,2.0,69,0.00,,---,0.00,VWS V14.01,2013-01-15 07:47:00,
2013-01-15 01:48:00,25.5,16.8,30.32,North,0,2.0,2.0,69,0.00,,---,0.00,VWS V14.01,2013-01-15 07:48:00,
2013-01-15 01:49:00,25.5,16.8,30.32,North,0,2.0,2.0,69,0.00,,---,0.00,VWS V14.01,2013-01-15 07:49:00,
2013-01-15 01:50:00,25.5,17.1,30.32,North,0,1.3,2.0,70,0.00,,---,0.00,VWS V14.01,2013-01-15 07:50:00,
2013-01-15 01:51:00,25.5,17.1,30.32,North,0,1.3,1.3,70,0.00,,---,0.00,VWS V14.01,2013-01-15 07:51:00,
2013-01-15 01:52:00,25.5,17.1,30.32,North,0,2.4,2.4,70,0.00,,---,0.00,VWS V14.01,2013-01-15 07:52:00,
2013-01-15 01:53:00,25.5,17.1,30.32,North,0,2.4,2.4,70,0.00,,---,0.00,VWS V14.01,2013-01-15 07:53:00,
2013-01-15 01:54:00,25.5,17.1,30.31,North,0,2.4,2.4,70,0.00,,---,0.00,VWS V14.01,2013-01-15 07:54:00,
2013-01-15 01:55:00,25.5,17.1,30.32,North,0,2.4,2.4,70,0.00,,---,0.00,VWS V14.01,2013-01-15 07:55:00,
2013-01-15 01:56:00,25.3,16.9,30.32,North,0,4.2,4.2,70,0.00,,---,0.00,VWS V14.01,2013-01-15 07:56:00,
2013-01-15 01:57:00,25.3,16.9,30.31,North,0,4.2,4.2,70,0.00,,---,0.00,VWS V14.01,2013-01-15 07:57:00,
2013-01-15 01:58:00,25.3,16.6,30.32,NNE,22,2.4,2.4,69,0.00,,---,0.00,VWS V14.01,2013-01-15 07:58:00,
2013-01-15 01:59:00,25.3,16.6,30.31,NNE,22,2.4,2.4,69,0.00,,---,0.00,VWS V14.01,2013-01-15 07:59:00,
2013-01-15 02:00:00,25.3,16.6,30.32,North,0,2.4,2.4,69,0.00,,---,0.00,VWS V14.01,2013-01-15 08:00:00,
2013-01-15 02:01:00,25.3,16.6,30.31,North,0,2.4,2.4,69,0.00,,---,0.00,VWS V14.01,2013-01-15 08:01:00,
2013-01-15 02:02:00,25.3,16.6,30.32,North,0,2.4,2.4,69,0.00,,---,0.00,VWS V14.01,2013-01-15 08:02:00,
2013-01-15 02:03:00,25.5,16.8,30.31,NNE,22,2.0,2.0,69,0.00,,---,0.00,VWS V14.01,2013-01-15 08:03:00,
2013-01-15 02:04:00,25.5,16.8,30.31,NNE,22,2.0,2.0,69,0.00,,---,0.00,VWS V14.01,2013-01-15 08:04:00,
2013-01-15 02:05:00,25.5,16.8,30.31,North,0,0.0,2.0,69,0.00,,---,0.00,VWS V14.01,2013-01-15 08:05:00,
2013-01-15 02:06:00,25.5,16.8,30.31,North,0,0.0,0.0,69,0.00,,---,0.00,VWS V14.01,2013-01-15 08:06:00,
2013-01-15 02:07:00,25.3,16.6,30.31,North,0,2.4,2.4,69,0.00,,---,0.00,VWS V14.01,2013-01-15 08:07:00,
2013-01-15 02:08:00,25.3,16.6,30.32,North,0,2.4,2.4,69,0.00,,---,0.00,VWS V14.01,2013-01-15 08:08:00,
2013-01-15 02:09:00,25.3,16.6,30.31,NNE,22,1.7,2.4,69,0.00,,---,0.00,VWS V14.01,2013-01-15 08:09:00,
2013-01-15 02:10:00,25.3,16.6,30.31,NNE,22,1.7,1.7,69,0.00,,---,0.00,VWS V14.01,2013-01-15 08:10:00,
2013-01-15 02:11:00,25.3,16.6,30.31,NNE,22,0.8,1.7,69,0.00,,---,0.00,VWS V14.01,2013-01-15 08:11:00,
2013-01-15 02:12:00,25.3,16.6,30.31,NNE,22,0.8,0.8,69,0.00,,---,0.00,VWS V14.01,2013-01-15 08:12:00,
2013-01-15 02:13:00,25.3,16.6,30.31,NNE,22,0.8,0.8,69,0.00,,---,0.00,VWS V14.01,2013-01-15 08:13:00,
2013-01-15 02:14:00,25.3,16.6,30.31,North,0,3.8,3.8,69,0.00,,---,0.00,VWS V14.01,2013-01-15 08:14:00,
2013-01-15 02:15:00,25.1,16.4,30.31,North,0,7.3,7.3,69,0.00,,---,0.00,VWS V14.01,2013-01-15 08:15:00,
2013-01-15 02:16:00,25.1,16.4,30.31,North,0,7.3,7.3,69,0.00,,---,0.00,VWS V14.01,2013-01-15 08:16:00,
2013-01-15 02:17:00,25.3,16.6,30.31,North,0,6.7,7.3,69,0.00,,---,0.00,VWS V14.01,2013-01-15 08:17:00,
2013-01-15 02:18:00,25.3,16.6,30.31,North,0,6.7,6.7,69,0.00,,---,0.00,VWS V14.01,2013-01-15 08:18:00,
2013-01-15 02:19:00,25.3,16.6,30.31,North,0,6.7,6.7,69,0.00,,---,0.00,VWS V14.01,2013-01-15 08:19:00,
2013-01-15 02:20:00,25.3,16.6,30.31,North,0,5.3,6.7,69,0.00,,---,0.00,VWS V14.01,2013-01-15 08:20:00,
2013-01-15 02:21:00,25.3,16.6,30.31,North,0,5.3,5.3,69,0.00,,---,0.00,VWS V14.01,2013-01-15 08:21:00,
2013-01-15 02:22:00,25.3,16.2,30.30,North,0,7.8,7.8,68,0.00,,---,0.00,VWS V14.01,2013-01-15 08:22:00,
2013-01-15 02:23:00,25.3,16.2,30.30,North,0,7.8,7.8,68,0.00,,---,0.00,VWS V14.01,2013-01-15 08:23:00,
2013-01-15 02:24:00,25.3,16.2,30.30,North,0,2.4,7.8,68,0.00,,---,0.00,VWS V14.01,2013-01-15 08:24:00,
2013-01-15 02:25:00,25.3,16.2,30.30,North,0,2.4,2.4,68,0.00,,---,0.00,VWS V14.01,2013-01-15 08:25:00,
2013-01-15 02:26:00,25.3,16.2,30.30,North,0,7.6,7.6,68,0.00,,---,0.00,VWS V14.01,2013-01-15 08:26:00,
2013-01-15 02:27:00,25.3,16.2,30.30,North,0,7.6,7.6,68,0.00,,---,0.00,VWS V14.01,2013-01-15 08:27:00,
2013-01-15 02:28:00,25.3,16.2,30.30,North,0,7.1,7.1,68,0.00,,---,0.00,VWS V14.01,2013-01-15 08:28:00,
2013-01-15 02:29:00,25.3,16.2,30.30,North,0,7.1,7.1,68,0.00,,---,0.00,VWS V14.01,2013-01-15 08:29:00,
2013-01-15 02:30:00,25.3,16.2,30.30,North,0,6.9,7.1,68,0.00,,---,0.00,VWS V14.01,2013-01-15 08:30:00,
2013-01-15 02:31:00,25.3,16.2,30.30,North,0,6.9,6.9,68,0.00,,---,0.00,VWS V14.01,2013-01-15 08:31:00,
2013-01-15 02:32:00,25.3,16.2,30.30,North,0,1.5,6.9,68,0.00,,---,0.00,VWS V14.01,2013-01-15 08:32:00,
2013-01-15 02:33:00,25.3,16.2,30.30,North,0,1.5,1.5,68,0.00,,---,0.00,VWS V14.01,2013-01-15 08:33:00,
2013-01-15 02:34:00,25.3,16.2,30.30,North,0,1.5,1.5,68,0.00,,---,0.00,VWS V14.01,2013-01-15 08:34:00,
2013-01-15 02:35:00,25.3,16.2,30.30,NNE,22,4.2,4.2,68,0.00,,---,0.00,VWS V14.01,2013-01-15 08:35:00,
2013-01-15 02:36:00,25.3,16.2,30.30,NNE,22,4.2,4.2,68,0.00,,---,0.00,VWS V14.01,2013-01-15 08:36:00,
2013-01-15 02:37:00,25.3,16.2,30.30,North,0,7.3,7.3,68,0.00,,---,0.00,VWS V14.01,2013-01-15 08:37:00,
2013-01-15 02:38:00,25.3,16.2,30.30,North,0,7.3,7.3,68,0.00,,---,0.00,VWS V14.01,2013-01-15 08:38:00,
2013-01-15 02:39:00,25.3,16.2,30.30,North,0,6.7,7.3,68,0.00,,---,0.00,VWS V14.01,2013-01-15 08:39:00,
2013-01-15 02:40:00,25.3,16.2,30.30,North,0,6.7,6.7,68,0.00,,---,0.00,VWS V14.01,2013-01-15 08:40:00,
2013-01-15 02:41:00,25.3,16.2,30.30,NNE,22,6.9,6.9,68,0.00,,---,0.00,VWS V14.01,2013-01-15 08:41:00,
2013-01-15 02:42:00,25.3,16.2,30.30,NNE,22,6.9,6.9,68,0.00,,---,0.00,VWS V14.01,2013-01-15 08:42:00,
2013-01-15 02:43:00,25.3,15.9,30.30,NNE,22,5.3,5.3,67,0.00,,---,0.00,VWS V14.01,2013-01-15 08:43:00,
2013-01-15 02:44:00,25.3,15.9,30.30,NNE,22,5.3,5.3,67,0.00,,---,0.00,VWS V14.01,2013-01-15 08:44:00,
2013-01-15 02:45:00,25.1,16.0,30.30,North,0,5.1,5.3,68,0.00,,---,0.00,VWS V14.01,2013-01-15 08:45:00,
2013-01-15 02:46:00,25.1,16.0,30.30,North,0,5.1,5.1,68,0.00,,---,0.00,VWS V14.01,2013-01-15 08:46:00,
2013-01-15 02:47:00,25.1,16.0,30.30,North,0,6.9,6.9,68,0.00,,---,0.00,VWS V14.01,2013-01-15 08:47:00,
2013-01-15 02:48:00,25.1,16.0,30.30,North,0,6.9,6.9,68,0.00,,---,0.00,VWS V14.01,2013-01-15 08:48:00,
2013-01-15 02:49:00,25.1,16.0,30.30,North,0,6.9,6.9,68,0.00,,---,0.00,VWS V14.01,2013-01-15 08:49:00,
2013-01-15 02:50:00,25.1,16.0,30.30,North,0,4.0,6.9,68,0.00,,---,0.00,VWS V14.01,2013-01-15 08:50:00,
2013-01-15 02:51:00,25.1,16.0,30.30,North,0,4.0,4.0,68,0.00,,---,0.00,VWS V14.01,2013-01-15 08:51:00,
2013-01-15 02:52:00,25.1,16.0,30.30,North,0,2.9,4.0,68,0.00,,---,0.00,VWS V14.01,2013-01-15 08:52:00,
2013-01-15 02:53:00,25.1,16.0,30.30,North,0,2.9,2.9,68,0.00,,---,0.00,VWS V14.01,2013-01-15 08:53:00,
2013-01-15 02:54:00,25.1,16.0,30.30,North,0,8.0,8.0,68,0.00,,---,0.00,VWS V14.01,2013-01-15 08:54:00,
2013-01-15 02:55:00,25.1,16.0,30.30,North,0,8.0,8.0,68,0.00,,---,0.00,VWS V14.01,2013-01-15 08:55:00,
2013-01-15 02:56:00,25.1,16.0,30.30,North,0,2.2,8.0,68,0.00,,---,0.00,VWS V14.01,2013-01-15 08:56:00,
2013-01-15 02:57:00,25.1,16.0,30.30,North,0,2.2,2.2,68,0.00,,---,0.00,VWS V14.01,2013-01-15 08:57:00,
2013-01-15 02:58:00,25.1,16.0,30.30,North,0,6.7,6.7,68,0.00,,---,0.00,VWS V14.01,2013-01-15 08:58:00,
2013-01-15 02:59:00,25.1,16.0,30.30,North,0,6.7,6.7,68,0.00,,---,0.00,VWS V14.01,2013-01-15 08:59:00,
2013-01-15 03:00:00,24.9,15.9,30.30,NNE,22,6.7,6.7,68,0.00,,---,0.00,VWS V14.01,2013-01-15 09:00:00,
2013-01-15 03:01:00,24.9,15.9,30.30,NNE,22,6.7,6.7,68,0.00,,---,0.00,VWS V14.01,2013-01-15 09:01:00,
2013-01-15 03:02:00,24.9,15.9,30.30,NNW,338,10.2,10.2,68,0.00,,---,0.00,VWS V14.01,2013-01-15 09:02:00,
2013-01-15 03:03:00,24.9,15.9,30.30,NNW,338,10.2,10.2,68,0.00,,---,0.00,VWS V14.01,2013-01-15 09:03:00,
2013-01-15 03:04:00,24.9,15.9,30.30,NNW,338,10.2,10.2,68,0.00,,---,0.00,VWS V14.01,2013-01-15 09:04:00,
2013-01-15 03:05:00,24.9,15.9,30.30,North,0,2.2,10.2,68,0.00,,---,0.00,VWS V14.01,2013-01-15 09:05:00,
2013-01-15 03:06:00,24.9,15.9,30.30,North,0,2.2,2.2,68,0.00,,---,0.00,VWS V14.01,2013-01-15 09:06:00,
2013-01-15 03:07:00,24.9,15.9,30.30,NNE,22,8.5,8.5,68,0.00,,---,0.00,VWS V14.01,2013-01-15 09:07:00,
2013-01-15 03:08:00,24.9,15.9,30.30,NNE,22,8.5,8.5,68,0.00,,---,0.00,VWS V14.01,2013-01-15 09:08:00,
2013-01-15 03:09:00,24.9,15.9,30.30,NNE,22,7.8,8.5,68,0.00,,---,0.00,VWS V14.01,2013-01-15 09:09:00,
2013-01-15 03:10:00,24.9,15.9,30.30,NNE,22,7.8,7.8,68,0.00,,---,0.00,VWS V14.01,2013-01-15 09:10:00,
2013-01-15 03:11:00,24.9,15.9,30.30,North,0,7.1,7.8,68,0.00,,---,0.00,VWS V14.01,2013-01-15 09:11:00,
2013-01-15 03:12:00,24.9,15.9,30.30,North,0,7.1,7.1,68,0.00,,---,0.00,VWS V14.01,2013-01-15 09:12:00,
2013-01-15 03:13:00,24.9,15.9,30.30,NNE,22,6.9,6.9,68,0.00,,---,0.00,VWS V14.01,2013-01-15 09:13:00,
2013-01-15 03:14:00,24.9,15.9,30.30,NNE,22,6.9,6.9,68,0.00,,---,0.00,VWS V14.01,2013-01-15 09:14:00,
2013-01-15 03:15:00,24.9,15.9,30.30,North,0,2.0,6.9,68,0.00,,---,0.00,VWS V14.01,2013-01-15 09:15:00,
2013-01-15 03:16:00,24.9,15.9,30.30,North,0,2.0,2.0,68,0.00,,---,0.00,VWS V14.01,2013-01-15 09:16:00,
2013-01-15 03:17:00,24.9,15.9,30.30,North,0,6.9,6.9,68,0.00,,---,0.00,VWS V14.01,2013-01-15 09:17:00,
2013-01-15 03:18:00,24.9,15.9,30.29,North,0,6.9,6.9,68,0.00,,---,0.00,VWS V14.01,2013-01-15 09:18:00,
2013-01-15 03:19:00,24.9,15.9,30.30,North,0,6.9,6.9,68,0.00,,---,0.00,VWS V14.01,2013-01-15 09:19:00,
2013-01-15 03:20:00,24.9,15.9,30.30,NNE,22,6.2,6.9,68,0.00,,---,0.00,VWS V14.01,2013-01-15 09:20:00,
2013-01-15 03:21:00,24.9,15.9,30.30,NNE,22,6.2,6.2,68,0.00,,---,0.00,VWS V14.01,2013-01-15 09:21:00,
2013-01-15 03:22:00,24.9,15.9,30.30,NNE,22,6.0,6.2,68,0.00,,---,0.00,VWS V14.01,2013-01-15 09:22:00,
2013-01-15 03:23:00,24.9,15.9,30.30,NNE,22,6.0,6.0,68,0.00,,---,0.00,VWS V14.01,2013-01-15 09:23:00,
2013-01-15 03:24:00,24.9,15.9,30.30,North,0,6.9,6.9,68,0.00,,---,0.00,VWS V14.01,2013-01-15 09:24:00,
2013-01-15 03:25:00,24.9,15.9,30.30,North,0,6.9,6.9,68,0.00,,---,0.00,VWS V14.01,2013-01-15 09:25:00,
2013-01-15 03:26:00,24.9,15.9,30.30,North,0,7.8,7.8,68,0.00,,---,0.00,VWS V14.01,2013-01-15 09:26:00,
2013-01-15 03:27:00,24.9,15.9,30.30,North,0,7.8,7.8,68,0.00,,---,0.00,VWS V14.01,2013-01-15 09:27:00,
2013-01-15 03:28:00,24.8,15.8,30.30,North,0,6.2,6.2,68,0.00,,---,0.00,VWS V14.01,2013-01-15 09:28:00,
2013-01-15 03:29:00,24.8,15.8,30.30,North,0,6.2,6.2,68,0.00,,---,0.00,VWS V14.01,2013-01-15 09:29:00,
2013-01-15 03:30:00,24.6,15.6,30.29,North,0,6.9,6.9,68,0.00,,---,0.00,VWS V14.01,2013-01-15 09:30:00,
2013-01-15 03:31:00,24.6,15.6,30.29,North,0,6.9,6.9,68,0.00,,---,0.00,VWS V14.01,2013-01-15 09:31:00,
2013-01-15 03:32:00,24.6,15.6,30.29,North,0,6.9,6.9,68,0.00,,---,0.00,VWS V14.01,2013-01-15 09:32:00,
2013-01-15 03:33:00,24.6,15.6,30.29,North,0,0.6,0.6,68,0.00,,---,0.00,VWS V14.01,2013-01-15 09:33:00,
2013-01-15 03:34:00,24.6,15.6,30.29,North,0,0.6,0.6,68,0.00,,---,0.00,VWS V14.01,2013-01-15 09:34:00,
2013-01-15 03:35:00,24.6,15.6,30.29,North,0,10.2,10.2,68,0.00,,---,0.00,VWS V14.01,2013-01-15 09:35:00,
2013-01-15 03:36:00,24.6,15.6,30.29,North,0,10.2,10.2,68,0.00,,---,0.00,VWS V14.01,2013-01-15 09:36:00,
2013-01-15 03:37:00,24.6,15.6,30.29,North,0,7.6,10.2,68,0.00,,---,0.00,VWS V14.01,2013-01-15 09:37:00,
2013-01-15 03:38:00,24.6,15.6,30.29,North,0,7.6,7.6,68,0.00,,---,0.00,VWS V14.01,2013-01-15 09:38:00,
2013-01-15 03:39:00,24.6,15.6,30.29,NNE,22,7.1,7.6,68,0.00,,---,0.00,VWS V14.01,2013-01-15 09:39:00,
2013-01-15 03:40:00,24.6,15.6,30.28,NNE,22,7.1,7.1,68,0.00,,---,0.00,VWS V14.01,2013-01-15 09:40:00,
2013-01-15 03:41:00,24.6,15.6,30.28,North,0,6.4,7.1,68,0.00,,---,0.00,VWS V14.01,2013-01-15 09:41:00,
2013-01-15 03:42:00,24.6,15.6,30.28,North,0,6.4,6.4,68,0.00,,---,0.00,VWS V14.01,2013-01-15 09:42:00,
2013-01-15 03:43:00,24.6,15.6,30.28,North,0,6.9,6.9,68,0.00,,---,0.00,VWS V14.01,2013-01-15 09:43:00,
2013-01-15 03:44:00,24.6,15.6,30.28,North,0,6.9,6.9,68,0.00,,---,0.00,VWS V14.01,2013-01-15 09:44:00,
2013-01-15 03:45:00,24.6,15.6,30.29,North,0,5.3,6.9,68,0.00,,---,0.00,VWS V14.01,2013-01-15 09:45:00,
2013-01-15 03:46:00,24.6,15.6,30.29,North,0,5.3,5.3,68,0.00,,---,0.00,VWS V14.01,2013-01-15 09:46:00,
2013-01-15 03:47:00,24.6,15.6,30.29,North,0,6.7,6.7,68,0.00,,---,0.00,VWS V14.01,2013-01-15 09:47:00,
2013-01-15 03:48:00,24.6,15.6,30.29,North,0,6.7,6.7,68,0.00,,---,0.00,VWS V14.01,2013-01-15 09:48:00,
2013-01-15 03:49:00,24.6,15.6,30.29,North,0,6.7,6.7,68,0.00,,---,0.00,VWS V14.01,2013-01-15 09:49:00,
2013-01-15 03:50:00,24.6,15.6,30.29,North,0,1.3,6.7,68,0.00,,---,0.00,VWS V14.01,2013-01-15 09:50:00,
2013-01-15 03:51:00,24.6,15.6,30.29,North,0,1.3,1.3,68,0.00,,---,0.00,VWS V14.01,2013-01-15 09:51:00,
2013-01-15 03:52:00,24.4,15.4,30.29,NNE,22,7.1,7.1,68,0.00,,---,0.00,VWS V14.01,2013-01-15 09:52:00,
2013-01-15 03:53:00,24.4,15.4,30.29,NNE,22,7.1,7.1,68,0.00,,---,0.00,VWS V14.01,2013-01-15 09:53:00,
2013-01-15 03:54:00,24.4,15.4,30.28,NNE,22,4.2,7.1,68,0.00,,---,0.00,VWS V14.01,2013-01-15 09:54:00,
2013-01-15 03:55:00,24.4,15.4,30.29,NNE,22,4.2,4.2,68,0.00,,---,0.00,VWS V14.01,2013-01-15 09:55:00,
2013-01-15 03:56:00,24.4,15.4,30.29,NE,45,7.3,7.3,68,0.00,,---,0.00,VWS V14.01,2013-01-15 09:56:00,
2013-01-15 03:57:00,24.4,15.4,30.29,NE,45,7.3,7.3,68,0.00,,---,0.00,VWS V14.01,2013-01-15 09:57:00,
2013-01-15 03:58:00,24.4,15.4,30.29,North,0,1.7,1.7,68,0.00,,---,0.00,VWS V14.01,2013-01-15 09:58:00,
2013-01-15 03:59:00,24.4,15.4,30.29,North,0,1.7,1.7,68,0.00,,---,0.00,VWS V14.01,2013-01-15 09:59:00,
2013-01-15 04:00:00,24.4,15.4,30.29,North,0,0.0,1.7,68,0.00,,---,0.00,VWS V14.01,2013-01-15 10:00:00,
2013-01-15 04:01:00,24.4,15.4,30.29,North,0,0.0,0.0,68,0.00,,---,0.00,VWS V14.01,2013-01-15 10:01:00,
2013-01-15 04:02:00,24.4,15.4,30.30,NNE,22,4.9,4.9,68,0.00,,---,0.00,VWS V14.01,2013-01-15 10:02:00,
2013-01-15 04:03:00,24.4,15.4,30.30,NNE,22,4.9,4.9,68,0.00,,---,0.00,VWS V14.01,2013-01-15 10:03:00,
2013-01-15 04:04:00,24.4,15.4,30.30,NNE,22,4.9,4.9,68,0.00,,---,0.00,VWS V14.01,2013-01-15 10:04:00,
2013-01-15 04:05:00,24.4,15.4,30.30,NNE,22,0.0,4.9,68,0.00,,---,0.00,VWS V14.01,2013-01-15 10:05:00,
2013-01-15 04:06:00,24.4,15.4,30.30,NNE,22,0.0,0.0,68,0.00,,---,0.00,VWS V14.01,2013-01-15 10:06:00,
2013-01-15 04:07:00,24.4,15.4,30.30,NNE,22,3.3,3.3,68,0.00,,---,0.00,VWS V14.01,2013-01-15 10:07:00,
2013-01-15 04:08:00,24.4,15.4,30.30,NNE,22,3.3,3.3,68,0.00,,---,0.00,VWS V14.01,2013-01-15 10:08:00,
2013-01-15 04:09:00,24.4,15.4,30.30,NNE,22,2.0,3.3,68,0.00,,---,0.00,VWS V14.01,2013-01-15 10:09:00,
2013-01-15 04:10:00,24.4,15.4,30.30,NNE,22,2.0,2.0,68,0.00,,---,0.00,VWS V14.01,2013-01-15 10:10:00,
2013-01-15 04:11:00,24.4,15.4,30.30,North,0,1.5,2.0,68,0.00,,---,0.00,VWS V14.01,2013-01-15 10:11:00,
2013-01-15 04:12:00,24.4,15.4,30.30,North,0,1.5,1.5,68,0.00,,---,0.00,VWS V14.01,2013-01-15 10:12:00,
2013-01-15 04:13:00,24.4,15.4,30.30,North,0,0.0,0.0,68,0.00,,---,0.00,VWS V14.01,2013-01-15 10:13:00,
2013-01-15 04:14:00,24.4,15.4,30.30,North,0,0.0,0.0,68,0.00,,---,0.00,VWS V14.01,2013-01-15 10:14:00,
2013-01-15 04:15:00,24.4,15.4,30.30,North,0,0.0,0.0,68,0.00,,---,0.00,VWS V14.01,2013-01-15 10:15:00,
2013-01-15 04:16:00,24.4,15.4,30.30,North,0,0.0,0.0,68,0.00,,---,0.00,VWS V14.01,2013-01-15 10:16:00,
2013-01-15 04:17:00,24.4,15.4,30.30,North,0,0.0,0.0,68,0.00,,---,0.00,VWS V14.01,2013-01-15 10:17:00,
2013-01-15 04:18:00,24.4,15.4,30.30,North,0,0.0,0.0,68,0.00,,---,0.00,VWS V14.01,2013-01-15 10:18:00,
2013-01-15 04:19:00,24.4,15.4,30.30,North,0,0.0,0.0,68,0.00,,---,0.00,VWS V14.01,2013-01-15 10:19:00,
2013-01-15 04:20:00,24.4,15.4,30.30,NNE,22,3.1,3.1,68,0.00,,---,0.00,VWS V14.01,2013-01-15 10:20:00,
2013-01-15 04:21:00,24.4,15.4,30.30,NNE,22,3.1,3.1,68,0.00,,---,0.00,VWS V14.01,2013-01-15 10:21:00,
2013-01-15 04:22:00,24.4,15.4,30.30,North,0,2.9,3.1,68,0.00,,---,0.00,VWS V14.01,2013-01-15 10:22:00,
2013-01-15 04:23:00,24.4,15.4,30.30,North,0,2.9,2.9,68,0.00,,---,0.00,VWS V14.01,2013-01-15 10:23:00,
2013-01-15 04:24:00,24.4,15.4,30.30,North,0,0.0,2.9,68,0.00,,---,0.00,VWS V14.01,2013-01-15 10:24:00,
2013-01-15 04:25:00,24.4,15.4,30.29,North,0,0.0,0.0,68,0.00,,---,0.00,VWS V14.01,2013-01-15 10:25:00,
2013-01-15 04:26:00,24.4,15.4,30.29,NNE,22,0.0,0.0,68,0.00,,---,0.00,VWS V14.01,2013-01-15 10:26:00,
2013-01-15 04:27:00,24.4,15.4,30.29,NNE,22,0.0,0.0,68,0.00,,---,0.00,VWS V14.01,2013-01-15 10:27:00,
2013-01-15 04:28:00,24.4,15.4,30.29,NNE,22,1.3,1.3,68,0.00,,---,0.00,VWS V14.01,2013-01-15 10:28:00,
2013-01-15 04:29:00,24.4,15.4,30.29,NNE,22,1.3,1.3,68,0.00,,---,0.00,VWS V14.01,2013-01-15 10:29:00,
2013-01-15 04:30:00,24.2,15.2,30.29,NNE,22,0.0,1.3,68,0.00,,---,0.00,VWS V14.01,2013-01-15 10:30:00,
2013-01-15 04:31:00,24.2,15.2,30.29,NNE,22,0.0,0.0,68,0.00,,---,0.00,VWS V14.01,2013-01-15 10:31:00,
2013-01-15 04:32:00,24.2,15.2,30.29,North,0,0.6,0.6,68,0.00,,---,0.00,VWS V14.01,2013-01-15 10:32:00,
2013-01-15 04:33:00,24.0,15.0,30.29,North,0,0.6,0.6,68,0.00,,---,0.00,VWS V14.01,2013-01-15 10:33:00,
2013-01-15 04:34:00,24.0,15.0,30.28,North,0,0.6,0.6,68,0.00,,---,0.00,VWS V14.01,2013-01-15 10:34:00,
2013-01-15 04:35:00,24.0,15.0,30.29,NNE,22,0.0,0.6,68,0.00,,---,0.00,VWS V14.01,2013-01-15 10:35:00,
2013-01-15 04:36:00,24.0,15.0,30.29,NNE,22,0.0,0.0,68,0.00,,---,0.00,VWS V14.01,2013-01-15 10:36:00,
2013-01-15 04:37:00,24.0,15.3,30.28,North,0,0.0,0.0,69,0.00,,---,0.00,VWS V14.01,2013-01-15 10:37:00,
2013-01-15 04:38:00,24.0,15.3,30.29,North,0,0.0,0.0,69,0.00,,---,0.00,VWS V14.01,2013-01-15 10:38:00,
2013-01-15 04:39:00,24.0,15.3,30.29,North,0,0.0,0.0,69,0.00,,---,0.00,VWS V14.01,2013-01-15 10:39:00,
2013-01-15 04:40:00,24.0,15.3,30.29,North,0,0.0,0.0,69,0.00,,---,0.00,VWS V14.01,2013-01-15 10:40:00,
2013-01-15 04:41:00,24.0,15.3,30.29,North,0,0.0,0.0,69,0.00,,---,0.00,VWS V14.01,2013-01-15 10:41:00,
2013-01-15 04:42:00,24.0,15.3,30.29,North,0,0.0,0.0,69,0.00,,---,0.00,VWS V14.01,2013-01-15 10:42:00,
2013-01-15 04:43:00,24.0,15.3,30.29,NNE,22,2.9,2.9,69,0.00,,---,0.00,VWS V14.01,2013-01-15 10:43:00,
2013-01-15 04:44:00,24.0,15.3,30.29,NNE,22,2.9,2.9,69,0.00,,---,0.00,VWS V14.01,2013-01-15 10:44:00,
2013-01-15 04:45:00,24.0,15.3,30.29,North,0,0.0,2.9,69,0.00,,---,0.00,VWS V14.01,2013-01-15 10:45:00,
2013-01-15 04:46:00,24.0,15.3,30.29,North,0,0.0,0.0,69,0.00,,---,0.00,VWS V14.01,2013-01-15 10:46:00,
2013-01-15 04:47:00,24.0,15.3,30.29,North,0,0.6,0.6,69,0.00,,---,0.00,VWS V14.01,2013-01-15 10:47:00,
2013-01-15 04:48:00,24.0,15.3,30.29,North,0,0.6,0.6,69,0.00,,---,0.00,VWS V14.01,2013-01-15 10:48:00,
2013-01-15 04:49:00,24.0,15.3,30.29,North,0,0.6,0.6,69,0.00,,---,0.00,VWS V14.01,2013-01-15 10:49:00,
2013-01-15 04:50:00,24.0,15.3,30.29,North,0,0.0,0.6,69,0.00,,---,0.00,VWS V14.01,2013-01-15 10:50:00,
2013-01-15 04:51:00,24.0,15.3,30.28,North,0,0.0,0.0,69,0.00,,---,0.00,VWS V14.01,2013-01-15 10:51:00,
2013-01-15 04:52:00,23.9,15.2,30.29,North,0,3.5,3.5,69,0.00,,---,0.00,VWS V14.01,2013-01-15 10:52:00,
2013-01-15 04:53:00,23.9,15.2,30.28,North,0,3.5,3.5,69,0.00,,---,0.00,VWS V14.01,2013-01-15 10:53:00,
2013-01-15 04:54:00,23.9,15.2,30.28,NNE,22,4.0,4.0,69,0.00,,---,0.00,VWS V14.01,2013-01-15 10:54:00,
2013-01-15 04:55:00,23.9,15.2,30.28,NNE,22,4.0,4.0,69,0.00,,---,0.00,VWS V14.01,2013-01-15 10:55:00,
2013-01-15 04:56:00,23.9,15.2,30.28,NNE,22,1.1,4.0,69,0.00,,---,0.00,VWS V14.01,2013-01-15 10:56:00,
2013-01-15 04:57:00,23.9,15.2,30.28,NNE,22,1.1,1.1,69,0.00,,---,0.00,VWS V14.01,2013-01-15 10:57:00,
2013-01-15 04:58:00,23.9,15.2,30.28,NNE,22,0.0,0.0,69,0.00,,---,0.00,VWS V14.01,2013-01-15 10:58:00,
2013-01-15 04:59:00,23.9,15.2,30.28,NNE,22,0.0,0.0,69,0.00,,---,0.00,VWS V14.01,2013-01-15 10:59:00,
2013-01-15 05:00:00,23.9,15.2,30.27,NNE,22,6.9,6.9,69,0.00,,---,0.00,VWS V14.01,2013-01-15 11:00:00,
2013-01-15 05:01:00,23.9,15.2,30.27,NNE,22,6.9,6.9,69,0.00,,---,0.00,VWS V14.01,2013-01-15 11:01:00,
2013-01-15 05:02:00,23.9,15.2,30.27,NNE,22,0.0,6.9,69,0.00,,---,0.00,VWS V14.01,2013-01-15 11:02:00,
2013-01-15 05:03:00,23.9,15.2,30.27,NNE,22,0.0,0.0,69,0.00,,---,0.00,VWS V14.01,2013-01-15 11:03:00,
2013-01-15 05:04:00,23.9,15.2,30.27,NNE,22,0.0,0.0,69,0.00,,---,0.00,VWS V14.01,2013-01-15 11:04:00,
2013-01-15 05:05:00,23.9,15.2,30.27,North,0,0.0,0.0,69,0.00,,---,0.00,VWS V14.01,2013-01-15 11:05:00,
2013-01-15 05:06:00,23.9,15.2,30.27,North,0,0.0,0.0,69,0.00,,---,0.00,VWS V14.01,2013-01-15 11:06:00,
2013-01-15 05:07:00,23.9,15.2,30.28,North,0,5.3,5.3,69,0.00,,---,0.00,VWS V14.01,2013-01-15 11:07:00,
2013-01-15 05:08:00,23.9,15.2,30.28,North,0,5.3,5.3,69,0.00,,---,0.00,VWS V14.01,2013-01-15 11:08:00,
2013-01-15 05:09:00,23.9,15.2,30.27,North,0,0.0,5.3,69,0.00,,---,0.00,VWS V14.01,2013-01-15 11:09:00,
2013-01-15 05:10:00,23.9,15.2,30.27,North,0,0.0,0.0,69,0.00,,---,0.00,VWS V14.01,2013-01-15 11:10:00,
2013-01-15 05:11:00,23.9,15.2,30.27,North,0,0.0,0.0,69,0.00,,---,0.00,VWS V14.01,2013-01-15 11:11:00,
2013-01-15 05:12:00,23.9,15.2,30.27,North,0,0.0,0.0,69,0.00,,---,0.00,VWS V14.01,2013-01-15 11:12:00,
2013-01-15 05:13:00,23.9,15.2,30.28,North,0,2.2,2.2,69,0.00,,---,0.00,VWS V14.01,2013-01-15 11:13:00,
2013-01-15 05:14:00,23.9,15.2,30.28,North,0,2.2,2.2,69,0.00,,---,0.00,VWS V14.01,2013-01-15 11:14:00,
2013-01-15 05:15:00,23.9,15.2,30.28,North,0,1.1,2.2,69,0.00,,---,0.00,VWS V14.01,2013-01-15 11:15:00,
2013-01-15 05:16:00,23.9,15.2,30.28,North,0,1.1,1.1,69,0.00,,---,0.00,VWS V14.01,2013-01-15 11:16:00,
2013-01-15 05:17:00,23.9,15.6,30.27,North,0,3.3,3.3,70,0.00,,---,0.00,VWS V14.01,2013-01-15 11:17:00,
2013-01-15 05:18:00,23.7,15.4,30.27,North,0,3.3,3.3,70,0.00,,---,0.00,VWS V14.01,2013-01-15 11:18:00,
2013-01-15 05:19:00,23.7,15.4,30.27,North,0,3.3,3.3,70,0.00,,---,0.00,VWS V14.01,2013-01-15 11:19:00,
2013-01-15 05:20:00,23.7,15.4,30.27,North,0,5.8,5.8,70,0.00,,---,0.00,VWS V14.01,2013-01-15 11:20:00,
2013-01-15 05:21:00,23.7,15.4,30.27,North,0,5.8,5.8,70,0.00,,---,0.00,VWS V14.01,2013-01-15 11:21:00,
2013-01-15 05:22:00,23.7,15.4,30.27,NNE,22,0.0,5.8,70,0.00,,---,0.00,VWS V14.01,2013-01-15 11:22:00,
2013-01-15 05:23:00,23.7,15.4,30.27,NNE,22,0.0,0.0,70,0.00,,---,0.00,VWS V14.01,2013-01-15 11:23:00,
2013-01-15 05:24:00,23.7,15.4,30.27,North,0,6.4,6.4,70,0.00,,---,0.00,VWS V14.01,2013-01-15 11:24:00,
2013-01-15 05:25:00,23.7,15.4,30.27,North,0,6.4,6.4,70,0.00,,---,0.00,VWS V14.01,2013-01-15 11:25:00,
2013-01-15 05:26:00,23.7,15.4,30.27,North,0,7.6,7.6,70,0.00,,---,0.00,VWS V14.01,2013-01-15 11:26:00,
2013-01-15 05:27:00,23.7,15.4,30.27,North,0,7.6,7.6,70,0.00,,---,0.00,VWS V14.01,2013-01-15 11:27:00,
2013-01-15 05:28:00,23.7,15.4,30.27,North,0,5.3,5.3,70,0.00,,---,0.00,VWS V14.01,2013-01-15 11:28:00,
2013-01-15 05:29:00,23.7,15.4,30.28,North,0,5.3,5.3,70,0.00,,---,0.00,VWS V14.01,2013-01-15 11:29:00,
2013-01-15 05:30:00,23.7,15.4,30.27,North,0,4.6,5.3,70,0.00,,---,0.00,VWS V14.01,2013-01-15 11:30:00,
2013-01-15 05:31:00,23.7,15.4,30.27,North,0,4.6,4.6,70,0.00,,---,0.00,VWS V14.01,2013-01-15 11:31:00,
2013-01-15 05:32:00,23.7,15.4,30.27,NNE,22,5.8,5.8,70,0.00,,---,0.00,VWS V14.01,2013-01-15 11:32:00,
2013-01-15 05:33:00,23.7,15.4,30.27,NNE,22,5.8,5.8,70,0.00,,---,0.00,VWS V14.01,2013-01-15 11:33:00,
2013-01-15 05:34:00,23.7,15.4,30.28,NNE,22,5.8,5.8,70,0.00,,---,0.00,VWS V14.01,2013-01-15 11:34:00,
2013-01-15 05:35:00,23.7,15.4,30.27,North,0,9.3,9.3,70,0.00,,---,0.00,VWS V14.01,2013-01-15 11:35:00,
2013-01-15 05:36:00,23.7,15.4,30.27,North,0,9.3,9.3,70,0.00,,---,0.00,VWS V14.01,2013-01-15 11:36:00,
2013-01-15 05:37:00,23.5,15.2,30.27,North,0,5.5,9.3,70,0.00,,---,0.00,VWS V14.01,2013-01-15 11:37:00,
2013-01-15 05:38:00,23.5,15.2,30.27,North,0,5.5,5.5,70,0.00,,---,0.00,VWS V14.01,2013-01-15 11:38:00,
2013-01-15 05:39:00,23.5,15.2,30.27,North,0,7.1,7.1,70,0.00,,---,0.00,VWS V14.01,2013-01-15 11:39:00,
2013-01-15 05:40:00,23.5,15.2,30.27,North,0,7.1,7.1,70,0.00,,---,0.00,VWS V14.01,2013-01-15 11:40:00,
2013-01-15 05:41:00,23.5,15.2,30.28,North,0,5.8,7.1,70,0.00,,---,0.00,VWS V14.01,2013-01-15 11:41:00,
2013-01-15 05:42:00,23.5,15.2,30.28,North,0,5.8,5.8,70,0.00,,---,0.00,VWS V14.01,2013-01-15 11:42:00,
2013-01-15 05:43:00,23.5,15.2,30.28,NNW,338,0.4,0.4,70,0.00,,---,0.00,VWS V14.01,2013-01-15 11:43:00,
2013-01-15 05:44:00,23.5,15.2,30.28,NNW,338,0.4,0.4,70,0.00,,---,0.00,VWS V14.01,2013-01-15 11:44:00,
2013-01-15 05:45:00,23.5,15.2,30.28,North,0,0.0,0.4,70,0.00,,---,0.00,VWS V14.01,2013-01-15 11:45:00,
2013-01-15 05:46:00,23.5,15.2,30.28,North,0,0.0,0.0,70,0.00,,---,0.00,VWS V14.01,2013-01-15 11:46:00,
2013-01-15 05:47:00,23.5,15.2,30.28,NNE,22,3.8,3.8,70,0.00,,---,0.00,VWS V14.01,2013-01-15 11:47:00,
2013-01-15 05:48:00,23.5,15.2,30.28,NNE,22,3.8,3.8,70,0.00,,---,0.00,VWS V14.01,2013-01-15 11:48:00,
2013-01-15 05:49:00,23.5,15.2,30.28,NNE,22,3.8,3.8,70,0.00,,---,0.00,VWS V14.01,2013-01-15 11:49:00,
2013-01-15 05:50:00,23.5,15.2,30.28,NNE,22,4.9,4.9,70,0.00,,---,0.00,VWS V14.01,2013-01-15 11:50:00,
2013-01-15 05:51:00,23.5,15.2,30.28,NNE,22,4.9,4.9,70,0.00,,---,0.00,VWS V14.01,2013-01-15 11:51:00,
2013-01-15 05:52:00,23.5,15.2,30.28,North,0,6.4,6.4,70,0.00,,---,0.00,VWS V14.01,2013-01-15 11:52:00,
2013-01-15 05:53:00,23.5,15.2,30.28,North,0,6.4,6.4,70,0.00,,---,0.00,VWS V14.01,2013-01-15 11:53:00,
2013-01-15 05:54:00,23.5,15.2,30.28,North,0,6.7,6.7,70,0.00,,---,0.00,VWS V14.01,2013-01-15 11:54:00,
2013-01-15 05:55:00,23.5,15.2,30.29,North,0,6.7,6.7,70,0.00,,---,0.00,VWS V14.01,2013-01-15 11:55:00,
2013-01-15 05:56:00,23.5,15.2,30.29,NNE,22,2.9,6.7,70,0.00,,---,0.00,VWS V14.01,2013-01-15 11:56:00,
2013-01-15 05:57:00,23.5,15.2,30.29,NNE,22,2.9,2.9,70,0.00,,---,0.00,VWS V14.01,2013-01-15 11:57:00,
2013-01-15 05:58:00,23.5,15.2,30.29,NNE,22,2.4,2.4,70,0.00,,---,0.00,VWS V14.01,2013-01-15 11:58:00,
2013-01-15 05:59:00,23.5,15.2,30.29,NNE,22,2.4,2.4,70,0.00,,---,0.00,VWS V14.01,2013-01-15 11:59:00,
2013-01-15 06:00:00,23.5,15.2,30.29,North,0,0.0,2.4,70,0.00,,---,0.00,VWS V14.01,2013-01-15 12:00:00,
2013-01-15 06:01:00,23.5,15.2,30.30,North,0,0.0,0.0,70,0.00,,---,0.00,VWS V14.01,2013-01-15 12:01:00,
2013-01-15 06:02:00,23.5,15.2,30.30,North,0,0.0,0.0,70,0.00,,---,0.00,VWS V14.01,2013-01-15 12:02:00,
2013-01-15 06:03:00,23.5,15.2,30.30,North,0,0.0,0.0,70,0.00,,---,0.00,VWS V14.01,2013-01-15 12:03:00,
2013-01-15 06:04:00,23.5,15.2,30.30,North,0,0.0,0.0,70,0.00,,---,0.00,VWS V14.01,2013-01-15 12:04:00,
2013-01-15 06:05:00,23.5,15.2,30.30,North,0,0.6,0.6,70,0.00,,---,0.00,VWS V14.01,2013-01-15 12:05:00,
2013-01-15 06:06:00,23.5,15.2,30.30,North,0,0.6,0.6,70,0.00,,---,0.00,VWS V14.01,2013-01-15 12:06:00,
2013-01-15 06:07:00,23.5,15.2,30.30,North,0,0.0,0.6,70,0.00,,---,0.00,VWS V14.01,2013-01-15 12:07:00,
2013-01-15 06:08:00,23.5,15.2,30.30,North,0,0.0,0.0,70,0.00,,---,0.00,VWS V14.01,2013-01-15 12:08:00,
2013-01-15 06:09:00,23.5,15.2,30.30,NNE,22,0.0,0.0,70,0.00,,---,0.00,VWS V14.01,2013-01-15 12:09:00,
2013-01-15 06:10:00,23.5,15.2,30.30,NNE,22,0.0,0.0,70,0.00,,---,0.00,VWS V14.01,2013-01-15 12:10:00,
2013-01-15 06:11:00,23.5,15.2,30.30,North,0,2.6,2.6,70,0.00,,---,0.00,VWS V14.01,2013-01-15 12:11:00,
2013-01-15 06:12:00,23.5,15.2,30.30,North,0,2.6,2.6,70,0.00,,---,0.00,VWS V14.01,2013-01-15 12:12:00,
2013-01-15 06:13:00,23.5,15.2,30.30,North,0,0.0,0.0,70,0.00,,---,0.00,VWS V14.01,2013-01-15 12:13:00,
2013-01-15 06:14:00,23.5,15.2,30.30,North,0,0.0,0.0,70,0.00,,---,0.00,VWS V14.01,2013-01-15 12:14:00,
2013-01-15 06:15:00,23.5,15.2,30.30,North,0,2.9,2.9,70,0.00,,---,0.00,VWS V14.01,2013-01-15 12:15:00,
2013-01-15 06:16:00,23.5,15.2,30.30,North,0,2.9,2.9,70,0.00,,---,0.00,VWS V14.01,2013-01-15 12:16:00,
2013-01-15 06:17:00,23.5,15.2,30.30,North,0,2.9,2.9,70,0.00,,---,0.00,VWS V14.01,2013-01-15 12:17:00,
2013-01-15 06:18:00,23.5,15.2,30.30,North,0,2.9,2.9,70,0.00,,---,0.00,VWS V14.01,2013-01-15 12:18:00,
2013-01-15 06:19:00,23.5,15.2,30.30,North,0,0.4,2.9,70,0.00,,---,0.00,VWS V14.01,2013-01-15 12:19:00,
2013-01-15 06:20:00,23.5,15.2,30.30,North,0,0.0,0.4,70,0.00,,---,0.00,VWS V14.01,2013-01-15 12:20:00,
2013-01-15 06:21:00,23.5,15.2,30.30,North,0,0.0,0.0,70,0.00,,---,0.00,VWS V14.01,2013-01-15 12:21:00,
2013-01-15 06:22:00,23.5,15.2,30.30,North,0,6.0,6.0,70,0.00,,---,0.00,VWS V14.01,2013-01-15 12:22:00,
2013-01-15 06:23:00,23.5,15.2,30.30,North,0,6.0,6.0,70,0.00,,---,0.00,VWS V14.01,2013-01-15 12:23:00,
2013-01-15 06:24:00,23.5,15.2,30.30,North,0,6.9,6.9,70,0.00,,---,0.00,VWS V14.01,2013-01-15 12:24:00,
2013-01-15 06:25:00,23.5,15.2,30.29,North,0,6.9,6.9,70,0.00,,---,0.00,VWS V14.01,2013-01-15 12:25:00,
2013-01-15 06:26:00,23.5,15.2,30.29,NW,315,7.1,7.1,70,0.00,,---,0.00,VWS V14.01,2013-01-15 12:26:00,
2013-01-15 06:27:00,23.5,15.2,30.28,NW,315,7.1,7.1,70,0.00,,---,0.00,VWS V14.01,2013-01-15 12:27:00,
2013-01-15 06:28:00,23.5,15.2,30.28,North,0,6.9,6.9,70,0.00,,---,0.00,VWS V14.01,2013-01-15 12:28:00,
2013-01-15 06:29:00,23.5,15.2,30.28,North,0,6.9,6.9,70,0.00,,---,0.00,VWS V14.01,2013-01-15 12:29:00,
2013-01-15 06:30:00,23.5,15.2,30.28,North,0,7.8,7.8,70,0.00,,---,0.00,VWS V14.01,2013-01-15 12:30:00,
2013-01-15 06:31:00,23.5,15.2,30.28,North,0,7.8,7.8,70,0.00,,---,0.00,VWS V14.01,2013-01-15 12:31:00,
2013-01-15 06:32:00,23.5,15.2,30.28,North,0,6.4,7.8,70,0.00,,---,0.00,VWS V14.01,2013-01-15 12:32:00,
2013-01-15 06:33:00,23.5,15.2,30.29,North,0,6.4,6.4,70,0.00,,---,0.00,VWS V14.01,2013-01-15 12:33:00,
2013-01-15 06:34:00,23.5,15.2,30.29,North,0,6.4,6.4,70,0.00,,---,0.00,VWS V14.01,2013-01-15 12:34:00,
2013-01-15 06:35:00,23.5,15.2,30.29,North,0,7.1,7.1,70,0.00,,---,0.00,VWS V14.01,2013-01-15 12:35:00,
2013-01-15 06:36:00,23.5,15.2,30.29,North,0,7.1,7.1,70,0.00,,---,0.00,VWS V14.01,2013-01-15 12:36:00,
2013-01-15 06:37:00,23.5,15.2,30.29,NNW,338,10.2,10.2,70,0.00,,---,0.00,VWS V14.01,2013-01-15 12:37:00,
2013-01-15 06:38:00,23.5,15.2,30.29,NNW,338,10.2,10.2,70,0.00,,---,0.00,VWS V14.01,2013-01-15 12:38:00,
2013-01-15 06:39:00,23.5,15.2,30.29,North,0,9.6,10.2,70,0.00,,---,0.00,VWS V14.01,2013-01-15 12:39:00,
2013-01-15 06:40:00,23.5,15.2,30.29,North,0,9.6,9.6,70,0.00,,---,0.00,VWS V14.01,2013-01-15 12:40:00,
2013-01-15 06:41:00,23.5,15.2,30.29,North,0,9.6,9.6,70,0.00,,---,0.00,VWS V14.01,2013-01-15 12:41:00,
2013-01-15 06:42:00,23.5,15.2,30.29,North,0,8.2,9.6,70,0.00,,---,0.00,VWS V14.01,2013-01-15 12:42:00,
2013-01-15 06:43:00,23.5,15.2,30.29,North,0,7.6,7.6,70,0.00,,---,0.00,VWS V14.01,2013-01-15 12:43:00,
2013-01-15 06:44:00,23.5,15.2,30.29,North,0,7.6,7.6,70,0.00,,---,0.00,VWS V14.01,2013-01-15 12:44:00,
2013-01-15 06:45:00,23.5,15.2,30.30,NNW,338,8.2,8.2,70,0.00,,---,0.00,VWS V14.01,2013-01-15 12:45:00,
2013-01-15 06:46:00,23.5,15.2,30.30,NNW,338,8.2,8.2,70,0.00,,---,0.00,VWS V14.01,2013-01-15 12:46:00,
2013-01-15 06:47:00,23.7,15.4,30.30,NNW,338,10.0,10.0,70,0.00,,---,0.00,VWS V14.01,2013-01-15 12:47:00,
2013-01-15 06:48:00,23.7,15.4,30.30,NNW,338,10.0,10.0,70,0.00,,---,0.00,VWS V14.01,2013-01-15 12:48:00,
2013-01-15 06:49:00,23.7,15.4,30.29,NNW,338,10.0,10.0,70,0.00,,---,0.00,VWS V14.01,2013-01-15 12:49:00,
2013-01-15 06:50:00,23.7,15.4,30.29,North,0,7.1,10.0,70,0.00,,---,0.00,VWS V14.01,2013-01-15 12:50:00,
2013-01-15 06:51:00,23.7,15.4,30.29,North,0,7.1,7.1,70,0.00,,---,0.00,VWS V14.01,2013-01-15 12:51:00,
2013-01-15 06:52:00,23.7,15.4,30.29,North,0,6.2,7.1,70,0.00,,---,0.00,VWS V14.01,2013-01-15 12:52:00,
2013-01-15 06:53:00,23.7,15.4,30.29,North,0,6.2,6.2,70,0.00,,---,0.00,VWS V14.01,2013-01-15 12:53:00,
2013-01-15 06:54:00,23.7,15.4,30.29,North,0,7.6,7.6,70,0.00,,---,0.00,VWS V14.01,2013-01-15 12:54:00,
2013-01-15 06:55:00,23.7,15.4,30.29,North,0,7.6,7.6,70,0.00,,---,0.00,VWS V14.01,2013-01-15 12:55:00,
2013-01-15 06:56:00,23.7,15.4,30.29,North,0,3.5,7.6,70,0.00,,---,0.00,VWS V14.01,2013-01-15 12:56:00,
2013-01-15 06:57:00,23.7,15.4,30.29,North,0,3.5,3.5,70,0.00,,---,0.00,VWS V14.01,2013-01-15 12:57:00,
2013-01-15 06:58:00,23.7,15.4,30.29,North,0,5.8,5.8,70,0.00,,---,0.00,VWS V14.01,2013-01-15 12:58:00,
2013-01-15 06:59:00,23.7,15.4,30.29,North,0,5.8,5.8,70,0.00,,---,0.00,VWS V14.01,2013-01-15 12:59:00,
2013-01-15 07:00:00,23.7,15.4,30.29,NE,45,4.2,5.8,70,0.00,,---,0.00,VWS V14.01,2013-01-15 13:00:00,
2013-01-15 07:01:00,23.7,15.4,30.29,NE,45,4.2,4.2,70,0.00,,---,0.00,VWS V14.01,2013-01-15 13:01:00,
2013-01-15 07:02:00,23.9,15.6,30.29,North,0,3.8,4.2,70,0.00,,---,0.00,VWS V14.01,2013-01-15 13:02:00,
2013-01-15 07:03:00,23.9,15.6,30.28,North,0,3.8,3.8,70,0.00,,---,0.00,VWS V14.01,2013-01-15 13:03:00,
2013-01-15 07:04:00,23.9,15.6,30.28,North,0,3.8,3.8,70,0.00,,---,0.00,VWS V14.01,2013-01-15 13:04:00,
2013-01-15 07:05:00,23.9,15.6,30.28,North,0,5.1,5.1,70,0.00,,---,0.00,VWS V14.01,2013-01-15 13:05:00,
2013-01-15 07:06:00,23.9,15.6,30.28,North,0,5.1,5.1,70,0.00,,---,0.00,VWS V14.01,2013-01-15 13:06:00,
2013-01-15 07:07:00,23.9,15.6,30.28,North,0,6.0,6.0,70,0.00,,---,0.00,VWS V14.01,2013-01-15 13:07:00,
2013-01-15 07:08:00,23.9,15.6,30.28,North,0,6.0,6.0,70,0.00,,---,0.00,VWS V14.01,2013-01-15 13:08:00,
2013-01-15 07:09:00,23.9,15.6,30.28,North,0,8.5,8.5,70,0.00,,---,0.00,VWS V14.01,2013-01-15 13:09:00,
2013-01-15 07:10:00,23.9,15.6,30.28,North,0,8.5,8.5,70,0.00,,---,0.00,VWS V14.01,2013-01-15 13:10:00,
2013-01-15 07:11:00,23.9,15.6,30.28,NNW,338,7.1,8.5,70,0.00,,---,0.00,VWS V14.01,2013-01-15 13:11:00,
2013-01-15 07:12:00,23.9,15.6,30.28,NNW,338,7.1,7.1,70,0.00,,---,0.00,VWS V14.01,2013-01-15 13:12:00,
2013-01-15 07:13:00,23.9,15.6,30.28,North,0,0.6,0.6,70,0.00,,---,0.00,VWS V14.01,2013-01-15 13:13:00,
2013-01-15 07:14:00,23.9,15.6,30.28,North,0,0.6,0.6,70,0.00,,---,0.00,VWS V14.01,2013-01-15 13:14:00,
2013-01-15 07:15:00,23.9,15.2,30.28,North,0,0.0,0.6,69,0.00,,---,0.00,VWS V14.01,2013-01-15 13:15:00,
2013-01-15 07:16:00,23.9,15.2,30.28,North,0,0.0,0.0,69,0.00,,---,0.00,VWS V14.01,2013-01-15 13:16:00,
2013-01-15 07:17:00,23.9,15.2,30.28,North,0,1.1,1.1,69,0.00,,---,0.00,VWS V14.01,2013-01-15 13:17:00,
2013-01-15 07:18:00,23.9,15.2,30.28,North,0,1.1,1.1,69,0.00,,---,0.00,VWS V14.01,2013-01-15 13:18:00,
2013-01-15 07:19:00,23.9,15.2,30.28,North,0,1.1,1.1,69,0.00,,---,0.00,VWS V14.01,2013-01-15 13:19:00,
2013-01-15 07:20:00,23.9,15.2,30.28,North,0,2.6,2.6,69,0.00,,---,0.00,VWS V14.01,2013-01-15 13:20:00,
2013-01-15 07:21:00,23.9,15.2,30.28,North,0,2.6,2.6,69,0.00,,---,0.00,VWS V14.01,2013-01-15 13:21:00,
2013-01-15 07:22:00,23.9,15.2,30.29,NNE,22,6.9,6.9,69,0.00,,---,0.00,VWS V14.01,2013-01-15 13:22:00,
2013-01-15 07:23:00,23.9,15.2,30.29,NNE,22,6.9,6.9,69,0.00,,---,0.00,VWS V14.01,2013-01-15 13:23:00,
2013-01-15 07:24:00,23.9,15.2,30.29,North,0,5.5,6.9,69,0.00,,---,0.00,VWS V14.01,2013-01-15 13:24:00,
2013-01-15 07:25:00,23.9,15.2,30.29,North,0,5.5,5.5,69,0.00,,---,0.00,VWS V14.01,2013-01-15 13:25:00,
2013-01-15 07:26:00,23.9,15.2,30.29,NNE,22,0.6,5.5,69,0.00,,---,0.00,VWS V14.01,2013-01-15 13:26:00,
2013-01-15 07:27:00,23.9,15.2,30.30,NNE,22,0.6,0.6,69,0.00,,---,0.00,VWS V14.01,2013-01-15 13:27:00,
2013-01-15 07:28:00,23.9,15.2,30.30,North,0,0.8,0.8,69,0.00,,---,0.00,VWS V14.01,2013-01-15 13:28:00,
2013-01-15 07:29:00,23.9,15.2,30.30,North,0,0.8,0.8,69,0.00,,---,0.00,VWS V14.01,2013-01-15 13:29:00,
2013-01-15 07:30:00,23.9,15.2,30.30,NNE,22,5.1,5.1,69,0.00,,---,0.00,VWS V14.01,2013-01-15 13:30:00,
2013-01-15 07:31:00,23.9,15.2,30.30,NNE,22,5.1,5.1,69,0.00,,---,0.00,VWS V14.01,2013-01-15 13:31:00,
2013-01-15 07:32:00,23.9,15.2,30.30,North,0,0.0,5.1,69,0.00,,---,0.00,VWS V14.01,2013-01-15 13:32:00,
2013-01-15 07:33:00,23.9,15.2,30.30,North,0,0.0,0.0,69,0.00,,---,0.00,VWS V14.01,2013-01-15 13:33:00,
2013-01-15 07:34:00,23.9,15.2,30.30,North,0,0.0,0.0,69,0.00,,---,0.00,VWS V14.01,2013-01-15 13:34:00,
2013-01-15 07:35:00,23.9,15.2,30.30,North,0,0.0,0.0,69,0.00,,---,0.00,VWS V14.01,2013-01-15 13:35:00,
2013-01-15 07:36:00,23.9,15.2,30.30,North,0,0.0,0.0,69,0.00,,---,0.00,VWS V14.01,2013-01-15 13:36:00,
2013-01-15 07:37:00,23.9,15.2,30.30,North,0,1.1,1.1,69,0.00,,---,0.00,VWS V14.01,2013-01-15 13:37:00,
2013-01-15 07:38:00,23.9,15.2,30.30,North,0,1.1,1.1,69,0.00,,---,0.00,VWS V14.01,2013-01-15 13:38:00,
2013-01-15 07:39:00,24.0,15.3,30.30,NNE,22,3.3,3.3,69,0.00,,---,0.00,VWS V14.01,2013-01-15 13:39:00,
2013-01-15 07:40:00,24.0,15.3,30.30,NNE,22,3.3,3.3,69,0.00,,---,0.00,VWS V14.01,2013-01-15 13:40:00,
2013-01-15 07:41:00,24.0,15.3,30.30,NNE,22,0.6,3.3,69,0.00,,---,0.00,VWS V14.01,2013-01-15 13:41:00,
2013-01-15 07:42:00,24.0,15.3,30.30,NNE,22,0.6,0.6,69,0.00,,---,0.00,VWS V14.01,2013-01-15 13:42:00,
2013-01-15 07:43:00,24.0,15.3,30.29,North,0,4.6,4.6,69,0.00,,---,0.00,VWS V14.01,2013-01-15 13:43:00,
2013-01-15 07:44:00,24.0,15.3,30.29,North,0,4.6,4.6,69,0.00,,---,0.00,VWS V14.01,2013-01-15 13:44:00,
2013-01-15 07:45:00,24.0,15.3,30.29,NNE,22,4.9,4.9,69,0.00,,---,0.00,VWS V14.01,2013-01-15 13:45:00,
2013-01-15 07:46:00,24.0,15.3,30.29,NNE,22,4.9,4.9,69,0.00,,---,0.00,VWS V14.01,2013-01-15 13:46:00,
2013-01-15 07:47:00,24.0,15.3,30.28,NNE,22,4.9,4.9,69,0.00,,---,0.00,VWS V14.01,2013-01-15 13:47:00,
2013-01-15 07:48:00,24.0,15.3,30.28,NNE,22,6.7,6.7,69,0.00,,---,0.00,VWS V14.01,2013-01-15 13:48:00,
2013-01-15 07:49:00,24.0,15.3,30.27,North,0,6.0,6.7,69,0.00,,---,0.00,VWS V14.01,2013-01-15 13:49:00,
2013-01-15 07:50:00,24.0,15.3,30.27,North,0,6.0,6.0,69,0.00,,---,0.00,VWS V14.01,2013-01-15 13:50:00,
2013-01-15 07:51:00,24.0,15.3,30.27,North,0,6.0,6.0,69,0.00,,---,0.00,VWS V14.01,2013-01-15 13:51:00,
2013-01-15 07:52:00,24.0,15.3,30.27,North,0,7.6,7.6,69,0.00,,---,0.00,VWS V14.01,2013-01-15 13:52:00,
2013-01-15 07:53:00,24.0,15.3,30.26,North,0,7.6,7.6,69,0.00,,---,0.00,VWS V14.01,2013-01-15 13:53:00,
2013-01-15 07:54:00,24.0,15.3,30.26,North,0,7.8,7.8,69,0.00,,---,0.00,VWS V14.01,2013-01-15 13:54:00,
2013-01-15 07:55:00,24.0,15.3,30.26,North,0,7.8,7.8,69,0.00,,---,0.00,VWS V14.01,2013-01-15 13:55:00,
2013-01-15 07:56:00,24.0,15.3,30.26,NNE,22,6.0,7.8,69,0.00,,---,0.00,VWS V14.01,2013-01-15 13:56:00,
2013-01-15 07:57:00,24.0,15.3,30.26,NNE,22,6.0,6.0,69,0.00,,---,0.00,VWS V14.01,2013-01-15 13:57:00,
2013-01-15 07:58:00,24.0,15.3,30.27,North,0,1.5,1.5,69,0.00,,---,0.00,VWS V14.01,2013-01-15 13:58:00,
2013-01-15 07:59:00,24.0,15.3,30.27,North,0,1.5,1.5,69,0.00,,---,0.00,VWS V14.01,2013-01-15 13:59:00,
2013-01-15 08:00:00,24.4,15.7,30.27,NNE,22,4.4,4.4,69,0.00,,---,0.00,VWS V14.01,2013-01-15 14:00:00,
2013-01-15 08:01:00,24.4,15.7,30.27,NNE,22,4.4,4.4,69,0.00,,---,0.00,VWS V14.01,2013-01-15 14:01:00,
2013-01-15 08:02:00,24.4,15.7,30.27,NNE,22,6.0,6.0,69,0.00,,---,0.00,VWS V14.01,2013-01-15 14:02:00,
2013-01-15 08:03:00,24.4,15.7,30.27,NNE,22,6.0,6.0,69,0.00,,---,0.00,VWS V14.01,2013-01-15 14:03:00,
2013-01-15 08:04:00,24.4,15.7,30.27,North,0,4.0,6.0,69,0.00,,---,0.00,VWS V14.01,2013-01-15 14:04:00,
2013-01-15 08:05:00,24.4,15.4,30.27,North,0,4.0,4.0,68,0.00,,---,0.00,VWS V14.01,2013-01-15 14:05:00,
2013-01-15 08:06:00,24.4,15.4,30.27,North,0,4.0,4.0,68,0.00,,---,0.00,VWS V14.01,2013-01-15 14:06:00,
2013-01-15 08:07:00,24.4,15.4,30.27,ENE,68,6.4,6.4,68,0.00,,---,0.00,VWS V14.01,2013-01-15 14:07:00,
2013-01-15 08:08:00,24.4,15.4,30.26,ENE,68,6.4,6.4,68,0.00,,---,0.00,VWS V14.01,2013-01-15 14:08:00,
2013-01-15 08:09:00,24.6,15.6,30.26,NNE,22,2.0,6.4,68,0.00,,---,0.00,VWS V14.01,2013-01-15 14:09:00,
2013-01-15 08:10:00,24.6,15.6,30.27,NNE,22,2.0,2.0,68,0.00,,---,0.00,VWS V14.01,2013-01-15 14:10:00,
2013-01-15 08:11:00,24.4,15.4,30.27,North,0,0.0,2.0,68,0.00,,---,0.00,VWS V14.01,2013-01-15 14:11:00,
2013-01-15 08:12:00,24.4,15.4,30.27,North,0,0.0,0.0,68,0.00,,---,0.00,VWS V14.01,2013-01-15 14:12:00,
2013-01-15 08:13:00,24.6,15.6,30.28,North,0,0.0,0.0,68,0.00,,---,0.00,VWS V14.01,2013-01-15 14:13:00,
2013-01-15 08:14:00,24.6,15.6,30.28,North,0,0.0,0.0,68,0.00,,---,0.00,VWS V14.01,2013-01-15 14:14:00,
2013-01-15 08:15:00,24.6,15.6,30.28,North,0,0.0,0.0,68,0.00,,---,0.00,VWS V14.01,2013-01-15 14:15:00,
2013-01-15 08:16:00,24.6,15.6,30.28,North,0,0.0,0.0,68,0.00,,---,0.00,VWS V14.01,2013-01-15 14:16:00,
2013-01-15 08:17:00,24.6,15.6,30.29,NNW,338,1.1,1.1,68,0.00,,---,0.00,VWS V14.01,2013-01-15 14:17:00,
2013-01-15 08:18:00,24.6,15.6,30.29,NNW,338,1.1,1.1,68,0.00,,---,0.00,VWS V14.01,2013-01-15 14:18:00,
2013-01-15 08:19:00,24.6,15.6,30.29,North,0,0.0,1.1,68,0.00,,---,0.00,VWS V14.01,2013-01-15 14:19:00,
2013-01-15 08:20:00,24.6,15.6,30.30,North,0,0.0,0.0,68,0.00,,---,0.00,VWS V14.01,2013-01-15 14:20:00,
2013-01-15 08:21:00,24.6,15.6,30.30,North,0,0.0,0.0,68,0.00,,---,0.00,VWS V14.01,2013-01-15 14:21:00,
2013-01-15 08:22:00,24.6,15.6,30.30,NNE,22,0.0,0.0,68,0.00,,---,0.00,VWS V14.01,2013-01-15 14:22:00,
2013-01-15 08:23:00,24.6,15.6,30.29,NNE,22,0.0,0.0,68,0.00,,---,0.00,VWS V14.01,2013-01-15 14:23:00,
2013-01-15 08:24:00,24.6,15.6,30.29,NE,45,0.0,0.0,68,0.00,,---,0.00,VWS V14.01,2013-01-15 14:24:00,
2013-01-15 08:25:00,24.6,15.6,30.29,NE,45,0.0,0.0,68,0.00,,---,0.00,VWS V14.01,2013-01-15 14:25:00,
2013-01-15 08:26:00,24.6,15.6,30.28,NNE,22,0.0,0.0,68,0.00,,---,0.00,VWS V14.01,2013-01-15 14:26:00,
2013-01-15 08:27:00,24.6,15.6,30.28,NNE,22,0.0,0.0,68,0.00,,---,0.00,VWS V14.01,2013-01-15 14:27:00,
2013-01-15 08:28:00,24.6,15.6,30.27,NNE,22,0.0,0.0,68,0.00,,---,0.00,VWS V14.01,2013-01-15 14:28:00,
2013-01-15 08:29:00,24.6,15.6,30.27,NNE,22,0.0,0.0,68,0.00,,---,0.00,VWS V14.01,2013-01-15 14:29:00,
2013-01-15 08:30:00,24.6,15.6,30.27,North,0,2.4,2.4,68,0.00,,---,0.00,VWS V14.01,2013-01-15 14:30:00,
2013-01-15 08:31:00,24.6,15.6,30.26,North,0,2.4,2.4,68,0.00,,---,0.00,VWS V14.01,2013-01-15 14:31:00,
2013-01-15 08:32:00,24.8,15.8,30.26,NNE,22,1.5,2.4,68,0.00,,---,0.00,VWS V14.01,2013-01-15 14:32:00,
2013-01-15 08:33:00,24.8,15.8,30.26,NNE,22,1.5,1.5,68,0.00,,---,0.00,VWS V14.01,2013-01-15 14:33:00,
2013-01-15 08:34:00,24.9,15.9,30.25,North,0,1.5,1.5,68,0.00,,---,0.00,VWS V14.01,2013-01-15 14:34:00,
2013-01-15 08:35:00,24.9,15.9,30.26,North,0,1.5,1.5,68,0.00,,---,0.00,VWS V14.01,2013-01-15 14:35:00,
2013-01-15 08:36:00,24.9,15.9,30.26,North,0,1.5,1.5,68,0.00,,---,0.00,VWS V14.01,2013-01-15 14:36:00,
2013-01-15 08:37:00,24.9,15.9,30.26,North,0,7.6,7.6,68,0.00,,---,0.00,VWS V14.01,2013-01-15 14:37:00,
2013-01-15 08:38:00,24.9,15.9,30.26,North,0,7.6,7.6,68,0.00,,---,0.00,VWS V14.01,2013-01-15 14:38:00,
2013-01-15 08:39:00,24.9,15.9,30.26,NNE,22,0.0,7.6,68,0.00,,---,0.00,VWS V14.01,2013-01-15 14:39:00,
2013-01-15 08:40:00,24.9,15.9,30.27,NNE,22,0.0,0.0,68,0.00,,---,0.00,VWS V14.01,2013-01-15 14:40:00,
2013-01-15 08:41:00,24.9,15.9,30.27,NNE,22,0.0,0.0,68,0.00,,---,0.00,VWS V14.01,2013-01-15 14:41:00,
2013-01-15 08:42:00,24.9,15.9,30.27,NNE,22,0.0,0.0,68,0.00,,---,0.00,VWS V14.01,2013-01-15 14:42:00,
2013-01-15 08:43:00,24.9,15.5,30.26,ENE,68,0.0,0.0,67,0.00,,---,0.00,VWS V14.01,2013-01-15 14:43:00,
2013-01-15 08:44:00,24.9,15.5,30.26,ENE,68,0.0,0.0,67,0.00,,---,0.00,VWS V14.01,2013-01-15 14:44:00,
2013-01-15 08:45:00,24.9,15.5,30.26,NE,45,0.0,0.0,67,0.00,,---,0.00,VWS V14.01,2013-01-15 14:45:00,
2013-01-15 08:46:00,24.9,15.5,30.27,NE,45,0.0,0.0,67,0.00,,---,0.00,VWS V14.01,2013-01-15 14:46:00,
2013-01-15 08:47:00,24.9,15.5,30.26,NNE,22,0.0,0.0,67,0.00,,---,0.00,VWS V14.01,2013-01-15 14:47:00,
2013-01-15 08:48:00,24.9,15.5,30.26,NNE,22,0.0,0.0,67,0.00,,---,0.00,VWS V14.01,2013-01-15 14:48:00,
2013-01-15 08:49:00,24.9,15.5,30.26,NNE,22,0.0,0.0,67,0.00,,---,0.00,VWS V14.01,2013-01-15 14:49:00,
2013-01-15 08:50:00,24.9,15.5,30.26,NNE,22,4.6,4.6,67,0.00,,---,0.00,VWS V14.01,2013-01-15 14:50:00,
2013-01-15 08:51:00,24.9,15.5,30.26,NNE,22,4.6,4.6,67,0.00,,---,0.00,VWS V14.01,2013-01-15 14:51:00,
2013-01-15 08:52:00,24.9,15.5,30.26,NNE,22,2.2,4.6,67,0.00,,---,0.00,VWS V14.01,2013-01-15 14:52:00,
2013-01-15 08:53:00,24.9,15.5,30.26,NNE,22,2.2,2.2,67,0.00,,---,0.00,VWS V14.01,2013-01-15 14:53:00,
2013-01-15 08:54:00,24.9,15.5,30.26,NNE,22,2.9,2.9,67,0.00,,---,0.00,VWS V14.01,2013-01-15 14:54:00,
2013-01-15 08:55:00,24.9,15.5,30.27,NNE,22,2.9,2.9,67,0.00,,---,0.00,VWS V14.01,2013-01-15 14:55:00,
2013-01-15 08:56:00,24.9,15.5,30.27,NNE,22,0.0,2.9,67,0.00,,---,0.00,VWS V14.01,2013-01-15 14:56:00,
2013-01-15 08:57:00,24.9,15.5,30.26,NNE,22,0.0,0.0,67,0.00,,---,0.00,VWS V14.01,2013-01-15 14:57:00,
2013-01-15 08:58:00,25.1,15.7,30.26,NNE,22,0.0,0.0,67,0.00,,---,0.00,VWS V14.01,2013-01-15 14:58:00,
2013-01-15 08:59:00,25.1,15.7,30.26,NNE,22,0.0,0.0,67,0.00,,---,0.00,VWS V14.01,2013-01-15 14:59:00,
2013-01-15 09:00:00,25.1,15.7,30.26,NE,45,0.0,0.0,67,0.00,,---,0.00,VWS V14.01,2013-01-15 15:00:00,
2013-01-15 09:01:00,25.1,15.7,30.26,NE,45,0.0,0.0,67,0.00,,---,0.00,VWS V14.01,2013-01-15 15:01:00,
2013-01-15 09:02:00,25.1,15.7,30.26,NNE,22,0.6,0.6,67,0.00,,---,0.00,VWS V14.01,2013-01-15 15:02:00,
2013-01-15 09:03:00,25.1,15.7,30.26,NNE,22,0.6,0.6,67,0.00,,---,0.00,VWS V14.01,2013-01-15 15:03:00,
2013-01-15 09:04:00,25.3,15.9,30.26,NNE,22,0.0,0.6,67,0.00,,---,0.00,VWS V14.01,2013-01-15 15:04:00,
2013-01-15 09:05:00,25.3,15.9,30.26,NNE,22,0.0,0.0,67,0.00,,---,0.00,VWS V14.01,2013-01-15 15:05:00,
2013-01-15 09:06:00,25.3,15.9,30.26,NNE,22,0.0,0.0,67,0.00,,---,0.00,VWS V14.01,2013-01-15 15:06:00,
2013-01-15 09:07:00,25.3,15.9,30.25,North,0,2.6,2.6,67,0.00,,---,0.00,VWS V14.01,2013-01-15 15:07:00,
2013-01-15 09:08:00,25.3,15.9,30.25,North,0,2.6,2.6,67,0.00,,---,0.00,VWS V14.01,2013-01-15 15:08:00,
2013-01-15 09:09:00,25.3,15.9,30.25,North,0,1.3,2.6,67,0.00,,---,0.00,VWS V14.01,2013-01-15 15:09:00,
2013-01-15 09:10:00,25.3,15.9,30.25,North,0,1.3,1.3,67,0.00,,---,0.00,VWS V14.01,2013-01-15 15:10:00,
2013-01-15 09:11:00,25.5,16.1,30.25,North,0,5.3,5.3,67,0.00,,---,0.00,VWS V14.01,2013-01-15 15:11:00,
2013-01-15 09:12:00,25.5,16.1,30.25,North,0,5.3,5.3,67,0.00,,---,0.00,VWS V14.01,2013-01-15 15:12:00,
2013-01-15 09:13:00,25.5,16.1,30.26,North,0,4.0,4.0,67,0.00,,---,0.00,VWS V14.01,2013-01-15 15:13:00,
2013-01-15 09:14:00,25.5,16.1,30.27,North,0,4.0,4.0,67,0.00,,---,0.00,VWS V14.01,2013-01-15 15:14:00,
2013-01-15 09:15:00,25.5,16.1,30.28,NNW,338,0.0,4.0,67,0.00,,---,0.00,VWS V14.01,2013-01-15 15:15:00,
2013-01-15 09:16:00,25.5,16.1,30.29,North,0,2.0,2.0,67,0.00,,---,0.00,VWS V14.01,2013-01-15 15:16:00,
2013-01-15 09:17:00,25.5,16.1,30.29,North,0,2.0,2.0,67,0.00,,---,0.00,VWS V14.01,2013-01-15 15:17:00,
2013-01-15 09:18:00,25.5,16.1,30.29,North,0,2.0,2.0,67,0.00,,---,0.00,VWS V14.01,2013-01-15 15:18:00,
2013-01-15 09:19:00,25.5,16.1,30.29,North,0,3.3,3.3,67,0.00,,---,0.00,VWS V14.01,2013-01-15 15:19:00,
2013-01-15 09:20:00,25.5,16.1,30.29,North,0,3.3,3.3,67,0.00,,---,0.00,VWS V14.01,2013-01-15 15:20:00,
2013-01-15 09:21:00,25.5,16.1,30.30,North,0,3.1,3.3,67,0.00,,---,0.00,VWS V14.01,2013-01-15 15:21:00,
2013-01-15 09:22:00,25.5,16.1,30.30,North,0,3.1,3.1,67,0.00,,---,0.00,VWS V14.01,2013-01-15 15:22:00,
2013-01-15 09:23:00,25.5,16.1,30.30,North,0,3.1,3.1,67,0.00,,---,0.00,VWS V14.01,2013-01-15 15:23:00,
2013-01-15 09:24:00,25.7,16.3,30.31,North,0,0.0,0.0,67,0.00,,---,0.00,VWS V14.01,2013-01-15 15:24:00,
2013-01-15 09:25:00,25.7,16.3,30.32,NNW,338,0.0,0.0,67,0.00,,---,0.00,VWS V14.01,2013-01-15 15:25:00,
2013-01-15 09:26:00,25.7,16.3,30.32,NNW,338,0.0,0.0,67,0.00,,---,0.00,VWS V14.01,2013-01-15 15:26:00,
2013-01-15 09:27:00,25.7,16.3,30.33,North,0,0.0,0.0,67,0.00,,---,0.00,VWS V14.01,2013-01-15 15:27:00,
2013-01-15 09:28:00,25.7,16.3,30.33,North,0,0.0,0.0,67,0.00,,---,0.00,VWS V14.01,2013-01-15 15:28:00,
2013-01-15 09:29:00,25.8,16.4,30.34,NNW,338,0.0,0.0,67,0.00,,---,0.00,VWS V14.01,2013-01-15 15:29:00,
2013-01-15 09:30:00,25.8,16.4,30.34,NNW,338,0.0,0.0,67,0.00,,---,0.00,VWS V14.01,2013-01-15 15:30:00,
2013-01-15 09:31:00,25.8,16.4,30.34,North,0,0.0,0.0,67,0.00,,---,0.00,VWS V14.01,2013-01-15 15:31:00,
2013-01-15 09:32:00,25.8,16.4,30.34,North,0,0.0,0.0,67,0.00,,---,0.00,VWS V14.01,2013-01-15 15:32:00,
2013-01-15 09:33:00,25.8,16.4,30.34,North,0,0.0,0.0,67,0.00,,---,0.00,VWS V14.01,2013-01-15 15:33:00,
2013-01-15 09:34:00,25.8,16.4,30.35,North,0,0.0,0.0,67,0.00,,---,0.00,VWS V14.01,2013-01-15 15:34:00,
2013-01-15 09:35:00,25.8,16.4,30.35,North,0,0.0,0.0,67,0.00,,---,0.00,VWS V14.01,2013-01-15 15:35:00,
2013-01-15 09:36:00,25.8,16.4,30.35,NNW,338,0.0,0.0,67,0.00,,---,0.00,VWS V14.01,2013-01-15 15:36:00,
2013-01-15 09:37:00,25.8,16.4,30.35,NNW,338,0.0,0.0,67,0.00,,---,0.00,VWS V14.01,2013-01-15 15:37:00,
2013-01-15 09:38:00,25.8,16.4,30.35,NNW,338,0.0,0.0,67,0.00,,---,0.00,VWS V14.01,2013-01-15 15:38:00,
2013-01-15 09:39:00,25.8,16.4,30.35,North,0,0.0,0.0,67,0.00,,---,0.00,VWS V14.01,2013-01-15 15:39:00,
2013-01-15 09:40:00,26.0,16.6,30.35,North,0,0.0,0.0,67,0.00,,---,0.00,VWS V14.01,2013-01-15 15:40:00,
2013-01-15 09:41:00,26.0,16.6,30.35,North,0,0.0,0.0,67,0.00,,---,0.00,VWS V14.01,2013-01-15 15:41:00,
2013-01-15 09:42:00,26.2,16.8,30.35,NNW,338,0.0,0.0,67,0.00,,---,0.00,VWS V14.01,2013-01-15 15:42:00,
2013-01-15 09:43:00,26.2,16.8,30.35,NNW,338,0.0,0.0,67,0.00,,---,0.00,VWS V14.01,2013-01-15 15:43:00,
2013-01-15 09:44:00,26.2,16.8,30.35,NNW,338,0.0,0.0,67,0.00,,---,0.00,VWS V14.01,2013-01-15 15:44:00,
2013-01-15 09:45:00,26.2,16.8,30.36,NNW,338,0.0,0.0,67,0.00,,---,0.00,VWS V14.01,2013-01-15 15:45:00,
2013-01-15 09:46:00,26.2,16.4,30.37,NW,315,2.4,2.4,66,0.00,,---,0.00,VWS V14.01,2013-01-15 15:46:00,
2013-01-15 09:47:00,26.2,16.4,30.37,NW,315,2.4,2.4,66,0.00,,---,0.00,VWS V14.01,2013-01-15 15:47:00,
2013-01-15 09:48:00,26.2,16.4,30.37,NW,315,2.4,2.4,66,0.00,,---,0.00,VWS V14.01,2013-01-15 15:48:00,
2013-01-15 09:49:00,26.2,16.4,30.37,NNW,338,0.0,0.0,66,0.00,,---,0.00,VWS V14.01,2013-01-15 15:49:00,
2013-01-15 09:50:00,26.2,16.4,30.37,NNW,338,0.0,0.0,66,0.00,,---,0.00,VWS V14.01,2013-01-15 15:50:00,
2013-01-15 09:51:00,26.2,16.4,30.37,NNW,338,0.0,0.0,66,0.00,,---,0.00,VWS V14.01,2013-01-15 15:51:00,
2013-01-15 09:52:00,26.2,16.4,30.36,NNW,338,0.0,0.0,66,0.00,,---,0.00,VWS V14.01,2013-01-15 15:52:00,
2013-01-15 09:53:00,26.2,16.4,30.36,NNW,338,0.0,0.0,66,0.00,,---,0.00,VWS V14.01,2013-01-15 15:53:00,
2013-01-15 09:54:00,26.4,16.6,30.36,North,0,7.3,7.3,66,0.00,,---,0.00,VWS V14.01,2013-01-15 15:54:00,
2013-01-15 09:55:00,26.4,16.6,30.35,North,0,7.3,7.3,66,0.00,,---,0.00,VWS V14.01,2013-01-15 15:55:00,
2013-01-15 09:56:00,26.4,16.6,30.34,North,0,7.3,7.3,66,0.00,,---,0.00,VWS V14.01,2013-01-15 15:56:00,
2013-01-15 09:57:00,26.4,16.6,30.33,North,0,8.0,8.0,66,0.00,,---,0.00,VWS V14.01,2013-01-15 15:57:00,
2013-01-15 09:58:00,26.4,16.6,30.33,North,0,8.0,8.0,66,0.00,,---,0.00,VWS V14.01,2013-01-15 15:58:00,
2013-01-15 09:59:00,26.4,16.6,30.33,North,0,3.5,8.0,66,0.00,,---,0.00,VWS V14.01,2013-01-15 15:59:00,
2013-01-15 10:00:00,26.4,16.6,30.34,North,0,3.5,3.5,66,0.00,,---,0.00,VWS V14.01,2013-01-15 16:00:00,
2013-01-15 10:01:00,26.4,16.6,30.35,NNW,338,5.3,5.3,66,0.00,,---,0.00,VWS V14.01,2013-01-15 16:01:00,
2013-01-15 10:02:00,26.4,16.6,30.35,NNW,338,5.3,5.3,66,0.00,,---,0.00,VWS V14.01,2013-01-15 16:02:00,
2013-01-15 10:03:00,26.4,16.6,30.35,NNW,338,5.3,5.3,66,0.00,,---,0.00,VWS V14.01,2013-01-15 16:03:00,
2013-01-15 10:04:00,26.4,16.6,30.35,NNW,338,5.3,5.3,66,0.00,,---,0.00,VWS V14.01,2013-01-15 16:04:00,
2013-01-15 10:05:00,26.4,16.6,30.35,NNW,338,5.3,5.3,66,0.00,,---,0.00,VWS V14.01,2013-01-15 16:05:00,
2013-01-15 10:06:00,26.4,16.6,30.36,NNW,338,0.0,5.3,66,0.00,,---,0.00,VWS V14.01,2013-01-15 16:06:00,
2013-01-15 10:07:00,26.4,16.6,30.36,NNW,338,0.0,0.0,66,0.00,,---,0.00,VWS V14.01,2013-01-15 16:07:00,
2013-01-15 10:08:00,26.4,16.6,30.36,NNW,338,0.0,0.0,66,0.00,,---,0.00,VWS V14.01,2013-01-15 16:08:00,
2013-01-15 10:09:00,26.4,16.6,30.35,NNW,338,7.1,7.1,66,0.00,,---,0.00,VWS V14.01,2013-01-15 16:09:00,
2013-01-15 10:10:00,26.4,16.6,30.36,NNW,338,2.0,7.1,66,0.00,,---,0.00,VWS V14.01,2013-01-15 16:10:00,
2013-01-15 10:11:00,26.4,16.6,30.36,NNW,338,2.0,2.0,66,0.00,,---,0.00,VWS V14.01,2013-01-15 16:11:00,
2013-01-15 10:12:00,26.4,16.6,30.37,NNW,338,0.0,2.0,66,0.00,,---,0.00,VWS V14.01,2013-01-15 16:12:00,
2013-01-15 10:13:00,26.4,16.6,30.37,NNW,338,0.0,0.0,66,0.00,,---,0.00,VWS V14.01,2013-01-15 16:13:00,
2013-01-15 10:14:00,26.4,16.6,30.37,NNW,338,0.0,0.0,66,0.00,,---,0.00,VWS V14.01,2013-01-15 16:14:00,
2013-01-15 10:15:00,26.4,16.6,30.37,NNW,338,0.0,0.0,66,0.00,,---,0.00,VWS V14.01,2013-01-15 16:15:00,
2013-01-15 10:16:00,26.4,16.6,30.37,NNW,338,5.8,5.8,66,0.00,,---,0.00,VWS V14.01,2013-01-15 16:16:00,
2013-01-15 10:17:00,26.4,16.6,30.38,NNW,338,5.8,5.8,66,0.00,,---,0.00,VWS V14.01,2013-01-15 16:17:00,
2013-01-15 10:18:00,26.4,16.6,30.38,NNW,338,5.8,5.8,66,0.00,,---,0.00,VWS V14.01,2013-01-15 16:18:00,
2013-01-15 10:19:00,26.4,16.6,30.39,NNW,338,5.8,5.8,66,0.00,,---,0.00,VWS V14.01,2013-01-15 16:19:00,
2013-01-15 10:20:00,26.4,16.6,30.40,NNW,338,5.8,5.8,66,0.00,,---,0.00,VWS V14.01,2013-01-15 16:20:00,
2013-01-15 10:21:00,26.6,16.8,30.40,NNW,338,0.0,5.8,66,0.00,,---,0.00,VWS V14.01,2013-01-15 16:21:00,
2013-01-15 10:22:00,26.6,16.8,30.41,NNW,338,0.0,0.0,66,0.00,,---,0.00,VWS V14.01,2013-01-15 16:22:00,
2013-01-15 10:23:00,26.6,16.8,30.41,NNW,338,0.0,0.0,66,0.00,,---,0.00,VWS V14.01,2013-01-15 16:23:00,
2013-01-15 10:24:00,26.7,16.9,30.41,West,270,0.0,0.0,66,0.00,,---,0.00,VWS V14.01,2013-01-15 16:24:00,
2013-01-15 10:25:00,26.6,16.8,30.41,North,0,1.1,1.1,66,0.00,,---,0.00,VWS V14.01,2013-01-15 16:25:00,
2013-01-15 10:26:00,26.6,16.8,30.40,North,0,1.1,1.1,66,0.00,,---,0.00,VWS V14.01,2013-01-15 16:26:00,
2013-01-15 10:27:00,26.6,16.4,30.38,NW,315,3.5,3.5,65,0.00,,---,0.00,VWS V14.01,2013-01-15 16:27:00,
2013-01-15 10:28:00,26.6,16.4,30.38,NW,315,3.5,3.5,65,0.00,,---,0.00,VWS V14.01,2013-01-15 16:28:00,
2013-01-15 10:29:00,26.7,16.5,30.37,NNW,338,0.0,3.5,65,0.00,,---,0.00,VWS V14.01,2013-01-15 16:29:00,
2013-01-15 10:30:00,26.7,16.5,30.36,NNW,338,0.0,0.0,65,0.00,,---,0.00,VWS V14.01,2013-01-15 16:30:00,
2013-01-15 10:31:00,26.7,16.5,30.36,NNW,338,0.0,0.0,65,0.00,,---,0.00,VWS V14.01,2013-01-15 16:31:00,
2013-01-15 10:32:00,26.7,16.5,30.36,NNW,338,0.0,0.0,65,0.00,,---,0.00,VWS V14.01,2013-01-15 16:32:00,
2013-01-15 10:33:00,26.7,16.5,30.36,NNW,338,0.0,0.0,65,0.00,,---,0.00,VWS V14.01,2013-01-15 16:33:00,
2013-01-15 10:34:00,26.7,16.5,30.36,North,0,0.0,0.0,65,0.00,,---,0.00,VWS V14.01,2013-01-15 16:34:00,
2013-01-15 10:35:00,26.7,16.5,30.36,North,0,0.0,0.0,65,0.00,,---,0.00,VWS V14.01,2013-01-15 16:35:00,
2013-01-15 10:36:00,26.7,16.5,30.36,NNW,338,6.9,6.9,65,0.00,,---,0.00,VWS V14.01,2013-01-15 16:36:00,
2013-01-15 10:37:00,26.7,16.5,30.36,NNW,338,6.9,6.9,65,0.00,,---,0.00,VWS V14.01,2013-01-15 16:37:00,
2013-01-15 10:38:00,26.7,16.5,30.36,NNW,338,6.9,6.9,65,0.00,,---,0.00,VWS V14.01,2013-01-15 16:38:00,
2013-01-15 10:39:00,26.7,16.5,30.37,North,0,7.1,7.1,65,0.00,,---,0.00,VWS V14.01,2013-01-15 16:39:00,
2013-01-15 10:40:00,26.7,16.5,30.37,NNW,338,4.2,7.1,65,0.00,,---,0.00,VWS V14.01,2013-01-15 16:40:00,
2013-01-15 10:41:00,26.7,16.5,30.37,NNW,338,4.2,4.2,65,0.00,,---,0.00,VWS V14.01,2013-01-15 16:41:00,
2013-01-15 10:42:00,26.7,16.5,30.36,NNE,22,3.8,4.2,65,0.00,,---,0.00,VWS V14.01,2013-01-15 16:42:00,
2013-01-15 10:43:00,26.7,16.5,30.36,NNE,22,3.8,3.8,65,0.00,,---,0.00,VWS V14.01,2013-01-15 16:43:00,
2013-01-15 10:44:00,26.7,16.9,30.35,North,0,7.3,7.3,66,0.00,,---,0.00,VWS V14.01,2013-01-15 16:44:00,
2013-01-15 10:45:00,26.7,16.9,30.35,North,0,7.3,7.3,66,0.00,,---,0.00,VWS V14.01,2013-01-15 16:45:00,
2013-01-15 10:46:00,26.7,16.9,30.35,North,0,11.4,11.4,66,0.00,,---,0.00,VWS V14.01,2013-01-15 16:46:00,
2013-01-15 10:47:00,26.6,16.8,30.36,North,0,11.4,11.4,66,0.00,,---,0.00,VWS V14.01,2013-01-15 16:47:00,
2013-01-15 10:48:00,26.6,16.8,30.36,North,0,11.4,11.4,66,0.00,,---,0.00,VWS V14.01,2013-01-15 16:48:00,
2013-01-15 10:49:00,26.6,16.8,30.35,NNW,338,5.3,5.3,66,0.00,,---,0.00,VWS V14.01,2013-01-15 16:49:00,
2013-01-15 10:50:00,26.6,16.8,30.34,NNW,338,5.3,5.3,66,0.00,,---,0.00,VWS V14.01,2013-01-15 16:50:00,
2013-01-15 10:51:00,26.4,17.3,30.35,NNW,338,6.9,6.9,68,0.00,,---,0.00,VWS V14.01,2013-01-15 16:51:00,
2013-01-15 10:52:00,26.4,17.3,30.35,NNW,338,6.9,6.9,68,0.00,,---,0.00,VWS V14.01,2013-01-15 16:52:00,
2013-01-15 10:53:00,26.4,17.3,30.35,NNW,338,6.9,6.9,68,0.00,,---,0.00,VWS V14.01,2013-01-15 16:53:00,
2013-01-15 10:54:00,26.4,17.3,30.35,North,0,0.0,0.0,68,0.00,,---,0.00,VWS V14.01,2013-01-15 16:54:00,
2013-01-15 10:55:00,26.4,17.6,30.35,NE,45,2.9,2.9,69,0.00,,---,0.00,VWS V14.01,2013-01-15 16:55:00,
2013-01-15 10:56:00,26.4,17.6,30.35,NE,45,2.9,2.9,69,0.00,,---,0.00,VWS V14.01,2013-01-15 16:56:00,
2013-01-15 10:57:00,26.2,17.4,30.36,North,0,1.1,2.9,69,0.00,,---,0.00,VWS V14.01,2013-01-15 16:57:00,
2013-01-15 10:58:00,26.2,17.4,30.36,North,0,1.1,1.1,69,0.00,,---,0.00,VWS V14.01,2013-01-15 16:58:00,
2013-01-15 10:59:00,26.2,17.4,30.35,North,0,1.7,1.7,69,0.00,,---,0.00,VWS V14.01,2013-01-15 16:59:00,
2013-01-15 11:00:00,26.2,17.4,30.35,North,0,1.7,1.7,69,0.00,,---,0.00,VWS V14.01,2013-01-15 17:00:00,
2013-01-15 11:01:00,26.2,17.4,30.35,North,0,4.9,4.9,69,0.00,,---,0.00,VWS V14.01,2013-01-15 17:01:00,
2013-01-15 11:02:00,26.2,17.4,30.35,North,0,4.9,4.9,69,0.00,,---,0.00,VWS V14.01,2013-01-15 17:02:00,
2013-01-15 11:03:00,26.2,17.4,30.35,North,0,4.9,4.9,69,0.00,,---,0.00,VWS V14.01,2013-01-15 17:03:00,
2013-01-15 11:04:00,26.2,17.8,30.34,North,0,3.8,3.8,70,0.00,,---,0.00,VWS V14.01,2013-01-15 17:04:00,
2013-01-15 11:05:00,26.2,17.8,30.34,North,0,3.8,3.8,70,0.00,,---,0.00,VWS V14.01,2013-01-15 17:05:00,
2013-01-15 11:06:00,26.2,17.8,30.34,North,0,2.6,3.8,70,0.00,,---,0.00,VWS V14.01,2013-01-15 17:06:00,
2013-01-15 11:07:00,26.2,17.8,30.34,North,0,2.6,2.6,70,0.00,,---,0.00,VWS V14.01,2013-01-15 17:07:00,
2013-01-15 11:08:00,26.2,17.8,30.34,North,0,2.6,2.6,70,0.00,,---,0.00,VWS V14.01,2013-01-15 17:08:00,
2013-01-15 11:09:00,26.0,17.6,30.34,NNW,338,7.3,7.3,70,0.00,,---,0.00,VWS V14.01,2013-01-15 17:09:00,
2013-01-15 11:10:00,26.0,17.6,30.34,North,0,2.0,7.3,70,0.00,,---,0.00,VWS V14.01,2013-01-15 17:10:00,
2013-01-15 11:11:00,26.0,17.6,30.34,North,0,2.0,2.0,70,0.00,,---,0.00,VWS V14.01,2013-01-15 17:11:00,
2013-01-15 11:12:00,26.0,17.9,30.33,NNE,22,7.1,7.1,71,0.00,,---,0.00,VWS V14.01,2013-01-15 17:12:00,
2013-01-15 11:13:00,26.0,17.9,30.33,NNE,22,7.1,7.1,71,0.00,,---,0.00,VWS V14.01,2013-01-15 17:13:00,
2013-01-15 11:14:00,25.8,17.7,30.33,North,0,8.9,8.9,71,0.00,,---,0.00,VWS V14.01,2013-01-15 17:14:00,
2013-01-15 11:15:00,25.8,17.7,30.32,North,0,8.9,8.9,71,0.00,,---,0.00,VWS V14.01,2013-01-15 17:15:00,
2013-01-15 11:16:00,25.8,18.0,30.32,North,0,6.4,8.9,72,0.00,,---,0.00,VWS V14.01,2013-01-15 17:16:00,
2013-01-15 11:17:00,25.8,18.0,30.31,North,0,6.4,6.4,72,0.00,,---,0.00,VWS V14.01,2013-01-15 17:17:00,
2013-01-15 11:18:00,25.8,18.0,30.31,North,0,6.4,6.4,72,0.00,,---,0.00,VWS V14.01,2013-01-15 17:18:00,
2013-01-15 11:19:00,25.7,17.9,30.30,North,0,7.3,7.3,72,0.00,,---,0.00,VWS V14.01,2013-01-15 17:19:00,
2013-01-15 11:20:00,25.7,17.9,30.30,North,0,7.3,7.3,72,0.00,,---,0.00,VWS V14.01,2013-01-15 17:20:00,
2013-01-15 11:21:00,25.7,17.9,30.31,North,0,5.5,7.3,72,0.00,,---,0.00,VWS V14.01,2013-01-15 17:21:00,
2013-01-15 11:22:00,25.7,17.9,30.31,North,0,5.5,5.5,72,0.00,,---,0.00,VWS V14.01,2013-01-15 17:22:00,
2013-01-15 11:23:00,25.7,17.9,30.31,North,0,5.5,5.5,72,0.00,,---,0.00,VWS V14.01,2013-01-15 17:23:00,
2013-01-15 11:24:00,25.5,17.8,30.32,North,0,0.0,0.0,72,0.00,,---,0.00,VWS V14.01,2013-01-15 17:24:00,
2013-01-15 11:25:00,25.5,18.1,30.32,North,0,7.8,7.8,73,0.00,,---,0.00,VWS V14.01,2013-01-15 17:25:00,
2013-01-15 11:26:00,25.5,18.1,30.32,North,0,7.8,7.8,73,0.00,,---,0.00,VWS V14.01,2013-01-15 17:26:00,
2013-01-15 11:27:00,25.5,18.1,30.31,North,0,2.9,7.8,73,0.00,,---,0.00,VWS V14.01,2013-01-15 17:27:00,
2013-01-15 11:28:00,25.5,18.1,30.31,North,0,2.9,2.9,73,0.00,,---,0.00,VWS V14.01,2013-01-15 17:28:00,
2013-01-15 11:29:00,25.5,18.4,30.30,NNW,338,7.1,7.1,74,0.00,,---,0.00,VWS V14.01,2013-01-15 17:29:00,
2013-01-15 11:30:00,25.5,18.4,30.29,NNW,338,7.1,7.1,74,0.00,,---,0.00,VWS V14.01,2013-01-15 17:30:00,
2013-01-15 11:31:00,25.5,18.4,30.29,North,0,5.8,7.1,74,0.00,,---,0.00,VWS V14.01,2013-01-15 17:31:00,
2013-01-15 11:32:00,25.5,18.4,30.28,North,0,5.8,5.8,74,0.00,,---,0.00,VWS V14.01,2013-01-15 17:32:00,
2013-01-15 11:33:00,25.5,18.4,30.28,North,0,5.8,5.8,74,0.00,,---,0.00,VWS V14.01,2013-01-15 17:33:00,
2013-01-15 11:34:00,25.5,18.7,30.28,North,0,8.0,8.0,75,0.00,,---,0.00,VWS V14.01,2013-01-15 17:34:00,
2013-01-15 11:35:00,25.5,18.7,30.28,North,0,8.0,8.0,75,0.00,,---,0.00,VWS V14.01,2013-01-15 17:35:00,
2013-01-15 11:36:00,25.3,18.5,30.27,NNE,22,7.8,8.0,75,0.00,,---,0.00,VWS V14.01,2013-01-15 17:36:00,
2013-01-15 11:37:00,25.3,18.5,30.28,NNE,22,7.8,7.8,75,0.00,,---,0.00,VWS V14.01,2013-01-15 17:37:00,
2013-01-15 11:38:00,25.3,18.5,30.28,NNE,22,7.8,7.8,75,0.00,,---,0.00,VWS V14.01,2013-01-15 17:38:00,
2013-01-15 11:39:00,25.3,18.5,30.29,North,0,6.9,6.9,75,0.00,,---,0.00,VWS V14.01,2013-01-15 17:39:00,
2013-01-15 11:40:00,25.3,18.5,30.29,North,0,5.5,6.9,75,0.00,,---,0.00,VWS V14.01,2013-01-15 17:40:00,
2013-01-15 11:41:00,25.3,18.5,30.30,North,0,5.5,5.5,75,0.00,,---,0.00,VWS V14.01,2013-01-15 17:41:00,
2013-01-15 11:42:00,25.3,18.5,30.30,North,0,0.0,5.5,75,0.00,,---,0.00,VWS V14.01,2013-01-15 17:42:00,
2013-01-15 11:43:00,25.3,18.5,30.30,North,0,0.0,0.0,75,0.00,,---,0.00,VWS V14.01,2013-01-15 17:43:00,
2013-01-15 11:44:00,25.3,18.5,30.29,NNW,338,0.0,0.0,75,0.00,,---,0.00,VWS V14.01,2013-01-15 17:44:00,
2013-01-15 11:45:00,25.3,18.5,30.29,NNW,338,0.0,0.0,75,0.00,,---,0.00,VWS V14.01,2013-01-15 17:45:00,
2013-01-15 11:46:00,25.3,18.8,30.30,North,0,6.9,6.9,76,0.00,,---,0.00,VWS V14.01,2013-01-15 17:46:00,
2013-01-15 11:47:00,25.3,18.8,30.30,North,0,6.9,6.9,76,0.00,,---,0.00,VWS V14.01,2013-01-15 17:47:00,
2013-01-15 11:48:00,25.3,18.8,30.30,North,0,6.9,6.9,76,0.00,,---,0.00,VWS V14.01,2013-01-15 17:48:00,
2013-01-15 11:49:00,25.3,18.8,30.30,North,0,5.8,5.8,76,0.00,,---,0.00,VWS V14.01,2013-01-15 17:49:00,
2013-01-15 11:50:00,25.3,18.8,30.30,North,0,5.8,5.8,76,0.00,,---,0.00,VWS V14.01,2013-01-15 17:50:00,
2013-01-15 11:51:00,25.1,18.6,30.30,NNW,338,3.1,5.8,76,0.00,,---,0.00,VWS V14.01,2013-01-15 17:51:00,
2013-01-15 11:52:00,25.1,18.6,30.30,NNW,338,3.1,3.1,76,0.00,,---,0.00,VWS V14.01,2013-01-15 17:52:00,
2013-01-15 11:53:00,25.1,18.6,30.30,NNW,338,3.1,3.1,76,0.00,,---,0.00,VWS V14.01,2013-01-15 17:53:00,
2013-01-15 11:54:00,25.1,18.6,30.30,NNE,22,6.7,6.7,76,0.00,,---,0.00,VWS V14.01,2013-01-15 17:54:00,
2013-01-15 11:55:00,25.1,18.6,30.30,North,0,7.8,7.8,76,0.00,,---,0.00,VWS V14.01,2013-01-15 17:55:00,
2013-01-15 11:56:00,25.1,18.6,30.30,North,0,7.8,7.8,76,0.00,,---,0.00,VWS V14.01,2013-01-15 17:56:00,
2013-01-15 11:57:00,25.1,18.9,30.30,North,0,0.6,7.8,77,0.00,,---,0.00,VWS V14.01,2013-01-15 17:57:00,
2013-01-15 11:58:00,25.1,18.9,30.30,North,0,0.6,0.6,77,0.00,,---,0.00,VWS V14.01,2013-01-15 17:58:00,
2013-01-15 11:59:00,25.1,18.6,30.30,North,0,4.9,4.9,76,0.00,,---,0.00,VWS V14.01,2013-01-15 17:59:00,
2013-01-15 12:00:00,25.1,18.6,30.30,North,0,4.9,4.9,76,0.00,,---,0.00,VWS V14.01,2013-01-15 18:00:00,
2013-01-15 12:01:00,25.1,18.9,30.30,NNW,338,6.7,6.7,77,0.00,,---,0.00,VWS V14.01,2013-01-15 18:01:00,
2013-01-15 12:02:00,25.1,18.9,30.29,NNW,338,6.7,6.7,77,0.00,,---,0.00,VWS V14.01,2013-01-15 18:02:00,
2013-01-15 12:03:00,25.1,18.9,30.29,NNW,338,6.7,6.7,77,0.00,,---,0.00,VWS V14.01,2013-01-15 18:03:00,
2013-01-15 12:04:00,25.1,18.9,30.29,North,0,7.1,7.1,77,0.00,,---,0.00,VWS V14.01,2013-01-15 18:04:00,
2013-01-15 12:05:00,25.1,18.9,30.28,NNW,338,3.3,7.1,77,0.00,,---,0.00,VWS V14.01,2013-01-15 18:05:00,
2013-01-15 12:06:00,25.1,18.9,30.28,NNW,338,3.3,3.3,77,0.00,,---,0.00,VWS V14.01,2013-01-15 18:06:00,
2013-01-15 12:07:00,25.1,18.9,30.28,NNW,338,3.3,3.3,77,0.00,,---,0.00,VWS V14.01,2013-01-15 18:07:00,
2013-01-15 12:08:00,25.1,18.9,30.28,NNW,338,3.3,3.3,77,0.00,,---,0.00,VWS V14.01,2013-01-15 18:08:00,
2013-01-15 12:09:00,25.1,18.9,30.28,North,0,7.1,7.1,77,0.00,,---,0.00,VWS V14.01,2013-01-15 18:09:00,
2013-01-15 12:10:00,25.3,19.1,30.28,North,0,4.0,7.1,77,0.00,,---,0.00,VWS V14.01,2013-01-15 18:10:00,
2013-01-15 12:11:00,25.3,19.1,30.28,North,0,4.0,4.0,77,0.00,,---,0.00,VWS V14.01,2013-01-15 18:11:00,
2013-01-15 12:12:00,25.3,19.1,30.28,North,0,5.3,5.3,77,0.00,,---,0.00,VWS V14.01,2013-01-15 18:12:00,
2013-01-15 12:13:00,25.3,19.1,30.28,North,0,5.3,5.3,77,0.00,,---,0.00,VWS V14.01,2013-01-15 18:13:00,
2013-01-15 12:14:00,25.3,19.1,30.27,North,0,6.0,6.0,77,0.00,,---,0.00,VWS V14.01,2013-01-15 18:14:00,
2013-01-15 12:15:00,25.3,19.1,30.27,North,0,6.0,6.0,77,0.00,,---,0.00,VWS V14.01,2013-01-15 18:15:00,
2013-01-15 12:16:00,25.3,19.1,30.27,NW,315,4.6,6.0,77,0.00,,---,0.00,VWS V14.01,2013-01-15 18:16:00,
2013-01-15 12:17:00,25.3,19.1,30.27,NW,315,4.6,4.6,77,0.00,,---,0.00,VWS V14.01,2013-01-15 18:17:00,
2013-01-15 12:18:00,25.3,19.1,30.27,NW,315,4.6,4.6,77,0.00,,---,0.00,VWS V14.01,2013-01-15 18:18:00,
2013-01-15 12:19:00,25.3,19.4,30.27,North,0,7.3,7.3,78,0.00,,---,0.00,VWS V14.01,2013-01-15 18:19:00,
2013-01-15 12:20:00,25.3,19.4,30.27,North,0,7.3,7.3,78,0.00,,---,0.00,VWS V14.01,2013-01-15 18:20:00,
2013-01-15 12:21:00,25.3,19.4,30.27,North,0,1.5,7.3,78,0.00,,---,0.00,VWS V14.01,2013-01-15 18:21:00,
2013-01-15 12:22:00,25.3,19.4,30.27,North,0,1.5,1.5,78,0.00,,---,0.00,VWS V14.01,2013-01-15 18:22:00,
2013-01-15 12:23:00,25.3,19.4,30.27,North,0,1.5,1.5,78,0.00,,---,0.00,VWS V14.01,2013-01-15 18:23:00,
2013-01-15 12:24:00,25.3,19.4,30.27,North,0,6.0,6.0,78,0.00,,---,0.00,VWS V14.01,2013-01-15 18:24:00,
2013-01-15 12:25:00,25.3,19.4,30.26,North,0,7.8,7.8,78,0.00,,---,0.00,VWS V14.01,2013-01-15 18:25:00,
2013-01-15 12:26:00,25.3,19.4,30.26,North,0,7.8,7.8,78,0.00,,---,0.00,VWS V14.01,2013-01-15 18:26:00,
2013-01-15 12:27:00,25.3,19.4,30.26,North,0,1.5,7.8,78,0.00,,---,0.00,VWS V14.01,2013-01-15 18:27:00,
2013-01-15 12:28:00,25.3,19.4,30.26,North,0,1.5,1.5,78,0.00,,---,0.00,VWS V14.01,2013-01-15 18:28:00,
2013-01-15 12:29:00,25.3,19.7,30.26,NNE,22,10.0,10.0,79,0.00,,---,0.00,VWS V14.01,2013-01-15 18:29:00,
2013-01-15 12:30:00,25.3,19.7,30.26,NNE,22,10.0,10.0,79,0.00,,---,0.00,VWS V14.01,2013-01-15 18:30:00,
2013-01-15 12:31:00,25.3,19.7,30.26,North,0,5.1,10.0,79,0.00,,---,0.00,VWS V14.01,2013-01-15 18:31:00,
2013-01-15 12:32:00,25.3,19.7,30.25,North,0,5.1,5.1,79,0.00,,---,0.00,VWS V14.01,2013-01-15 18:32:00,
2013-01-15 12:33:00,25.3,19.7,30.25,North,0,5.1,5.1,79,0.00,,---,0.00,VWS V14.01,2013-01-15 18:33:00,
2013-01-15 12:34:00,25.3,19.7,30.25,North,0,6.2,6.2,79,0.00,,---,0.00,VWS V14.01,2013-01-15 18:34:00,
2013-01-15 12:35:00,25.3,19.7,30.25,North,0,0.0,6.2,79,0.00,,---,0.00,VWS V14.01,2013-01-15 18:35:00,
2013-01-15 12:36:00,25.3,19.7,30.25,North,0,0.0,0.0,79,0.00,,---,0.00,VWS V14.01,2013-01-15 18:36:00,
2013-01-15 12:37:00,25.3,19.7,30.25,North,0,0.0,0.0,79,0.00,,---,0.00,VWS V14.01,2013-01-15 18:37:00,
2013-01-15 12:38:00,25.3,19.7,30.25,North,0,0.0,0.0,79,0.00,,---,0.00,VWS V14.01,2013-01-15 18:38:00,
2013-01-15 12:39:00,25.3,19.7,30.25,North,0,6.0,6.0,79,0.00,,---,0.00,VWS V14.01,2013-01-15 18:39:00,
2013-01-15 12:40:00,25.3,19.7,30.25,North,0,4.4,6.0,79,0.00,,---,0.00,VWS V14.01,2013-01-15 18:40:00,
2013-01-15 12:41:00,25.3,19.7,30.24,North,0,4.4,4.4,79,0.00,,---,0.00,VWS V14.01,2013-01-15 18:41:00,
2013-01-15 12:42:00,25.3,20.0,30.24,North,0,9.8,9.8,80,0.00,,---,0.00,VWS V14.01,2013-01-15 18:42:00,
2013-01-15 12:43:00,25.3,20.0,30.24,North,0,9.8,9.8,80,0.00,,---,0.00,VWS V14.01,2013-01-15 18:43:00,
2013-01-15 12:44:00,25.3,20.0,30.24,North,0,6.9,9.8,80,0.00,,---,0.00,VWS V14.01,2013-01-15 18:44:00,
2013-01-15 12:45:00,25.3,20.0,30.24,North,0,6.9,6.9,80,0.00,,---,0.00,VWS V14.01,2013-01-15 18:45:00,
2013-01-15 12:46:00,25.3,20.0,30.24,North,0,8.5,8.5,80,0.00,,---,0.00,VWS V14.01,2013-01-15 18:46:00,
2013-01-15 12:47:00,25.3,20.0,30.24,North,0,8.5,8.5,80,0.00,,---,0.00,VWS V14.01,2013-01-15 18:47:00,
2013-01-15 12:48:00,25.3,20.0,30.24,North,0,8.5,8.5,80,0.00,,---,0.00,VWS V14.01,2013-01-15 18:48:00,
2013-01-15 12:49:00,25.3,20.0,30.24,North,0,6.7,6.7,80,0.00,,---,0.00,VWS V14.01,2013-01-15 18:49:00,
2013-01-15 12:50:00,25.3,20.0,30.23,NNW,338,10.0,10.0,80,0.00,,---,0.00,VWS V14.01,2013-01-15 18:50:00,
2013-01-15 12:51:00,25.3,20.0,30.23,NNW,338,10.0,10.0,80,0.00,,---,0.00,VWS V14.01,2013-01-15 18:51:00,
2013-01-15 12:52:00,25.3,20.0,30.23,NNW,338,10.0,10.0,80,0.00,,---,0.00,VWS V14.01,2013-01-15 18:52:00,
2013-01-15 12:53:00,25.5,20.5,30.23,North,0,8.0,10.0,81,0.00,,---,0.00,VWS V14.01,2013-01-15 18:53:00,
2013-01-15 12:54:00,25.5,20.5,30.23,North,0,8.0,8.0,81,0.00,,---,0.00,VWS V14.01,2013-01-15 18:54:00,
2013-01-15 12:55:00,25.5,20.5,30.23,North,0,8.0,8.0,81,0.00,,---,0.00,VWS V14.01,2013-01-15 18:55:00,
2013-01-15 12:56:00,25.5,20.5,30.23,North,0,8.0,8.0,81,0.00,,---,0.00,VWS V14.01,2013-01-15 18:56:00,
2013-01-15 12:57:00,25.5,20.5,30.23,North,0,8.0,8.0,81,0.00,,---,0.00,VWS V14.01,2013-01-15 18:57:00,
2013-01-15 12:58:00,25.5,20.5,30.23,North,0,5.1,5.1,81,0.00,,---,0.00,VWS V14.01,2013-01-15 18:58:00,
2013-01-15 12:59:00,25.3,20.3,30.23,North,0,6.9,6.9,81,0.00,,---,0.00,VWS V14.01,2013-01-15 18:59:00,
2013-01-15 13:00:00,25.3,20.3,30.23,North,0,6.9,6.9,81,0.00,,---,0.00,VWS V14.01,2013-01-15 19:00:00,
2013-01-15 13:01:00,25.5,20.5,30.22,North,0,6.9,6.9,81,0.00,,---,0.00,VWS V14.01,2013-01-15 19:01:00,
2013-01-15 13:02:00,25.5,20.5,30.22,North,0,6.9,6.9,81,0.00,,---,0.00,VWS V14.01,2013-01-15 19:02:00,
2013-01-15 13:03:00,25.3,20.3,30.22,NNW,338,2.6,6.9,81,0.00,,---,0.00,VWS V14.01,2013-01-15 19:03:00,
2013-01-15 13:04:00,25.3,20.3,30.22,NNW,338,2.6,2.6,81,0.00,,---,0.00,VWS V14.01,2013-01-15 19:04:00,
2013-01-15 13:05:00,25.3,20.3,30.22,NNW,338,2.6,2.6,81,0.00,,---,0.00,VWS V14.01,2013-01-15 19:05:00,
2013-01-15 13:06:00,25.5,20.5,30.23,North,0,5.8,5.8,81,0.00,,---,0.00,VWS V14.01,2013-01-15 19:06:00,
2013-01-15 13:07:00,25.5,20.5,30.23,North,0,5.8,5.8,81,0.00,,---,0.00,VWS V14.01,2013-01-15 19:07:00,
2013-01-15 13:08:00,25.5,20.5,30.22,NNW,338,0.0,5.8,81,0.00,,---,0.00,VWS V14.01,2013-01-15 19:08:00,
2013-01-15 13:09:00,25.5,20.5,30.22,NNW,338,0.0,0.0,81,0.00,,---,0.00,VWS V14.01,2013-01-15 19:09:00,
2013-01-15 13:10:00,25.3,20.3,30.22,North,0,5.5,5.5,81,0.00,,---,0.00,VWS V14.01,2013-01-15 19:10:00,
2013-01-15 13:11:00,25.3,20.3,30.22,North,0,5.5,5.5,81,0.00,,---,0.00,VWS V14.01,2013-01-15 19:11:00,
2013-01-15 13:12:00,25.3,20.3,30.22,North,0,5.5,5.5,81,0.00,,---,0.00,VWS V14.01,2013-01-15 19:12:00,
2013-01-15 13:13:00,25.5,20.5,30.22,North,0,7.3,7.3,81,0.00,,---,0.00,VWS V14.01,2013-01-15 19:13:00,
2013-01-15 13:14:00,25.5,20.5,30.22,North,0,2.2,7.3,81,0.00,,---,0.00,VWS V14.01,2013-01-15 19:14:00,
2013-01-15 13:15:00,25.5,20.5,30.22,North,0,2.2,2.2,81,0.00,,---,0.00,VWS V14.01,2013-01-15 19:15:00,
2013-01-15 13:16:00,25.5,20.5,30.22,North,0,4.9,4.9,81,0.00,,---,0.00,VWS V14.01,2013-01-15 19:16:00,
2013-01-15 13:17:00,25.5,20.5,30.22,North,0,4.9,4.9,81,0.00,,---,0.00,VWS V14.01,2013-01-15 19:17:00,
2013-01-15 13:18:00,25.5,20.5,30.22,NNW,338,0.0,4.9,81,0.00,,---,0.00,VWS V14.01,2013-01-15 19:18:00,
2013-01-15 13:19:00,25.5,20.5,30.22,NNW,338,0.0,0.0,81,0.00,,---,0.00,VWS V14.01,2013-01-15 19:19:00,
2013-01-15 13:20:00,25.5,20.5,30.22,NNW,338,0.0,0.0,81,0.00,,---,0.00,VWS V14.01,2013-01-15 19:20:00,
2013-01-15 13:21:00,25.5,20.5,30.22,North,0,6.2,6.2,81,0.00,,---,0.00,VWS V14.01,2013-01-15 19:21:00,
2013-01-15 13:22:00,25.5,20.5,30.22,North,0,6.2,6.2,81,0.00,,---,0.00,VWS V14.01,2013-01-15 19:22:00,
2013-01-15 13:23:00,25.5,20.5,30.22,NNW,338,1.1,6.2,81,0.00,,---,0.00,VWS V14.01,2013-01-15 19:23:00,
2013-01-15 13:24:00,25.5,20.5,30.22,NNW,338,1.1,1.1,81,0.00,,---,0.00,VWS V14.01,2013-01-15 19:24:00,
2013-01-15 13:25:00,25.8,20.8,30.22,North,0,5.1,5.1,81,0.00,,---,0.00,VWS V14.01,2013-01-15 19:25:00,
2013-01-15 13:26:00,25.8,20.8,30.22,North,0,5.1,5.1,81,0.00,,---,0.00,VWS V14.01,2013-01-15 19:26:00,
2013-01-15 13:27:00,25.8,20.8,30.22,North,0,5.1,5.1,81,0.00,,---,0.00,VWS V14.01,2013-01-15 19:27:00,
2013-01-15 13:28:00,25.8,20.8,30.21,North,0,3.1,3.1,81,0.00,,---,0.00,VWS V14.01,2013-01-15 19:28:00,
2013-01-15 13:29:00,25.8,20.8,30.21,North,0,1.1,3.1,81,0.00,,---,0.00,VWS V14.01,2013-01-15 19:29:00,
2013-01-15 13:30:00,25.8,20.8,30.20,North,0,1.1,1.1,81,0.00,,---,0.00,VWS V14.01,2013-01-15 19:30:00,
2013-01-15 13:31:00,25.8,20.8,30.20,North,0,8.0,8.0,81,0.00,,---,0.00,VWS V14.01,2013-01-15 19:31:00,
2013-01-15 13:32:00,25.8,20.8,30.20,North,0,8.0,8.0,81,0.00,,---,0.00,VWS V14.01,2013-01-15 19:32:00,
2013-01-15 13:33:00,25.8,20.8,30.20,NNE,22,0.0,8.0,81,0.00,,---,0.00,VWS V14.01,2013-01-15 19:33:00,
2013-01-15 13:34:00,25.8,20.8,30.20,NNE,22,0.0,0.0,81,0.00,,---,0.00,VWS V14.01,2013-01-15 19:34:00,
2013-01-15 13:35:00,26.0,21.0,30.21,NNE,22,0.0,0.0,81,0.00,,---,0.00,VWS V14.01,2013-01-15 19:35:00,
2013-01-15 13:36:00,26.0,21.0,30.21,NNW,338,2.2,2.2,81,0.00,,---,0.00,VWS V14.01,2013-01-15 19:36:00,
2013-01-15 13:37:00,26.0,21.0,30.21,NNW,338,2.2,2.2,81,0.00,,---,0.00,VWS V14.01,2013-01-15 19:37:00,
2013-01-15 13:38:00,26.0,21.0,30.21,North,0,0.0,2.2,81,0.00,,---,0.00,VWS V14.01,2013-01-15 19:38:00,
2013-01-15 13:39:00,26.0,21.0,30.21,North,0,0.0,0.0,81,0.00,,---,0.00,VWS V14.01,2013-01-15 19:39:00,
2013-01-15 13:40:00,26.0,21.0,30.21,North,0,0.0,0.0,81,0.00,,---,0.00,VWS V14.01,2013-01-15 19:40:00,
2013-01-15 13:41:00,26.2,21.5,30.21,North,0,0.0,0.0,82,0.00,,---,0.00,VWS V14.01,2013-01-15 19:41:00,
2013-01-15 13:42:00,26.2,21.5,30.21,North,0,0.0,0.0,82,0.00,,---,0.00,VWS V14.01,2013-01-15 19:42:00,
2013-01-15 13:43:00,26.2,21.5,30.21,North,0,6.0,6.0,82,0.00,,---,0.00,VWS V14.01,2013-01-15 19:43:00,
2013-01-15 13:44:00,26.2,21.5,30.21,North,0,6.2,6.2,82,0.00,,---,0.00,VWS V14.01,2013-01-15 19:44:00,
2013-01-15 13:45:00,26.2,21.5,30.21,North,0,6.2,6.2,82,0.00,,---,0.00,VWS V14.01,2013-01-15 19:45:00,
2013-01-15 13:46:00,26.2,21.5,30.21,North,0,0.0,6.2,82,0.00,,---,0.00,VWS V14.01,2013-01-15 19:46:00,
2013-01-15 13:47:00,26.2,21.5,30.21,North,0,0.0,0.0,82,0.00,,---,0.00,VWS V14.01,2013-01-15 19:47:00,
2013-01-15 13:48:00,26.2,21.5,30.20,North,0,0.4,0.4,82,0.00,,---,0.00,VWS V14.01,2013-01-15 19:48:00,
2013-01-15 13:49:00,26.2,21.5,30.20,North,0,0.4,0.4,82,0.00,,---,0.00,VWS V14.01,2013-01-15 19:49:00,
2013-01-15 13:50:00,26.2,21.5,30.20,North,0,0.4,0.4,82,0.00,,---,0.00,VWS V14.01,2013-01-15 19:50:00,
2013-01-15 13:51:00,26.2,21.5,30.20,North,0,7.3,7.3,82,0.00,,---,0.00,VWS V14.01,2013-01-15 19:51:00,
2013-01-15 13:52:00,26.2,21.5,30.20,North,0,7.3,7.3,82,0.00,,---,0.00,VWS V14.01,2013-01-15 19:52:00,
2013-01-15 13:53:00,26.4,21.7,30.20,North,0,4.6,7.3,82,0.00,,---,0.00,VWS V14.01,2013-01-15 19:53:00,
2013-01-15 13:54:00,26.4,21.7,30.20,North,0,4.6,4.6,82,0.00,,---,0.00,VWS V14.01,2013-01-15 19:54:00,
2013-01-15 13:55:00,26.4,21.7,30.20,North,0,7.1,7.1,82,0.00,,---,0.00,VWS V14.01,2013-01-15 19:55:00,
2013-01-15 13:56:00,26.4,21.7,30.20,North,0,7.1,7.1,82,0.00,,---,0.00,VWS V14.01,2013-01-15 19:56:00,
2013-01-15 13:57:00,26.4,21.7,30.20,North,0,7.1,7.1,82,0.00,,---,0.00,VWS V14.01,2013-01-15 19:57:00,
2013-01-15 13:58:00,26.4,21.7,30.20,North,0,4.4,4.4,82,0.00,,---,0.00,VWS V14.01,2013-01-15 19:58:00,
2013-01-15 13:59:00,26.4,22.0,30.19,North,0,5.5,5.5,83,0.00,,---,0.00,VWS V14.01,2013-01-15 19:59:00,
2013-01-15 14:00:00,26.4,22.0,30.19,North,0,5.5,5.5,83,0.00,,---,0.00,VWS V14.01,2013-01-15 20:00:00,
2013-01-15 14:01:00,26.4,22.0,30.19,North,0,5.5,5.5,83,0.00,,---,0.00,VWS V14.01,2013-01-15 20:01:00,
2013-01-15 14:02:00,26.4,22.0,30.19,North,0,5.5,5.5,83,0.00,,---,0.00,VWS V14.01,2013-01-15 20:02:00,
2013-01-15 14:03:00,26.4,22.0,30.19,NNE,22,5.1,5.5,83,0.00,,---,0.00,VWS V14.01,2013-01-15 20:03:00,
2013-01-15 14:04:00,26.4,22.0,30.19,NNE,22,5.1,5.1,83,0.00,,---,0.00,VWS V14.01,2013-01-15 20:04:00,
2013-01-15 14:05:00,26.4,22.0,30.20,NNE,22,5.1,5.1,83,0.00,,---,0.00,VWS V14.01,2013-01-15 20:05:00,
2013-01-15 14:06:00,26.6,22.1,30.20,North,0,2.0,5.1,83,0.00,,---,0.00,VWS V14.01,2013-01-15 20:06:00,
2013-01-15 14:07:00,26.6,22.1,30.20,North,0,2.0,2.0,83,0.00,,---,0.00,VWS V14.01,2013-01-15 20:07:00,
2013-01-15 14:08:00,26.6,22.1,30.19,NNW,338,7.1,7.1,83,0.00,,---,0.00,VWS V14.01,2013-01-15 20:08:00,
2013-01-15 14:09:00,26.6,22.1,30.19,NNW,338,7.1,7.1,83,0.00,,---,0.00,VWS V14.01,2013-01-15 20:09:00,
2013-01-15 14:10:00,26.7,22.2,30.19,North,0,5.3,7.1,83,0.00,,---,0.00,VWS V14.01,2013-01-15 20:10:00,
2013-01-15 14:11:00,26.7,22.2,30.19,North,0,5.3,5.3,83,0.00,,---,0.00,VWS V14.01,2013-01-15 20:11:00,
2013-01-15 14:12:00,26.7,22.2,30.19,North,0,5.3,5.3,83,0.00,,---,0.00,VWS V14.01,2013-01-15 20:12:00,
2013-01-15 14:13:00,26.7,22.2,30.19,NNE,22,0.0,0.0,83,0.00,,---,0.00,VWS V14.01,2013-01-15 20:13:00,
2013-01-15 14:14:00,26.7,22.2,30.19,North,0,0.0,0.0,83,0.00,,---,0.00,VWS V14.01,2013-01-15 20:14:00,
2013-01-15 14:15:00,26.7,22.2,30.19,North,0,0.0,0.0,83,0.00,,---,0.00,VWS V14.01,2013-01-15 20:15:00,
2013-01-15 14:16:00,26.7,22.2,30.20,North,0,0.0,0.0,83,0.00,,---,0.00,VWS V14.01,2013-01-15 20:16:00,
2013-01-15 14:17:00,26.7,22.2,30.20,North,0,0.0,0.0,83,0.00,,---,0.00,VWS V14.01,2013-01-15 20:17:00,
2013-01-15 14:18:00,26.9,22.4,30.19,NNE,22,4.4,4.4,83,0.00,,---,0.00,VWS V14.01,2013-01-15 20:18:00,
2013-01-15 14:19:00,26.9,22.4,30.19,NNE,22,4.4,4.4,83,0.00,,---,0.00,VWS V14.01,2013-01-15 20:19:00,
2013-01-15 14:20:00,26.9,22.4,30.19,North,0,6.2,6.2,83,0.00,,---,0.00,VWS V14.01,2013-01-15 20:20:00,
2013-01-15 14:21:00,26.9,22.4,30.19,North,0,6.2,6.2,83,0.00,,---,0.00,VWS V14.01,2013-01-15 20:21:00,
2013-01-15 14:22:00,26.9,22.4,30.19,North,0,6.2,6.2,83,0.00,,---,0.00,VWS V14.01,2013-01-15 20:22:00,
2013-01-15 14:23:00,26.9,22.4,30.19,NNE,22,0.0,6.2,83,0.00,,---,0.00,VWS V14.01,2013-01-15 20:23:00,
2013-01-15 14:24:00,26.9,22.4,30.19,NNE,22,0.0,0.0,83,0.00,,---,0.00,VWS V14.01,2013-01-15 20:24:00,
2013-01-15 14:25:00,26.9,22.4,30.19,NNE,22,0.0,0.0,83,0.00,,---,0.00,VWS V14.01,2013-01-15 20:25:00,
2013-01-15 14:26:00,26.9,22.4,30.19,North,0,3.3,3.3,83,0.00,,---,0.00,VWS V14.01,2013-01-15 20:26:00,
2013-01-15 14:27:00,26.9,22.4,30.19,North,0,3.3,3.3,83,0.00,,---,0.00,VWS V14.01,2013-01-15 20:27:00,
2013-01-15 14:28:00,26.9,22.4,30.19,NNE,22,0.0,0.0,83,0.00,,---,0.00,VWS V14.01,2013-01-15 20:28:00,
2013-01-15 14:29:00,26.9,22.4,30.19,NNE,22,0.0,0.0,83,0.00,,---,0.00,VWS V14.01,2013-01-15 20:29:00,
2013-01-15 14:30:00,26.9,22.4,30.20,NNE,22,0.0,0.0,83,0.00,,---,0.00,VWS V14.01,2013-01-15 20:30:00,
2013-01-15 14:31:00,26.9,22.4,30.20,NNE,22,6.4,6.4,83,0.00,,---,0.00,VWS V14.01,2013-01-15 20:31:00,
2013-01-15 14:32:00,26.9,22.4,30.20,NNE,22,6.4,6.4,83,0.00,,---,0.00,VWS V14.01,2013-01-15 20:32:00,
2013-01-15 14:33:00,27.1,22.6,30.19,NNE,22,0.0,6.4,83,0.00,,---,0.00,VWS V14.01,2013-01-15 20:33:00,
2013-01-15 14:34:00,27.1,22.6,30.19,NNE,22,0.0,0.0,83,0.00,,---,0.00,VWS V14.01,2013-01-15 20:34:00,
2013-01-15 14:35:00,27.1,22.6,30.19,NNE,22,0.0,0.0,83,0.00,,---,0.00,VWS V14.01,2013-01-15 20:35:00,
2013-01-15 14:36:00,27.1,22.6,30.19,NNE,22,0.0,0.0,83,0.00,,---,0.00,VWS V14.01,2013-01-15 20:36:00,
2013-01-15 14:37:00,27.1,22.6,30.19,NNE,22,0.0,0.0,83,0.00,,---,0.00,VWS V14.01,2013-01-15 20:37:00,
2013-01-15 14:38:00,26.9,22.4,30.19,NNE,22,6.0,6.0,83,0.00,,---,0.00,VWS V14.01,2013-01-15 20:38:00,
2013-01-15 14:39:00,26.9,22.4,30.18,NNE,22,6.0,6.0,83,0.00,,---,0.00,VWS V14.01,2013-01-15 20:39:00,
2013-01-15 14:40:00,27.1,22.6,30.18,NNE,22,6.0,6.0,83,0.00,,---,0.00,VWS V14.01,2013-01-15 20:40:00,
2013-01-15 14:41:00,27.1,22.6,30.18,North,0,4.9,6.0,83,0.00,,---,0.00,VWS V14.01,2013-01-15 20:41:00,
2013-01-15 14:42:00,27.1,22.6,30.18,North,0,4.9,4.9,83,0.00,,---,0.00,VWS V14.01,2013-01-15 20:42:00,
2013-01-15 14:43:00,27.1,22.6,30.18,North,0,4.4,4.4,83,0.00,,---,0.00,VWS V14.01,2013-01-15 20:43:00,
2013-01-15 14:44:00,27.1,22.6,30.18,NNE,22,7.8,7.8,83,0.00,,---,0.00,VWS V14.01,2013-01-15 20:44:00,
2013-01-15 14:45:00,27.1,22.6,30.18,NNE,22,7.8,7.8,83,0.00,,---,0.00,VWS V14.01,2013-01-15 20:45:00,
2013-01-15 14:46:00,27.1,22.6,30.18,NNE,22,5.5,7.8,83,0.00,,---,0.00,VWS V14.01,2013-01-15 20:46:00,
2013-01-15 14:47:00,27.1,22.6,30.18,NNE,22,5.5,5.5,83,0.00,,---,0.00,VWS V14.01,2013-01-15 20:47:00,
2013-01-15 14:48:00,27.1,22.6,30.18,NNE,22,0.0,5.5,83,0.00,,---,0.00,VWS V14.01,2013-01-15 20:48:00,
2013-01-15 14:49:00,27.1,22.6,30.18,NNE,22,0.0,0.0,83,0.00,,---,0.00,VWS V14.01,2013-01-15 20:49:00,
2013-01-15 14:50:00,27.1,22.6,30.18,NNE,22,0.0,0.0,83,0.00,,---,0.00,VWS V14.01,2013-01-15 20:50:00,
2013-01-15 14:51:00,27.1,22.6,30.18,North,0,0.0,0.0,83,0.00,,---,0.00,VWS V14.01,2013-01-15 20:51:00,
2013-01-15 14:52:00,27.1,22.6,30.18,North,0,0.0,0.0,83,0.00,,---,0.00,VWS V14.01,2013-01-15 20:52:00,
2013-01-15 14:53:00,27.3,22.8,30.18,NNE,22,0.0,0.0,83,0.00,,---,0.00,VWS V14.01,2013-01-15 20:53:00,
2013-01-15 14:54:00,27.3,22.8,30.18,NNE,22,0.0,0.0,83,0.00,,---,0.00,VWS V14.01,2013-01-15 20:54:00,
2013-01-15 14:55:00,27.3,22.8,30.18,NNE,22,0.0,0.0,83,0.00,,---,0.00,VWS V14.01,2013-01-15 20:55:00,
2013-01-15 14:56:00,27.3,22.8,30.18,NNE,22,0.0,0.0,83,0.00,,---,0.00,VWS V14.01,2013-01-15 20:56:00,
2013-01-15 14:57:00,27.3,22.8,30.18,NNE,22,0.0,0.0,83,0.00,,---,0.00,VWS V14.01,2013-01-15 20:57:00,
2013-01-15 14:58:00,27.3,22.8,30.18,North,0,0.0,0.0,83,0.00,,---,0.00,VWS V14.01,2013-01-15 20:58:00,
2013-01-15 14:59:00,27.3,22.8,30.18,North,0,0.0,0.0,83,0.00,,---,0.00,VWS V14.01,2013-01-15 20:59:00,
2013-01-15 15:00:00,27.3,22.8,30.18,North,0,0.0,0.0,83,0.00,,---,0.00,VWS V14.01,2013-01-15 21:00:00,
2013-01-15 15:01:00,27.3,22.8,30.18,NNE,22,6.2,6.2,83,0.00,,---,0.00,VWS V14.01,2013-01-15 21:01:00,
2013-01-15 15:02:00,27.3,22.8,30.18,NNE,22,6.2,6.2,83,0.00,,---,0.00,VWS V14.01,2013-01-15 21:02:00,
2013-01-15 15:03:00,27.3,23.1,30.18,NNE,22,6.2,6.2,84,0.00,,---,0.00,VWS V14.01,2013-01-15 21:03:00,
2013-01-15 15:04:00,27.3,23.1,30.18,NNE,22,6.2,6.2,84,0.00,,---,0.00,VWS V14.01,2013-01-15 21:04:00,
2013-01-15 15:05:00,27.3,23.1,30.18,NNE,22,6.2,6.2,84,0.00,,---,0.00,VWS V14.01,2013-01-15 21:05:00,
2013-01-15 15:06:00,27.3,23.1,30.18,North,0,0.0,6.2,84,0.00,,---,0.00,VWS V14.01,2013-01-15 21:06:00,
2013-01-15 15:07:00,27.3,23.1,30.18,North,0,0.0,0.0,84,0.00,,---,0.00,VWS V14.01,2013-01-15 21:07:00,
2013-01-15 15:08:00,27.5,23.3,30.18,North,0,1.1,1.1,84,0.00,,---,0.00,VWS V14.01,2013-01-15 21:08:00,
2013-01-15 15:09:00,27.5,23.3,30.18,North,0,1.1,1.1,84,0.00,,---,0.00,VWS V14.01,2013-01-15 21:09:00,
2013-01-15 15:10:00,27.5,23.3,30.18,NNW,338,6.0,6.0,84,0.00,,---,0.00,VWS V14.01,2013-01-15 21:10:00,
2013-01-15 15:11:00,27.5,23.3,30.19,NNW,338,6.0,6.0,84,0.00,,---,0.00,VWS V14.01,2013-01-15 21:11:00,
2013-01-15 15:12:00,27.5,23.3,30.19,NNW,338,6.0,6.0,84,0.00,,---,0.00,VWS V14.01,2013-01-15 21:12:00,
2013-01-15 15:13:00,27.5,23.3,30.19,NNW,338,6.0,6.0,84,0.00,,---,0.00,VWS V14.01,2013-01-15 21:13:00,
2013-01-15 15:14:00,27.5,23.3,30.19,NNE,22,0.0,6.0,84,0.00,,---,0.00,VWS V14.01,2013-01-15 21:14:00,
2013-01-15 15:15:00,27.5,23.3,30.18,NNE,22,0.0,0.0,84,0.00,,---,0.00,VWS V14.01,2013-01-15 21:15:00,
2013-01-15 15:16:00,27.6,23.4,30.18,North,0,0.0,0.0,84,0.00,,---,0.00,VWS V14.01,2013-01-15 21:16:00,
2013-01-15 15:17:00,27.6,23.4,30.18,North,0,0.0,0.0,84,0.00,,---,0.00,VWS V14.01,2013-01-15 21:17:00,
2013-01-15 15:18:00,27.6,23.4,30.18,North,0,0.0,0.0,84,0.00,,---,0.00,VWS V14.01,2013-01-15 21:18:00,
2013-01-15 15:19:00,27.6,23.4,30.18,North,0,0.0,0.0,84,0.00,,---,0.00,VWS V14.01,2013-01-15 21:19:00,
2013-01-15 15:20:00,27.6,23.4,30.19,North,0,0.0,0.0,84,0.00,,---,0.00,VWS V14.01,2013-01-15 21:20:00,
2013-01-15 15:21:00,27.6,23.4,30.19,North,0,0.0,0.0,84,0.00,,---,0.00,VWS V14.01,2013-01-15 21:21:00,
2013-01-15 15:22:00,27.6,23.4,30.19,North,0,0.0,0.0,84,0.00,,---,0.00,VWS V14.01,2013-01-15 21:22:00,
2013-01-15 15:23:00,27.6,23.4,30.19,North,0,4.0,4.0,84,0.00,,---,0.00,VWS V14.01,2013-01-15 21:23:00,
2013-01-15 15:24:00,27.6,23.4,30.19,North,0,4.0,4.0,84,0.00,,---,0.00,VWS V14.01,2013-01-15 21:24:00,
2013-01-15 15:25:00,27.6,23.4,30.19,North,0,3.8,4.0,84,0.00,,---,0.00,VWS V14.01,2013-01-15 21:25:00,
2013-01-15 15:26:00,27.6,23.4,30.18,North,0,3.8,3.8,84,0.00,,---,0.00,VWS V14.01,2013-01-15 21:26:00,
2013-01-15 15:27:00,27.6,23.4,30.18,North,0,3.8,3.8,84,0.00,,---,0.00,VWS V14.01,2013-01-15 21:27:00,
2013-01-15 15:28:00,27.6,23.4,30.18,North,0,4.0,4.0,84,0.00,,---,0.00,VWS V14.01,2013-01-15 21:28:00,
2013-01-15 15:29:00,27.6,23.4,30.18,North,0,4.0,4.0,84,0.00,,---,0.00,VWS V14.01,2013-01-15 21:29:00,
2013-01-15 15:30:00,27.6,23.4,30.18,North,0,4.0,4.0,84,0.00,,---,0.00,VWS V14.01,2013-01-15 21:30:00,
2013-01-15 15:31:00,27.6,23.4,30.18,NNE,22,5.1,5.1,84,0.00,,---,0.00,VWS V14.01,2013-01-15 21:31:00,
2013-01-15 15:32:00,27.6,23.4,30.18,NNE,22,5.1,5.1,84,0.00,,---,0.00,VWS V14.01,2013-01-15 21:32:00,
2013-01-15 15:33:00,27.6,23.4,30.17,NNE,22,8.0,8.0,84,0.00,,---,0.00,VWS V14.01,2013-01-15 21:33:00,
2013-01-15 15:34:00,27.6,23.4,30.17,NNE,22,8.0,8.0,84,0.00,,---,0.00,VWS V14.01,2013-01-15 21:34:00,
2013-01-15 15:35:00,27.6,23.4,30.17,NNW,338,6.0,8.0,84,0.00,,---,0.00,VWS V14.01,2013-01-15 21:35:00,
2013-01-15 15:36:00,27.6,23.4,30.18,NNW,338,6.0,6.0,84,0.00,,---,0.00,VWS V14.01,2013-01-15 21:36:00,
2013-01-15 15:37:00,27.6,23.4,30.18,NNW,338,6.0,6.0,84,0.00,,---,0.00,VWS V14.01,2013-01-15 21:37:00,
2013-01-15 15:38:00,27.6,23.4,30.18,NNW,338,6.0,6.0,84,0.00,,---,0.00,VWS V14.01,2013-01-15 21:38:00,
2013-01-15 15:39:00,27.6,23.4,30.18,NNW,338,6.0,6.0,84,0.00,,---,0.00,VWS V14.01,2013-01-15 21:39:00,
2013-01-15 15:40:00,27.8,23.6,30.18,North,0,5.1,6.0,84,0.00,,---,0.00,VWS V14.01,2013-01-15 21:40:00,
2013-01-15 15:41:00,27.8,23.6,30.18,North,0,5.1,5.1,84,0.00,,---,0.00,VWS V14.01,2013-01-15 21:41:00,
2013-01-15 15:42:00,27.8,23.6,30.18,North,0,5.1,5.1,84,0.00,,---,0.00,VWS V14.01,2013-01-15 21:42:00,
2013-01-15 15:43:00,27.6,23.4,30.18,NNE,22,4.2,4.2,84,0.00,,---,0.00,VWS V14.01,2013-01-15 21:43:00,
2013-01-15 15:44:00,27.8,23.6,30.18,NNW,338,6.7,6.7,84,0.00,,---,0.00,VWS V14.01,2013-01-15 21:44:00,
2013-01-15 15:45:00,27.8,23.6,30.18,NNW,338,6.7,6.7,84,0.00,,---,0.00,VWS V14.01,2013-01-15 21:45:00,
2013-01-15 15:46:00,27.6,23.4,30.18,NNW,338,6.7,6.7,84,0.00,,---,0.00,VWS V14.01,2013-01-15 21:46:00,
2013-01-15 15:47:00,27.6,23.4,30.18,NNW,338,6.7,6.7,84,0.00,,---,0.00,VWS V14.01,2013-01-15 21:47:00,
2013-01-15 15:48:00,27.8,23.6,30.18,North,0,0.0,6.7,84,0.00,,---,0.00,VWS V14.01,2013-01-15 21:48:00,
2013-01-15 15:49:00,27.8,23.6,30.18,North,0,0.0,0.0,84,0.00,,---,0.00,VWS V14.01,2013-01-15 21:49:00,
2013-01-15 15:50:00,27.8,23.6,30.18,North,0,0.0,0.0,84,0.00,,---,0.00,VWS V14.01,2013-01-15 21:50:00,
2013-01-15 15:51:00,28.0,23.8,30.18,North,0,0.0,0.0,84,0.00,,---,0.00,VWS V14.01,2013-01-15 21:51:00,
2013-01-15 15:52:00,28.0,23.8,30.18,North,0,0.0,0.0,84,0.00,,---,0.00,VWS V14.01,2013-01-15 21:52:00,
2013-01-15 15:53:00,28.0,23.8,30.18,North,0,3.5,3.5,84,0.00,,---,0.00,VWS V14.01,2013-01-15 21:53:00,
2013-01-15 15:54:00,28.0,23.8,30.18,North,0,3.5,3.5,84,0.00,,---,0.00,VWS V14.01,2013-01-15 21:54:00,
2013-01-15 15:55:00,28.0,23.8,30.18,North,0,3.5,3.5,84,0.00,,---,0.00,VWS V14.01,2013-01-15 21:55:00,
2013-01-15 15:56:00,28.0,23.8,30.18,North,0,3.5,3.5,84,0.00,,---,0.00,VWS V14.01,2013-01-15 21:56:00,
2013-01-15 15:57:00,28.0,23.8,30.18,North,0,3.5,3.5,84,0.00,,---,0.00,VWS V14.01,2013-01-15 21:57:00,
2013-01-15 15:58:00,28.0,23.8,30.18,North,0,5.1,5.1,84,0.00,,---,0.00,VWS V14.01,2013-01-15 21:58:00,
2013-01-15 15:59:00,28.0,23.8,30.18,North,0,5.8,5.8,84,0.00,,---,0.00,VWS V14.01,2013-01-15 21:59:00,
2013-01-15 16:00:00,28.0,23.8,30.18,North,0,5.8,5.8,84,0.00,,---,0.00,VWS V14.01,2013-01-15 22:00:00,
2013-01-15 16:01:00,28.0,23.5,30.18,North,0,4.2,5.8,83,0.00,,---,0.00,VWS V14.01,2013-01-15 22:01:00,
2013-01-15 16:02:00,28.0,23.5,30.18,North,0,4.2,4.2,83,0.00,,---,0.00,VWS V14.01,2013-01-15 22:02:00,
2013-01-15 16:03:00,28.0,23.5,30.18,North,0,4.2,4.2,83,0.00,,---,0.00,VWS V14.01,2013-01-15 22:03:00,
2013-01-15 16:04:00,28.0,23.5,30.18,North,0,4.2,4.2,83,0.00,,---,0.00,VWS V14.01,2013-01-15 22:04:00,
2013-01-15 16:05:00,28.0,23.5,30.19,North,0,0.0,4.2,83,0.00,,---,0.00,VWS V14.01,2013-01-15 22:05:00,
2013-01-15 16:06:00,28.0,23.5,30.19,North,0,0.0,0.0,83,0.00,,---,0.00,VWS V14.01,2013-01-15 22:06:00,
2013-01-15 16:07:00,28.0,23.5,30.19,North,0,0.0,0.0,83,0.00,,---,0.00,VWS V14.01,2013-01-15 22:07:00,
2013-01-15 16:08:00,28.0,23.5,30.19,North,0,0.0,0.0,83,0.00,,---,0.00,VWS V14.01,2013-01-15 22:08:00,
2013-01-15 16:09:00,28.0,23.5,30.19,North,0,0.0,0.0,83,0.00,,---,0.00,VWS V14.01,2013-01-15 22:09:00,
2013-01-15 16:10:00,28.2,23.7,30.19,North,0,5.8,5.8,83,0.00,,---,0.00,VWS V14.01,2013-01-15 22:10:00,
2013-01-15 16:11:00,28.2,23.7,30.19,North,0,5.8,5.8,83,0.00,,---,0.00,VWS V14.01,2013-01-15 22:11:00,
2013-01-15 16:12:00,28.2,23.7,30.19,North,0,5.8,5.8,83,0.00,,---,0.00,VWS V14.01,2013-01-15 22:12:00,
2013-01-15 16:13:00,28.2,24.0,30.19,North,0,5.8,5.8,84,0.10,,---,0.10,VWS V14.01,2013-01-15 22:13:00,
2013-01-15 16:14:00,28.2,23.7,30.19,NNW,338,2.6,5.8,83,0.10,,---,0.10,VWS V14.01,2013-01-15 22:14:00,
2013-01-15 16:15:00,28.2,23.7,30.19,NNW,338,2.6,2.6,83,0.10,,---,0.10,VWS V14.01,2013-01-15 22:15:00,
2013-01-15 16:16:00,28.2,23.7,30.19,NNW,338,0.0,2.6,83,0.10,,---,0.10,VWS V14.01,2013-01-15 22:16:00,
2013-01-15 16:17:00,28.2,23.7,30.19,NNW,338,0.0,0.0,83,0.10,,---,0.10,VWS V14.01,2013-01-15 22:17:00,
2013-01-15 16:18:00,28.2,23.7,30.20,North,0,4.6,4.6,83,0.10,,---,0.10,VWS V14.01,2013-01-15 22:18:00,
2013-01-15 16:19:00,28.2,23.7,30.20,North,0,4.6,4.6,83,0.10,,---,0.10,VWS V14.01,2013-01-15 22:19:00,
2013-01-15 16:20:00,28.2,23.7,30.20,North,0,4.6,4.6,83,0.10,,---,0.10,VWS V14.01,2013-01-15 22:20:00,
2013-01-15 16:21:00,28.2,23.7,30.20,North,0,4.6,4.6,83,0.10,,---,0.10,VWS V14.01,2013-01-15 22:21:00,
2013-01-15 16:22:00,28.2,23.7,30.20,North,0,4.6,4.6,83,0.10,,---,0.10,VWS V14.01,2013-01-15 22:22:00,
2013-01-15 16:23:00,28.2,23.7,30.20,North,0,2.0,4.6,83,0.10,,---,0.10,VWS V14.01,2013-01-15 22:23:00,
2013-01-15 16:24:00,28.2,23.7,30.20,North,0,2.0,2.0,83,0.10,,---,0.10,VWS V14.01,2013-01-15 22:24:00,
2013-01-15 16:25:00,28.2,23.7,30.20,North,0,6.2,6.2,83,0.10,,---,0.10,VWS V14.01,2013-01-15 22:25:00,
2013-01-15 16:26:00,28.2,23.7,30.20,North,0,6.2,6.2,83,0.10,,---,0.10,VWS V14.01,2013-01-15 22:26:00,
2013-01-15 16:27:00,28.2,23.7,30.20,North,0,6.2,6.2,83,0.10,,---,0.10,VWS V14.01,2013-01-15 22:27:00,
2013-01-15 16:28:00,28.2,23.7,30.20,North,0,0.0,0.0,83,0.10,,---,0.10,VWS V14.01,2013-01-15 22:28:00,
2013-01-15 16:29:00,28.2,23.7,30.20,North,0,0.0,0.0,83,0.10,,---,0.10,VWS V14.01,2013-01-15 22:29:00,
2013-01-15 16:30:00,28.2,23.7,30.20,North,0,0.0,0.0,83,0.10,,---,0.10,VWS V14.01,2013-01-15 22:30:00,
2013-01-15 16:31:00,28.2,23.7,30.20,NNW,338,0.0,0.0,83,0.10,,---,0.10,VWS V14.01,2013-01-15 22:31:00,
2013-01-15 16:32:00,28.2,23.7,30.20,NNW,338,0.0,0.0,83,0.10,,---,0.10,VWS V14.01,2013-01-15 22:32:00,
2013-01-15 16:33:00,28.2,23.7,30.20,North,0,0.0,0.0,83,0.10,,---,0.10,VWS V14.01,2013-01-15 22:33:00,
2013-01-15 16:34:00,28.2,23.7,30.20,North,0,0.0,0.0,83,0.10,,---,0.10,VWS V14.01,2013-01-15 22:34:00,
2013-01-15 16:35:00,28.2,23.7,30.20,North,0,5.8,5.8,83,0.10,,---,0.10,VWS V14.01,2013-01-15 22:35:00,
2013-01-15 16:36:00,28.2,23.7,30.20,North,0,5.8,5.8,83,0.10,,---,0.10,VWS V14.01,2013-01-15 22:36:00,
2013-01-15 16:37:00,28.2,23.7,30.20,North,0,5.8,5.8,83,0.10,,---,0.10,VWS V14.01,2013-01-15 22:37:00,
2013-01-15 16:38:00,28.2,23.7,30.20,North,0,1.7,5.8,83,0.10,,---,0.10,VWS V14.01,2013-01-15 22:38:00,
2013-01-15 16:39:00,28.2,23.7,30.20,North,0,1.7,1.7,83,0.10,,---,0.10,VWS V14.01,2013-01-15 22:39:00,
2013-01-15 16:40:00,28.2,23.7,30.19,North,0,0.0,1.7,83,0.10,,---,0.10,VWS V14.01,2013-01-15 22:40:00,
2013-01-15 16:41:00,28.2,23.7,30.19,North,0,0.0,0.0,83,0.10,,---,0.10,VWS V14.01,2013-01-15 22:41:00,
2013-01-15 16:42:00,28.2,23.7,30.19,North,0,0.0,0.0,83,0.10,,---,0.10,VWS V14.01,2013-01-15 22:42:00,
2013-01-15 16:43:00,28.2,23.7,30.19,NNW,338,3.1,3.1,83,0.10,,---,0.10,VWS V14.01,2013-01-15 22:43:00,
2013-01-15 16:44:00,28.2,23.7,30.19,North,0,0.0,3.1,83,0.10,,---,0.10,VWS V14.01,2013-01-15 22:44:00,
2013-01-15 16:45:00,28.2,23.7,30.20,North,0,0.0,0.0,83,0.10,,---,0.10,VWS V14.01,2013-01-15 22:45:00,
2013-01-15 16:46:00,28.2,23.7,30.20,North,0,0.0,0.0,83,0.10,,---,0.10,VWS V14.01,2013-01-15 22:46:00,
2013-01-15 16:47:00,28.2,23.7,30.20,North,0,0.0,0.0,83,0.10,,---,0.10,VWS V14.01,2013-01-15 22:47:00,
2013-01-15 16:48:00,28.2,23.7,30.19,North,0,1.3,1.3,83,0.10,,---,0.10,VWS V14.01,2013-01-15 22:48:00,
2013-01-15 16:49:00,28.2,23.7,30.19,North,0,1.3,1.3,83,0.10,,---,0.10,VWS V14.01,2013-01-15 22:49:00,
2013-01-15 16:50:00,28.2,23.7,30.19,North,0,4.2,4.2,83,0.10,,---,0.10,VWS V14.01,2013-01-15 22:50:00,
2013-01-15 16:51:00,28.2,23.7,30.19,North,0,4.2,4.2,83,0.10,,---,0.10,VWS V14.01,2013-01-15 22:51:00,
2013-01-15 16:52:00,28.2,23.7,30.19,North,0,4.2,4.2,83,0.10,,---,0.10,VWS V14.01,2013-01-15 22:52:00,
2013-01-15 16:53:00,28.2,23.7,30.19,North,0,4.9,4.9,83,0.10,,---,0.10,VWS V14.01,2013-01-15 22:53:00,
2013-01-15 16:54:00,28.2,23.7,30.19,North,0,4.9,4.9,83,0.10,,---,0.10,VWS V14.01,2013-01-15 22:54:00,
2013-01-15 16:55:00,28.2,23.7,30.19,North,0,4.9,4.9,83,0.14,,---,0.14,VWS V14.01,2013-01-15 22:55:00,
2013-01-15 16:56:00,28.2,23.7,30.19,North,0,4.9,4.9,83,0.14,,---,0.14,VWS V14.01,2013-01-15 22:56:00,
2013-01-15 16:57:00,28.2,23.7,30.19,North,0,4.9,4.9,83,0.14,,---,0.14,VWS V14.01,2013-01-15 22:57:00,
2013-01-15 16:58:00,28.2,23.7,30.19,NNW,338,4.6,4.6,83,0.14,,---,0.14,VWS V14.01,2013-01-15 22:58:00,
2013-01-15 16:59:00,28.2,23.7,30.19,NNW,338,0.0,4.6,83,0.14,,---,0.14,VWS V14.01,2013-01-15 22:59:00,
2013-01-15 17:00:00,28.2,23.7,30.19,NNW,338,0.0,0.0,83,0.14,,---,0.14,VWS V14.01,2013-01-15 23:00:00,
2013-01-15 17:01:00,28.2,23.7,30.19,North,0,1.1,1.1,83,0.14,,---,0.14,VWS V14.01,2013-01-15 23:01:00,
2013-01-15 17:02:00,28.2,23.7,30.19,North,0,1.1,1.1,83,0.14,,---,0.14,VWS V14.01,2013-01-15 23:02:00,
2013-01-15 17:03:00,28.2,23.7,30.19,North,0,0.0,1.1,83,0.14,,---,0.14,VWS V14.01,2013-01-15 23:03:00,
2013-01-15 17:04:00,28.2,23.7,30.20,North,0,0.0,0.0,83,0.14,,---,0.14,VWS V14.01,2013-01-15 23:04:00,
2013-01-15 17:05:00,28.2,23.7,30.20,North,0,0.0,0.0,83,0.14,,---,0.14,VWS V14.01,2013-01-15 23:05:00,
2013-01-15 17:06:00,28.2,23.7,30.20,North,0,0.0,0.0,83,0.14,,---,0.14,VWS V14.01,2013-01-15 23:06:00,
2013-01-15 17:07:00,28.2,23.7,30.20,North,0,0.0,0.0,83,0.14,,---,0.14,VWS V14.01,2013-01-15 23:07:00,
2013-01-15 17:08:00,28.2,23.7,30.20,North,0,1.3,1.3,83,0.14,,---,0.14,VWS V14.01,2013-01-15 23:08:00,
2013-01-15 17:09:00,28.2,23.7,30.20,North,0,1.3,1.3,83,0.14,,---,0.14,VWS V14.01,2013-01-15 23:09:00,
2013-01-15 17:10:00,28.2,23.7,30.20,North,0,1.3,1.3,83,0.14,,---,0.14,VWS V14.01,2013-01-15 23:10:00,
2013-01-15 17:11:00,28.2,23.7,30.20,North,0,1.3,1.3,83,0.14,,---,0.14,VWS V14.01,2013-01-15 23:11:00,
2013-01-15 17:12:00,28.2,23.7,30.20,North,0,1.3,1.3,83,0.14,,---,0.14,VWS V14.01,2013-01-15 23:12:00,
2013-01-15 17:13:00,28.2,23.7,30.20,North,0,0.0,0.0,83,0.04,,---,0.14,VWS V14.01,2013-01-15 23:13:00,
2013-01-15 17:14:00,28.2,23.7,30.20,NNW,338,0.0,0.0,83,0.04,,---,0.14,VWS V14.01,2013-01-15 23:14:00,
2013-01-15 17:15:00,28.2,23.7,30.20,NNW,338,0.0,0.0,83,0.04,,---,0.14,VWS V14.01,2013-01-15 23:15:00,
2013-01-15 17:16:00,28.2,23.7,30.20,North,0,0.0,0.0,83,0.04,,---,0.14,VWS V14.01,2013-01-15 23:16:00,
2013-01-15 17:17:00,28.2,23.7,30.20,North,0,0.0,0.0,83,0.04,,---,0.14,VWS V14.01,2013-01-15 23:17:00,
2013-01-15 17:18:00,28.2,23.7,30.21,NNW,338,4.2,4.2,83,0.04,,---,0.14,VWS V14.01,2013-01-15 23:18:00,
2013-01-15 17:19:00,28.2,23.7,30.21,NNW,338,4.2,4.2,83,0.04,,---,0.14,VWS V14.01,2013-01-15 23:19:00,
2013-01-15 17:20:00,28.2,23.7,30.21,North,0,1.3,4.2,83,0.04,,---,0.14,VWS V14.01,2013-01-15 23:20:00,
2013-01-15 17:21:00,28.2,23.7,30.20,North,0,1.3,1.3,83,0.04,,---,0.14,VWS V14.01,2013-01-15 23:21:00,
2013-01-15 17:22:00,28.2,23.7,30.20,North,0,1.3,1.3,83,0.04,,---,0.14,VWS V14.01,2013-01-15 23:22:00,
2013-01-15 17:23:00,28.2,23.7,30.20,North,0,0.0,1.3,83,0.04,,---,0.14,VWS V14.01,2013-01-15 23:23:00,
2013-01-15 17:24:00,28.2,23.7,30.20,North,0,0.0,0.0,83,0.04,,---,0.14,VWS V14.01,2013-01-15 23:24:00,
2013-01-15 17:25:00,28.2,23.7,30.20,North,0,0.0,0.0,83,0.04,,---,0.14,VWS V14.01,2013-01-15 23:25:00,
2013-01-15 17:26:00,28.2,23.7,30.20,North,0,0.0,0.0,83,0.04,,---,0.14,VWS V14.01,2013-01-15 23:26:00,
2013-01-15 17:27:00,28.2,23.7,30.20,North,0,0.0,0.0,83,0.04,,---,0.14,VWS V14.01,2013-01-15 23:27:00,
2013-01-15 17:28:00,28.2,23.7,30.20,North,0,0.0,0.0,83,0.04,,---,0.14,VWS V14.01,2013-01-15 23:28:00,
2013-01-15 17:29:00,28.2,23.7,30.20,NNE,22,0.0,0.0,83,0.04,,---,0.14,VWS V14.01,2013-01-15 23:29:00,
2013-01-15 17:30:00,28.2,23.7,30.20,NNE,22,0.0,0.0,83,0.04,,---,0.14,VWS V14.01,2013-01-15 23:30:00,
2013-01-15 17:31:00,28.2,23.7,30.20,North,0,0.0,0.0,83,0.04,,---,0.14,VWS V14.01,2013-01-15 23:31:00,
2013-01-15 17:32:00,28.2,23.7,30.20,North,0,0.0,0.0,83,0.04,,---,0.14,VWS V14.01,2013-01-15 23:32:00,
2013-01-15 17:33:00,28.2,23.7,30.20,North,0,0.0,0.0,83,0.04,,---,0.14,VWS V14.01,2013-01-15 23:33:00,
2013-01-15 17:34:00,28.2,23.7,30.20,North,0,0.0,0.0,83,0.04,,---,0.14,VWS V14.01,2013-01-15 23:34:00,
2013-01-15 17:35:00,28.2,23.7,30.20,North,0,0.0,0.0,83,0.04,,---,0.14,VWS V14.01,2013-01-15 23:35:00,
2013-01-15 17:36:00,28.2,23.7,30.20,North,0,0.0,0.0,83,0.04,,---,0.14,VWS V14.01,2013-01-15 23:36:00,
2013-01-15 17:37:00,28.2,23.7,30.20,North,0,0.0,0.0,83,0.04,,---,0.14,VWS V14.01,2013-01-15 23:37:00,
2013-01-15 17:38:00,28.2,23.7,30.20,North,0,0.0,0.0,83,0.04,,---,0.14,VWS V14.01,2013-01-15 23:38:00,
2013-01-15 17:39:00,28.2,23.7,30.20,North,0,0.0,0.0,83,0.04,,---,0.14,VWS V14.01,2013-01-15 23:39:00,
2013-01-15 17:40:00,28.2,23.7,30.20,North,0,6.0,6.0,83,0.04,,---,0.14,VWS V14.01,2013-01-15 23:40:00,
2013-01-15 17:41:00,28.2,23.7,30.20,North,0,6.0,6.0,83,0.04,,---,0.14,VWS V14.01,2013-01-15 23:41:00,
2013-01-15 17:42:00,28.2,23.7,30.20,North,0,6.0,6.0,83,0.04,,---,0.14,VWS V14.01,2013-01-15 23:42:00,
2013-01-15 17:43:00,28.2,23.7,30.20,North,0,0.0,0.0,83,0.04,,---,0.14,VWS V14.01,2013-01-15 23:43:00,
2013-01-15 17:44:00,28.2,23.7,30.20,NNW,338,0.8,0.8,83,0.04,,---,0.14,VWS V14.01,2013-01-15 23:44:00,
2013-01-15 17:45:00,28.2,23.7,30.20,NNW,338,0.8,0.8,83,0.04,,---,0.14,VWS V14.01,2013-01-15 23:45:00,
2013-01-15 17:46:00,28.2,24.0,30.20,North,0,0.0,0.8,84,0.04,,---,0.14,VWS V14.01,2013-01-15 23:46:00,
2013-01-15 17:47:00,28.2,24.0,30.20,North,0,0.0,0.0,84,0.04,,---,0.14,VWS V14.01,2013-01-15 23:47:00,
2013-01-15 17:48:00,28.2,24.0,30.20,North,0,0.0,0.0,84,0.04,,---,0.14,VWS V14.01,2013-01-15 23:48:00,
2013-01-15 17:49:00,28.2,24.0,30.20,North,0,0.0,0.0,84,0.04,,---,0.14,VWS V14.01,2013-01-15 23:49:00,
2013-01-15 17:50:00,28.2,24.0,30.20,North,0,3.3,3.3,84,0.04,,---,0.14,VWS V14.01,2013-01-15 23:50:00,
2013-01-15 17:51:00,28.2,24.0,30.20,North,0,3.3,3.3,84,0.04,,---,0.14,VWS V14.01,2013-01-15 23:51:00,
2013-01-15 17:52:00,28.2,24.0,30.20,North,0,3.3,3.3,84,0.04,,---,0.14,VWS V14.01,2013-01-15 23:52:00,
2013-01-15 17:53:00,28.2,24.0,30.20,North,0,0.0,3.3,84,0.04,,---,0.14,VWS V14.01,2013-01-15 23:53:00,
2013-01-15 17:54:00,28.2,24.0,30.20,North,0,0.0,0.0,84,0.04,,---,0.14,VWS V14.01,2013-01-15 23:54:00,
2013-01-15 17:55:00,28.2,24.0,30.20,North,0,0.0,0.0,84,0.04,,---,0.14,VWS V14.01,2013-01-15 23:55:00,
2013-01-15 17:56:00,28.2,24.0,30.20,North,0,0.0,0.0,84,0.00,,---,0.14,VWS V14.01,2013-01-15 23:56:00,
2013-01-15 17:57:00,28.2,24.0,30.20,North,0,0.0,0.0,84,0.00,,---,0.14,VWS V14.01,2013-01-15 23:57:00,
2013-01-15 17:58:00,28.2,24.0,30.20,North,0,0.0,0.0,84,0.00,,---,0.14,VWS V14.01,2013-01-15 23:58:00,
2013-01-15 17:59:00,28.2,24.0,30.20,NNE,22,1.5,1.5,84,0.00,,---,0.14,VWS V14.01,2013-01-15 23:59:00,
2013-01-15 18:00:00,28.2,24.0,30.20,NNE,22,1.5,1.5,84,0.00,,---,0.14,VWS V14.01,2013-01-16 00:00:00,
2013-01-15 18:01:00,28.2,24.0,30.21,NNW,338,0.0,1.5,84,0.00,,---,0.14,VWS V14.01,2013-01-16 00:01:00,
2013-01-15 18:02:00,28.2,24.0,30.21,NNW,338,0.0,0.0,84,0.00,,---,0.14,VWS V14.01,2013-01-16 00:02:00,
2013-01-15 18:03:00,28.2,24.0,30.22,NNW,338,0.0,0.0,84,0.00,,---,0.14,VWS V14.01,2013-01-16 00:03:00,
2013-01-15 18:04:00,28.2,24.0,30.22,NNW,338,0.0,0.0,84,0.00,,---,0.14,VWS V14.01,2013-01-16 00:04:00,
2013-01-15 18:05:00,28.2,24.0,30.21,North,0,0.0,0.0,84,0.00,,---,0.14,VWS V14.01,2013-01-16 00:05:00,
2013-01-15 18:06:00,28.2,24.0,30.22,North,0,0.0,0.0,84,0.00,,---,0.14,VWS V14.01,2013-01-16 00:06:00,
2013-01-15 18:07:00,28.2,24.0,30.22,North,0,0.0,0.0,84,0.00,,---,0.14,VWS V14.01,2013-01-16 00:07:00,
2013-01-15 18:08:00,28.2,24.0,30.22,North,0,0.0,0.0,84,0.00,,---,0.14,VWS V14.01,2013-01-16 00:08:00,
2013-01-15 18:09:00,28.2,24.0,30.22,North,0,0.0,0.0,84,0.00,,---,0.14,VWS V14.01,2013-01-16 00:09:00,
2013-01-15 18:10:00,28.2,24.0,30.22,North,0,0.0,0.0,84,0.00,,---,0.14,VWS V14.01,2013-01-16 00:10:00,
2013-01-15 18:11:00,28.2,24.0,30.22,North,0,0.0,0.0,84,0.00,,---,0.14,VWS V14.01,2013-01-16 00:11:00,
2013-01-15 18:12:00,28.2,24.0,30.22,North,0,0.0,0.0,84,0.00,,---,0.14,VWS V14.01,2013-01-16 00:12:00,
2013-01-15 18:13:00,28.2,24.0,30.22,NNW,338,0.0,0.0,84,0.00,,---,0.14,VWS V14.01,2013-01-16 00:13:00,
2013-01-15 18:14:00,28.2,24.0,30.21,North,0,0.0,0.0,84,0.00,,---,0.14,VWS V14.01,2013-01-16 00:14:00,
2013-01-15 18:15:00,28.2,24.0,30.21,North,0,0.0,0.0,84,0.00,,---,0.14,VWS V14.01,2013-01-16 00:15:00,
2013-01-15 18:16:00,28.2,24.0,30.21,North,0,0.0,0.0,84,0.00,,---,0.14,VWS V14.01,2013-01-16 00:16:00,
2013-01-15 18:17:00,28.2,24.0,30.21,North,0,0.0,0.0,84,0.00,,---,0.14,VWS V14.01,2013-01-16 00:17:00,
2013-01-15 18:18:00,28.2,24.0,30.20,NNW,338,4.0,4.0,84,0.00,,---,0.14,VWS V14.01,2013-01-16 00:18:00,
2013-01-15 18:19:00,28.2,24.0,30.20,NNW,338,4.0,4.0,84,0.00,,---,0.14,VWS V14.01,2013-01-16 00:19:00,
2013-01-15 18:20:00,28.2,24.0,30.20,North,0,5.3,5.3,84,0.00,,---,0.14,VWS V14.01,2013-01-16 00:20:00,
2013-01-15 18:21:00,28.2,24.0,30.20,North,0,5.3,5.3,84,0.00,,---,0.14,VWS V14.01,2013-01-16 00:21:00,
2013-01-15 18:22:00,28.2,24.0,30.20,North,0,5.3,5.3,84,0.00,,---,0.14,VWS V14.01,2013-01-16 00:22:00,
2013-01-15 18:23:00,28.2,24.0,30.21,NNW,338,0.0,5.3,84,0.00,,---,0.14,VWS V14.01,2013-01-16 00:23:00,
2013-01-15 18:24:00,28.2,24.0,30.21,NNW,338,0.0,0.0,84,0.00,,---,0.14,VWS V14.01,2013-01-16 00:24:00,
2013-01-15 18:25:00,28.2,24.0,30.21,NNW,338,0.0,0.0,84,0.00,,---,0.14,VWS V14.01,2013-01-16 00:25:00,
2013-01-15 18:26:00,28.2,24.0,30.21,NNW,338,0.0,0.0,84,0.00,,---,0.14,VWS V14.01,2013-01-16 00:26:00,
2013-01-15 18:27:00,28.2,24.0,30.21,NNW,338,0.0,0.0,84,0.00,,---,0.14,VWS V14.01,2013-01-16 00:27:00,
2013-01-15 18:28:00,28.2,24.0,30.21,North,0,3.1,3.1,84,0.00,,---,0.14,VWS V14.01,2013-01-16 00:28:00,
2013-01-15 18:29:00,28.2,24.0,30.21,North,0,4.0,4.0,84,0.00,,---,0.14,VWS V14.01,2013-01-16 00:29:00,
2013-01-15 18:30:00,28.2,24.0,30.21,North,0,4.0,4.0,84,0.00,,---,0.14,VWS V14.01,2013-01-16 00:30:00,
2013-01-15 18:31:00,28.2,24.0,30.21,North,0,7.1,7.1,84,0.00,,---,0.14,VWS V14.01,2013-01-16 00:31:00,
2013-01-15 18:32:00,28.2,24.0,30.21,North,0,7.1,7.1,84,0.00,,---,0.14,VWS V14.01,2013-01-16 00:32:00,
2013-01-15 18:33:00,28.2,24.0,30.20,North,0,0.0,7.1,84,0.00,,---,0.14,VWS V14.01,2013-01-16 00:33:00,
2013-01-15 18:34:00,28.2,24.0,30.20,North,0,0.0,0.0,84,0.00,,---,0.14,VWS V14.01,2013-01-16 00:34:00,
2013-01-15 18:35:00,28.2,24.0,30.20,NNW,338,0.0,0.0,84,0.00,,---,0.14,VWS V14.01,2013-01-16 00:35:00,
2013-01-15 18:36:00,28.2,24.0,30.20,NNW,338,0.0,0.0,84,0.00,,---,0.14,VWS V14.01,2013-01-16 00:36:00,
2013-01-15 18:37:00,28.2,24.0,30.20,NNW,338,0.0,0.0,84,0.00,,---,0.14,VWS V14.01,2013-01-16 00:37:00,
2013-01-15 18:38:00,28.2,24.3,30.21,North,0,3.5,3.5,85,0.00,,---,0.14,VWS V14.01,2013-01-16 00:38:00,
2013-01-15 18:39:00,28.2,24.3,30.21,North,0,3.5,3.5,85,0.00,,---,0.14,VWS V14.01,2013-01-16 00:39:00,
2013-01-15 18:40:00,28.2,24.3,30.20,North,0,0.0,3.5,85,0.00,,---,0.14,VWS V14.01,2013-01-16 00:40:00,
2013-01-15 18:41:00,28.2,24.3,30.20,North,0,0.0,0.0,85,0.00,,---,0.14,VWS V14.01,2013-01-16 00:41:00,
2013-01-15 18:42:00,28.2,24.3,30.20,North,0,0.0,0.0,85,0.00,,---,0.14,VWS V14.01,2013-01-16 00:42:00,
2013-01-15 18:43:00,28.2,24.3,30.20,North,0,0.0,0.0,85,0.00,,---,0.14,VWS V14.01,2013-01-16 00:43:00,
2013-01-15 18:44:00,28.2,24.3,30.20,NNW,338,0.0,0.0,85,0.00,,---,0.14,VWS V14.01,2013-01-16 00:44:00,
2013-01-15 18:45:00,28.2,24.3,30.20,NNW,338,0.0,0.0,85,0.00,,---,0.14,VWS V14.01,2013-01-16 00:45:00,
2013-01-15 18:46:00,28.2,24.3,30.20,NNW,338,0.0,0.0,85,0.00,,---,0.14,VWS V14.01,2013-01-16 00:46:00,
2013-01-15 18:47:00,28.2,24.3,30.20,NNW,338,0.0,0.0,85,0.00,,---,0.14,VWS V14.01,2013-01-16 00:47:00,
2013-01-15 18:48:00,28.2,24.3,30.20,NNW,338,0.0,0.0,85,0.00,,---,0.14,VWS V14.01,2013-01-16 00:48:00,
2013-01-15 18:49:00,28.2,24.3,30.21,NNW,338,0.0,0.0,85,0.00,,---,0.14,VWS V14.01,2013-01-16 00:49:00,
2013-01-15 18:50:00,28.2,24.3,30.21,NNW,338,0.0,0.0,85,0.00,,---,0.14,VWS V14.01,2013-01-16 00:50:00,
2013-01-15 18:51:00,28.2,24.3,30.21,NNW,338,0.0,0.0,85,0.00,,---,0.14,VWS V14.01,2013-01-16 00:51:00,
2013-01-15 18:52:00,28.2,24.3,30.21,NNW,338,0.0,0.0,85,0.00,,---,0.14,VWS V14.01,2013-01-16 00:52:00,
2013-01-15 18:53:00,28.2,24.3,30.21,North,0,2.0,2.0,85,0.00,,---,0.14,VWS V14.01,2013-01-16 00:53:00,
2013-01-15 18:54:00,28.2,24.3,30.20,North,0,2.0,2.0,85,0.00,,---,0.14,VWS V14.01,2013-01-16 00:54:00,
2013-01-15 18:55:00,28.2,24.3,30.21,North,0,4.4,4.4,85,0.00,,---,0.14,VWS V14.01,2013-01-16 00:55:00,
2013-01-15 18:56:00,28.2,24.3,30.21,North,0,4.4,4.4,85,0.00,,---,0.14,VWS V14.01,2013-01-16 00:56:00,
2013-01-15 18:57:00,28.2,24.3,30.21,North,0,4.4,4.4,85,0.00,,---,0.14,VWS V14.01,2013-01-16 00:57:00,
2013-01-15 18:58:00,28.4,24.5,30.21,North,0,2.9,2.9,85,0.00,,---,0.14,VWS V14.01,2013-01-16 00:58:00,
2013-01-15 18:59:00,28.5,24.6,30.21,North,0,0.0,2.9,85,0.00,,---,0.14,VWS V14.01,2013-01-16 00:59:00,
2013-01-15 19:00:00,28.5,24.6,30.21,North,0,0.0,0.0,85,0.00,,---,0.14,VWS V14.01,2013-01-16 01:00:00,
2013-01-15 19:01:00,28.4,24.5,30.21,North,0,0.0,0.0,85,0.00,,---,0.14,VWS V14.01,2013-01-16 01:01:00,
2013-01-15 19:02:00,28.4,24.5,30.21,North,0,0.0,0.0,85,0.00,,---,0.14,VWS V14.01,2013-01-16 01:02:00,
2013-01-15 19:03:00,28.5,24.6,30.20,NNW,338,0.0,0.0,85,0.00,,---,0.14,VWS V14.01,2013-01-16 01:03:00,
2013-01-15 19:04:00,28.5,24.6,30.20,NNW,338,0.0,0.0,85,0.00,,---,0.14,VWS V14.01,2013-01-16 01:04:00,
2013-01-15 19:05:00,28.5,24.6,30.20,North,0,0.0,0.0,85,0.00,,---,0.14,VWS V14.01,2013-01-16 01:05:00,
2013-01-15 19:06:00,28.5,24.6,30.20,North,0,0.0,0.0,85,0.00,,---,0.14,VWS V14.01,2013-01-16 01:06:00,
2013-01-15 19:07:00,28.5,24.6,30.20,North,0,0.0,0.0,85,0.00,,---,0.14,VWS V14.01,2013-01-16 01:07:00,
2013-01-15 19:08:00,28.5,24.6,30.20,North,0,0.0,0.0,85,0.00,,---,0.14,VWS V14.01,2013-01-16 01:08:00,
2013-01-15 19:09:00,28.5,24.6,30.20,North,0,0.0,0.0,85,0.00,,---,0.14,VWS V14.01,2013-01-16 01:09:00,
2013-01-15 19:10:00,28.5,24.6,30.20,North,0,0.0,0.0,85,0.00,,---,0.14,VWS V14.01,2013-01-16 01:10:00,
2013-01-15 19:11:00,28.5,24.6,30.20,North,0,0.0,0.0,85,0.00,,---,0.14,VWS V14.01,2013-01-16 01:11:00,
2013-01-15 19:12:00,28.5,24.6,30.20,North,0,0.0,0.0,85,0.00,,---,0.14,VWS V14.01,2013-01-16 01:12:00,
2013-01-15 19:13:00,28.5,24.6,30.20,North,0,4.2,4.2,85,0.00,,---,0.14,VWS V14.01,2013-01-16 01:13:00,
2013-01-15 19:14:00,28.5,24.6,30.20,North,0,0.0,4.2,85,0.00,,---,0.14,VWS V14.01,2013-01-16 01:14:00,
2013-01-15 19:15:00,28.5,24.6,30.21,North,0,0.0,0.0,85,0.00,,---,0.14,VWS V14.01,2013-01-16 01:15:00,
2013-01-15 19:16:00,28.5,24.6,30.21,North,0,0.0,0.0,85,0.00,,---,0.14,VWS V14.01,2013-01-16 01:16:00,
2013-01-15 19:17:00,28.5,24.6,30.21,North,0,0.0,0.0,85,0.00,,---,0.14,VWS V14.01,2013-01-16 01:17:00,
2013-01-15 19:18:00,28.5,24.6,30.21,North,0,0.0,0.0,85,0.00,,---,0.14,VWS V14.01,2013-01-16 01:18:00,
2013-01-15 19:19:00,28.5,24.6,30.21,North,0,0.0,0.0,85,0.00,,---,0.14,VWS V14.01,2013-01-16 01:19:00,
2013-01-15 19:20:00,28.5,24.6,30.21,North,0,0.0,0.0,85,0.00,,---,0.14,VWS V14.01,2013-01-16 01:20:00,
2013-01-15 19:21:00,28.5,24.6,30.21,North,0,0.0,0.0,85,0.00,,---,0.14,VWS V14.01,2013-01-16 01:21:00,
2013-01-15 19:22:00,28.5,24.6,30.21,North,0,0.0,0.0,85,0.00,,---,0.14,VWS V14.01,2013-01-16 01:22:00,
2013-01-15 19:23:00,28.5,24.6,30.21,NNW,338,0.0,0.0,85,0.00,,---,0.14,VWS V14.01,2013-01-16 01:23:00,
2013-01-15 19:24:00,28.5,24.6,30.21,NNW,338,0.0,0.0,85,0.00,,---,0.14,VWS V14.01,2013-01-16 01:24:00,
2013-01-15 19:25:00,28.5,24.6,30.21,North,0,0.0,0.0,85,0.00,,---,0.14,VWS V14.01,2013-01-16 01:25:00,
2013-01-15 19:26:00,28.5,24.6,30.21,North,0,0.0,0.0,85,0.00,,---,0.14,VWS V14.01,2013-01-16 01:26:00,
2013-01-15 19:27:00,28.5,24.6,30.21,North,0,0.0,0.0,85,0.00,,---,0.14,VWS V14.01,2013-01-16 01:27:00,
2013-01-15 19:28:00,28.5,24.6,30.21,North,0,0.0,0.0,85,0.00,,---,0.14,VWS V14.01,2013-01-16 01:28:00,
2013-01-15 19:29:00,28.7,24.8,30.21,North,0,0.0,0.0,85,0.00,,---,0.14,VWS V14.01,2013-01-16 01:29:00,
2013-01-15 19:30:00,28.7,24.8,30.21,North,0,0.0,0.0,85,0.00,,---,0.14,VWS V14.01,2013-01-16 01:30:00,
2013-01-15 19:31:00,28.7,24.8,30.21,North,0,4.6,4.6,85,0.00,,---,0.14,VWS V14.01,2013-01-16 01:31:00,
2013-01-15 19:32:00,28.7,24.8,30.21,North,0,4.6,4.6,85,0.00,,---,0.14,VWS V14.01,2013-01-16 01:32:00,
2013-01-15 19:33:00,28.7,24.8,30.21,North,0,0.0,4.6,85,0.00,,---,0.14,VWS V14.01,2013-01-16 01:33:00,
2013-01-15 19:34:00,28.7,24.8,30.21,North,0,0.0,0.0,85,0.00,,---,0.14,VWS V14.01,2013-01-16 01:34:00,
2013-01-15 19:35:00,28.7,24.8,30.20,NNW,338,0.0,0.0,85,0.00,,---,0.14,VWS V14.01,2013-01-16 01:35:00,
2013-01-15 19:36:00,28.7,24.8,30.21,NNW,338,0.0,0.0,85,0.00,,---,0.14,VWS V14.01,2013-01-16 01:36:00,
2013-01-15 19:37:00,28.7,24.8,30.21,NNW,338,0.0,0.0,85,0.00,,---,0.14,VWS V14.01,2013-01-16 01:37:00,
2013-01-15 19:38:00,28.7,24.8,30.21,NNW,338,0.0,0.0,85,0.00,,---,0.14,VWS V14.01,2013-01-16 01:38:00,
2013-01-15 19:39:00,28.7,24.8,30.21,NNW,338,0.0,0.0,85,0.00,,---,0.14,VWS V14.01,2013-01-16 01:39:00,
2013-01-15 19:40:00,28.7,24.8,30.21,NNW,338,0.0,0.0,85,0.00,,---,0.14,VWS V14.01,2013-01-16 01:40:00,
2013-01-15 19:41:00,28.7,24.8,30.21,NNW,338,0.0,0.0,85,0.00,,---,0.14,VWS V14.01,2013-01-16 01:41:00,
2013-01-15 19:42:00,28.7,24.8,30.21,NNW,338,0.0,0.0,85,0.00,,---,0.14,VWS V14.01,2013-01-16 01:42:00,
2013-01-15 19:43:00,28.9,25.0,30.21,North,0,0.0,0.0,85,0.00,,---,0.14,VWS V14.01,2013-01-16 01:43:00,
2013-01-15 19:44:00,28.9,25.0,30.21,NNW,338,4.0,4.0,85,0.00,,---,0.14,VWS V14.01,2013-01-16 01:44:00,
2013-01-15 19:45:00,28.9,25.0,30.21,NNW,338,4.0,4.0,85,0.00,,---,0.14,VWS V14.01,2013-01-16 01:45:00,
2013-01-15 19:46:00,28.9,25.0,30.21,North,0,7.1,7.1,85,0.00,,---,0.14,VWS V14.01,2013-01-16 01:46:00,
2013-01-15 19:47:00,28.9,25.0,30.21,North,0,7.1,7.1,85,0.00,,---,0.14,VWS V14.01,2013-01-16 01:47:00,
2013-01-15 19:48:00,28.9,25.0,30.21,North,0,5.5,7.1,85,0.00,,---,0.14,VWS V14.01,2013-01-16 01:48:00,
2013-01-15 19:49:00,28.9,25.0,30.21,North,0,5.5,5.5,85,0.00,,---,0.14,VWS V14.01,2013-01-16 01:49:00,
2013-01-15 19:50:00,28.9,25.0,30.21,NNW,338,0.0,5.5,85,0.00,,---,0.14,VWS V14.01,2013-01-16 01:50:00,
2013-01-15 19:51:00,28.9,25.0,30.21,NNW,338,0.0,0.0,85,0.00,,---,0.14,VWS V14.01,2013-01-16 01:51:00,
2013-01-15 19:52:00,28.9,25.0,30.21,NNW,338,0.0,0.0,85,0.00,,---,0.14,VWS V14.01,2013-01-16 01:52:00,
2013-01-15 19:53:00,28.9,25.0,30.21,NNW,338,4.2,4.2,85,0.00,,---,0.14,VWS V14.01,2013-01-16 01:53:00,
2013-01-15 19:54:00,28.9,25.0,30.21,NNW,338,4.2,4.2,85,0.00,,---,0.14,VWS V14.01,2013-01-16 01:54:00,
2013-01-15 19:55:00,28.9,25.0,30.20,North,0,0.0,4.2,85,0.00,,---,0.14,VWS V14.01,2013-01-16 01:55:00,
2013-01-15 19:56:00,28.9,25.0,30.20,North,0,0.0,0.0,85,0.00,,---,0.14,VWS V14.01,2013-01-16 01:56:00,
2013-01-15 19:57:00,28.9,25.0,30.20,North,0,0.0,0.0,85,0.00,,---,0.14,VWS V14.01,2013-01-16 01:57:00,
2013-01-15 19:58:00,28.9,25.0,30.20,NNW,338,1.1,1.1,85,0.00,,---,0.14,VWS V14.01,2013-01-16 01:58:00,
2013-01-15 19:59:00,28.9,25.0,30.20,North,0,6.4,6.4,85,0.00,,---,0.14,VWS V14.01,2013-01-16 01:59:00,
2013-01-15 20:00:00,28.9,25.0,30.20,North,0,6.4,6.4,85,0.00,,---,0.14,VWS V14.01,2013-01-16 02:00:00,
2013-01-15 20:01:00,29.1,25.2,30.20,North,0,6.4,6.4,85,0.00,,---,0.14,VWS V14.01,2013-01-16 02:01:00,
2013-01-15 20:02:00,29.1,25.2,30.20,North,0,6.4,6.4,85,0.00,,---,0.14,VWS V14.01,2013-01-16 02:02:00,
2013-01-15 20:03:00,29.1,25.2,30.20,NNE,22,0.0,6.4,85,0.00,,---,0.14,VWS V14.01,2013-01-16 02:03:00,
2013-01-15 20:04:00,29.1,25.2,30.20,NNE,22,0.0,0.0,85,0.00,,---,0.14,VWS V14.01,2013-01-16 02:04:00,
2013-01-15 20:05:00,29.1,25.2,30.20,North,0,1.3,1.3,85,0.00,,---,0.14,VWS V14.01,2013-01-16 02:05:00,
2013-01-15 20:06:00,29.1,25.2,30.20,North,0,1.3,1.3,85,0.00,,---,0.14,VWS V14.01,2013-01-16 02:06:00,
2013-01-15 20:07:00,29.1,25.2,30.20,North,0,1.3,1.3,85,0.00,,---,0.14,VWS V14.01,2013-01-16 02:07:00,
2013-01-15 20:08:00,29.1,25.2,30.20,NNW,338,3.8,3.8,85,0.00,,---,0.14,VWS V14.01,2013-01-16 02:08:00,
2013-01-15 20:09:00,29.1,25.2,30.21,NNW,338,3.8,3.8,85,0.00,,---,0.14,VWS V14.01,2013-01-16 02:09:00,
2013-01-15 20:10:00,29.1,25.2,30.21,NNW,338,3.8,3.8,85,0.00,,---,0.14,VWS V14.01,2013-01-16 02:10:00,
2013-01-15 20:11:00,29.1,25.2,30.20,NNW,338,3.8,3.8,85,0.00,,---,0.14,VWS V14.01,2013-01-16 02:11:00,
2013-01-15 20:12:00,29.1,25.2,30.20,NNW,338,3.8,3.8,85,0.00,,---,0.14,VWS V14.01,2013-01-16 02:12:00,
2013-01-15 20:13:00,29.1,25.2,30.20,North,0,7.6,7.6,85,0.00,,---,0.14,VWS V14.01,2013-01-16 02:13:00,
2013-01-15 20:14:00,29.1,25.2,30.21,North,0,7.6,7.6,85,0.00,,---,0.14,VWS V14.01,2013-01-16 02:14:00,
2013-01-15 20:15:00,29.1,25.2,30.21,North,0,7.6,7.6,85,0.00,,---,0.14,VWS V14.01,2013-01-16 02:15:00,
2013-01-15 20:16:00,29.1,25.2,30.20,North,0,5.1,7.6,85,0.00,,---,0.14,VWS V14.01,2013-01-16 02:16:00,
2013-01-15 20:17:00,29.1,25.2,30.20,North,0,5.1,5.1,85,0.00,,---,0.14,VWS V14.01,2013-01-16 02:17:00,
2013-01-15 20:18:00,29.1,25.2,30.21,North,0,5.1,5.1,85,0.00,,---,0.14,VWS V14.01,2013-01-16 02:18:00,
2013-01-15 20:19:00,29.1,25.2,30.21,North,0,5.1,5.1,85,0.00,,---,0.14,VWS V14.01,2013-01-16 02:19:00,
2013-01-15 20:20:00,29.1,25.2,30.21,NNW,338,0.0,5.1,85,0.00,,---,0.14,VWS V14.01,2013-01-16 02:20:00,
2013-01-15 20:21:00,29.1,25.2,30.21,NNW,338,0.0,0.0,85,0.00,,---,0.14,VWS V14.01,2013-01-16 02:21:00,
2013-01-15 20:22:00,29.1,25.2,30.21,NNW,338,0.0,0.0,85,0.00,,---,0.14,VWS V14.01,2013-01-16 02:22:00,
2013-01-15 20:23:00,29.1,25.2,30.21,NNW,338,0.0,0.0,85,0.00,,---,0.14,VWS V14.01,2013-01-16 02:23:00,
2013-01-15 20:24:00,29.1,25.2,30.21,NNW,338,0.0,0.0,85,0.00,,---,0.14,VWS V14.01,2013-01-16 02:24:00,
2013-01-15 20:25:00,29.1,25.2,30.22,North,0,4.4,4.4,85,0.00,,---,0.14,VWS V14.01,2013-01-16 02:25:00,
2013-01-15 20:26:00,29.1,25.2,30.22,North,0,4.4,4.4,85,0.00,,---,0.14,VWS V14.01,2013-01-16 02:26:00,
2013-01-15 20:27:00,29.1,25.2,30.22,North,0,4.4,4.4,85,0.00,,---,0.14,VWS V14.01,2013-01-16 02:27:00,
2013-01-15 20:28:00,29.1,25.2,30.21,North,0,4.4,4.4,85,0.00,,---,0.14,VWS V14.01,2013-01-16 02:28:00,
2013-01-15 20:29:00,29.3,25.4,30.21,North,0,1.5,4.4,85,0.00,,---,0.14,VWS V14.01,2013-01-16 02:29:00,
2013-01-15 20:30:00,29.3,25.4,30.21,North,0,1.5,1.5,85,0.00,,---,0.14,VWS V14.01,2013-01-16 02:30:00,
2013-01-15 20:31:00,29.1,25.2,30.21,North,0,1.5,1.5,85,0.00,,---,0.14,VWS V14.01,2013-01-16 02:31:00,
2013-01-15 20:32:00,29.1,25.2,30.21,North,0,1.5,1.5,85,0.00,,---,0.14,VWS V14.01,2013-01-16 02:32:00,
2013-01-15 20:33:00,29.3,25.4,30.21,North,0,4.6,4.6,85,0.00,,---,0.14,VWS V14.01,2013-01-16 02:33:00,
2013-01-15 20:34:00,29.3,25.4,30.21,North,0,4.6,4.6,85,0.00,,---,0.14,VWS V14.01,2013-01-16 02:34:00,
2013-01-15 20:35:00,29.3,25.4,30.21,North,0,4.6,4.6,85,0.00,,---,0.14,VWS V14.01,2013-01-16 02:35:00,
2013-01-15 20:36:00,29.3,25.4,30.22,North,0,4.6,4.6,85,0.00,,---,0.14,VWS V14.01,2013-01-16 02:36:00,
2013-01-15 20:37:00,29.3,25.4,30.22,North,0,0.0,4.6,85,0.00,,---,0.14,VWS V14.01,2013-01-16 02:37:00,
2013-01-15 20:38:00,29.3,25.4,30.22,North,0,4.6,4.6,85,0.00,,---,0.14,VWS V14.01,2013-01-16 02:38:00,
2013-01-15 20:39:00,29.3,25.4,30.22,North,0,0.0,0.0,85,0.00,,---,0.14,VWS V14.01,2013-01-16 02:39:00,
2013-01-15 20:40:00,29.3,25.4,30.22,North,0,0.0,0.0,85,0.00,,---,0.14,VWS V14.01,2013-01-16 02:40:00,
2013-01-15 20:41:00,29.3,25.4,30.22,North,0,0.0,0.0,85,0.00,,---,0.14,VWS V14.01,2013-01-16 02:41:00,
2013-01-15 20:42:00,29.3,25.4,30.22,North,0,5.8,5.8,85,0.00,,---,0.14,VWS V14.01,2013-01-16 02:42:00,
2013-01-15 20:43:00,29.3,25.4,30.22,North,0,5.8,5.8,85,0.00,,---,0.14,VWS V14.01,2013-01-16 02:43:00,
2013-01-15 20:44:00,29.3,25.1,30.22,North,0,5.8,5.8,84,0.00,,---,0.14,VWS V14.01,2013-01-16 02:44:00,
2013-01-15 20:45:00,29.3,25.1,30.22,North,0,5.8,5.8,84,0.00,,---,0.14,VWS V14.01,2013-01-16 02:45:00,
2013-01-15 20:46:00,29.3,25.1,30.21,North,0,3.3,5.8,84,0.00,,---,0.14,VWS V14.01,2013-01-16 02:46:00,
2013-01-15 20:47:00,29.3,25.1,30.21,North,0,3.3,3.3,84,0.00,,---,0.14,VWS V14.01,2013-01-16 02:47:00,
2013-01-15 20:48:00,29.3,25.1,30.21,North,0,3.3,3.3,84,0.00,,---,0.14,VWS V14.01,2013-01-16 02:48:00,
2013-01-15 20:49:00,29.3,25.1,30.20,North,0,0.8,0.8,84,0.00,,---,0.14,VWS V14.01,2013-01-16 02:49:00,
2013-01-15 20:50:00,29.3,25.1,30.20,North,0,0.0,0.8,84,0.00,,---,0.14,VWS V14.01,2013-01-16 02:50:00,
2013-01-15 20:51:00,29.3,25.1,30.20,North,0,0.0,0.0,84,0.00,,---,0.14,VWS V14.01,2013-01-16 02:51:00,
2013-01-15 20:52:00,29.3,25.1,30.20,North,0,0.0,0.0,84,0.00,,---,0.14,VWS V14.01,2013-01-16 02:52:00,
2013-01-15 20:53:00,29.3,25.1,30.20,North,0,0.0,0.0,84,0.00,,---,0.14,VWS V14.01,2013-01-16 02:53:00,
2013-01-15 20:54:00,29.3,25.1,30.20,North,0,0.0,0.0,84,0.00,,---,0.14,VWS V14.01,2013-01-16 02:54:00,
2013-01-15 20:55:00,29.3,25.1,30.20,North,0,2.9,2.9,84,0.00,,---,0.14,VWS V14.01,2013-01-16 02:55:00,
2013-01-15 20:56:00,29.3,25.1,30.20,North,0,2.9,2.9,84,0.00,,---,0.14,VWS V14.01,2013-01-16 02:56:00,
2013-01-15 20:57:00,29.3,25.1,30.20,North,0,3.1,3.1,84,0.00,,---,0.14,VWS V14.01,2013-01-16 02:57:00,
2013-01-15 20:58:00,29.3,25.1,30.20,North,0,2.9,2.9,84,0.00,,---,0.14,VWS V14.01,2013-01-16 02:58:00,
2013-01-15 20:59:00,29.3,25.1,30.19,North,0,2.6,3.1,84,0.00,,---,0.14,VWS V14.01,2013-01-16 02:59:00,
2013-01-15 21:00:00,29.3,25.1,30.19,North,0,2.6,2.6,84,0.00,,---,0.14,VWS V14.01,2013-01-16 03:00:00,
2013-01-15 21:01:00,29.3,24.8,30.19,North,0,6.2,6.2,83,0.00,,---,0.14,VWS V14.01,2013-01-16 03:01:00,
2013-01-15 21:02:00,29.3,24.8,30.19,North,0,6.2,6.2,83,0.00,,---,0.14,VWS V14.01,2013-01-16 03:02:00,
2013-01-15 21:03:00,29.3,24.8,30.19,North,0,6.2,6.2,83,0.00,,---,0.14,VWS V14.01,2013-01-16 03:03:00,
2013-01-15 21:04:00,29.3,24.8,30.19,NNW,338,0.0,0.0,83,0.00,,---,0.14,VWS V14.01,2013-01-16 03:04:00,
2013-01-15 21:05:00,29.3,24.8,30.19,North,0,4.0,4.0,83,0.00,,---,0.14,VWS V14.01,2013-01-16 03:05:00,
2013-01-15 21:06:00,29.3,24.8,30.19,North,0,4.0,4.0,83,0.00,,---,0.14,VWS V14.01,2013-01-16 03:06:00,
2013-01-15 21:07:00,29.3,24.8,30.19,North,0,7.1,7.1,83,0.00,,---,0.14,VWS V14.01,2013-01-16 03:07:00,
2013-01-15 21:08:00,29.3,24.8,30.19,North,0,4.0,4.0,83,0.00,,---,0.14,VWS V14.01,2013-01-16 03:08:00,
2013-01-15 21:09:00,29.3,24.8,30.18,North,0,7.1,7.1,83,0.00,,---,0.14,VWS V14.01,2013-01-16 03:09:00,
2013-01-15 21:10:00,29.3,24.8,30.19,North,0,6.4,7.1,83,0.00,,---,0.14,VWS V14.01,2013-01-16 03:10:00,
2013-01-15 21:11:00,29.3,24.8,30.19,North,0,6.4,6.4,83,0.00,,---,0.14,VWS V14.01,2013-01-16 03:11:00,
2013-01-15 21:12:00,29.3,24.8,30.19,North,0,6.4,6.4,83,0.00,,---,0.14,VWS V14.01,2013-01-16 03:12:00,
2013-01-15 21:13:00,29.3,24.8,30.19,NNW,338,7.1,7.1,83,0.00,,---,0.14,VWS V14.01,2013-01-16 03:13:00,
2013-01-15 21:14:00,29.3,24.8,30.19,North,0,6.7,7.1,83,0.00,,---,0.14,VWS V14.01,2013-01-16 03:14:00,
2013-01-15 21:15:00,29.3,24.8,30.19,North,0,6.7,6.7,83,0.00,,---,0.14,VWS V14.01,2013-01-16 03:15:00,
2013-01-15 21:16:00,29.3,24.8,30.18,North,0,7.3,7.3,83,0.00,,---,0.14,VWS V14.01,2013-01-16 03:16:00,
2013-01-15 21:17:00,29.3,24.8,30.18,North,0,7.3,7.3,83,0.00,,---,0.14,VWS V14.01,2013-01-16 03:17:00,
2013-01-15 21:18:00,29.3,24.8,30.18,North,0,7.3,7.3,83,0.00,,---,0.14,VWS V14.01,2013-01-16 03:18:00,
2013-01-15 21:19:00,29.3,24.8,30.18,NNW,338,0.0,0.0,83,0.00,,---,0.14,VWS V14.01,2013-01-16 03:19:00,
2013-01-15 21:20:00,29.3,24.8,30.18,North,0,3.5,3.5,83,0.00,,---,0.14,VWS V14.01,2013-01-16 03:20:00,
2013-01-15 21:21:00,29.3,24.8,30.18,North,0,3.5,3.5,83,0.00,,---,0.14,VWS V14.01,2013-01-16 03:21:00,
2013-01-15 21:22:00,29.3,24.8,30.18,North,0,2.0,3.5,83,0.00,,---,0.14,VWS V14.01,2013-01-16 03:22:00,
2013-01-15 21:23:00,29.3,24.8,30.18,North,0,2.0,3.5,83,0.00,,---,0.14,VWS V14.01,2013-01-16 03:23:00,
2013-01-15 21:24:00,29.3,24.8,30.18,North,0,2.0,2.0,83,0.00,,---,0.14,VWS V14.01,2013-01-16 03:24:00,
2013-01-15 21:25:00,29.3,24.5,30.18,NNW,338,0.0,2.0,82,0.00,,---,0.14,VWS V14.01,2013-01-16 03:25:00,
2013-01-15 21:26:00,29.3,24.5,30.18,NNW,338,0.0,0.0,82,0.00,,---,0.14,VWS V14.01,2013-01-16 03:26:00,
2013-01-15 21:27:00,29.3,24.5,30.18,NNW,338,3.5,3.5,82,0.00,,---,0.14,VWS V14.01,2013-01-16 03:27:00,
2013-01-15 21:28:00,29.3,24.5,30.18,NNW,338,3.5,3.5,82,0.00,,---,0.14,VWS V14.01,2013-01-16 03:28:00,
2013-01-15 21:29:00,29.3,24.5,30.18,NNW,338,3.5,3.5,82,0.00,,---,0.14,VWS V14.01,2013-01-16 03:29:00,
2013-01-15 21:30:00,29.3,24.5,30.18,NNW,338,3.5,3.5,82,0.00,,---,0.14,VWS V14.01,2013-01-16 03:30:00,
2013-01-15 21:31:00,29.3,24.5,30.19,NNW,338,6.4,6.4,82,0.00,,---,0.14,VWS V14.01,2013-01-16 03:31:00,
2013-01-15 21:32:00,29.3,24.5,30.19,NNW,338,6.4,6.4,82,0.00,,---,0.14,VWS V14.01,2013-01-16 03:32:00,
2013-01-15 21:33:00,29.3,24.5,30.19,NNW,338,6.4,6.4,82,0.00,,---,0.14,VWS V14.01,2013-01-16 03:33:00,
2013-01-15 21:34:00,29.3,24.5,30.19,North,0,0.0,0.0,82,0.00,,---,0.14,VWS V14.01,2013-01-16 03:34:00,
2013-01-15 21:35:00,29.3,24.5,30.19,North,0,0.0,0.0,82,0.00,,---,0.14,VWS V14.01,2013-01-16 03:35:00,
2013-01-15 21:36:00,29.3,24.5,30.19,North,0,0.0,0.0,82,0.00,,---,0.14,VWS V14.01,2013-01-16 03:36:00,
2013-01-15 21:37:00,29.3,24.5,30.19,North,0,0.0,0.0,82,0.00,,---,0.14,VWS V14.01,2013-01-16 03:37:00,
2013-01-15 21:38:00,29.3,24.5,30.19,North,0,0.0,0.0,82,0.00,,---,0.14,VWS V14.01,2013-01-16 03:38:00,
2013-01-15 21:39:00,29.3,24.5,30.18,NNW,338,6.9,6.9,82,0.00,,---,0.14,VWS V14.01,2013-01-16 03:39:00,
2013-01-15 21:40:00,29.3,24.5,30.18,NNW,338,6.9,6.9,82,0.00,,---,0.14,VWS V14.01,2013-01-16 03:40:00,
2013-01-15 21:41:00,29.3,24.5,30.18,NNW,338,6.9,6.9,82,0.00,,---,0.14,VWS V14.01,2013-01-16 03:41:00,
2013-01-15 21:42:00,29.3,24.5,30.18,North,0,5.1,6.9,82,0.00,,---,0.14,VWS V14.01,2013-01-16 03:42:00,
2013-01-15 21:43:00,29.3,24.5,30.18,North,0,5.1,5.1,82,0.00,,---,0.14,VWS V14.01,2013-01-16 03:43:00,
2013-01-15 21:44:00,29.3,24.5,30.18,NNW,338,1.3,5.1,82,0.00,,---,0.14,VWS V14.01,2013-01-16 03:44:00,
2013-01-15 21:45:00,29.3,24.5,30.18,NNW,338,1.3,1.3,82,0.00,,---,0.14,VWS V14.01,2013-01-16 03:45:00,
2013-01-15 21:46:00,29.3,24.5,30.19,North,0,2.4,2.4,82,0.00,,---,0.14,VWS V14.01,2013-01-16 03:46:00,
2013-01-15 21:47:00,29.3,24.5,30.19,North,0,2.4,2.4,82,0.00,,---,0.14,VWS V14.01,2013-01-16 03:47:00,
2013-01-15 21:48:00,29.3,24.5,30.19,North,0,2.4,2.4,82,0.00,,---,0.14,VWS V14.01,2013-01-16 03:48:00,
2013-01-15 21:49:00,29.3,24.5,30.19,North,0,0.0,0.0,82,0.00,,---,0.14,VWS V14.01,2013-01-16 03:49:00,
2013-01-15 21:50:00,29.3,24.2,30.19,North,0,0.0,0.0,81,0.00,,---,0.14,VWS V14.01,2013-01-16 03:50:00,
2013-01-15 21:51:00,29.3,24.2,30.19,North,0,0.0,0.0,81,0.00,,---,0.14,VWS V14.01,2013-01-16 03:51:00,
2013-01-15 21:52:00,29.3,24.2,30.19,North,0,0.0,0.0,81,0.00,,---,0.14,VWS V14.01,2013-01-16 03:52:00,
2013-01-15 21:53:00,29.3,24.2,30.19,North,0,0.0,0.0,81,0.00,,---,0.14,VWS V14.01,2013-01-16 03:53:00,
2013-01-15 21:54:00,29.4,24.3,30.19,North,0,0.0,0.0,81,0.00,,---,0.14,VWS V14.01,2013-01-16 03:54:00,
2013-01-15 21:55:00,29.4,24.3,30.19,NNW,338,0.0,0.0,81,0.00,,---,0.14,VWS V14.01,2013-01-16 03:55:00,
2013-01-15 21:56:00,29.4,24.3,30.20,NNW,338,0.0,0.0,81,0.00,,---,0.14,VWS V14.01,2013-01-16 03:56:00,
2013-01-15 21:57:00,29.4,24.3,30.20,North,0,0.0,0.0,81,0.00,,---,0.14,VWS V14.01,2013-01-16 03:57:00,
2013-01-15 21:58:00,29.4,24.3,30.20,North,0,0.0,0.0,81,0.00,,---,0.14,VWS V14.01,2013-01-16 03:58:00,
2013-01-15 21:59:00,29.4,24.3,30.20,North,0,6.0,6.0,81,0.00,,---,0.14,VWS V14.01,2013-01-16 03:59:00,
2013-01-15 22:00:00,29.4,24.3,30.20,North,0,6.0,6.0,81,0.00,,---,0.14,VWS V14.01,2013-01-16 04:00:00,
2013-01-15 22:01:00,29.4,24.3,30.20,North,0,0.0,6.0,81,0.00,,---,0.14,VWS V14.01,2013-01-16 04:01:00,
2013-01-15 22:02:00,29.4,24.3,30.20,North,0,0.0,0.0,81,0.00,,---,0.14,VWS V14.01,2013-01-16 04:02:00,
2013-01-15 22:03:00,29.4,24.3,30.20,North,0,0.0,0.0,81,0.00,,---,0.14,VWS V14.01,2013-01-16 04:03:00,
2013-01-15 22:04:00,29.4,24.3,30.20,NNW,338,1.7,1.7,81,0.00,,---,0.14,VWS V14.01,2013-01-16 04:04:00,
2013-01-15 22:05:00,29.4,24.3,30.20,NNW,338,0.0,1.7,81,0.00,,---,0.14,VWS V14.01,2013-01-16 04:05:00,
2013-01-15 22:06:00,29.4,24.3,30.20,NNW,338,0.0,0.0,81,0.00,,---,0.14,VWS V14.01,2013-01-16 04:06:00,
2013-01-15 22:07:00,29.4,24.3,30.20,NNW,338,0.0,0.0,81,0.00,,---,0.14,VWS V14.01,2013-01-16 04:07:00,
2013-01-15 22:08:00,29.4,24.3,30.20,NNW,338,0.0,0.0,81,0.00,,---,0.14,VWS V14.01,2013-01-16 04:08:00,
2013-01-15 22:09:00,29.4,24.3,30.20,NNW,338,0.0,0.0,81,0.00,,---,0.14,VWS V14.01,2013-01-16 04:09:00,
2013-01-15 22:10:00,29.4,24.3,30.20,North,0,0.0,0.0,81,0.00,,---,0.14,VWS V14.01,2013-01-16 04:10:00,
2013-01-15 22:11:00,29.4,24.3,30.20,North,0,0.0,0.0,81,0.00,,---,0.14,VWS V14.01,2013-01-16 04:11:00,
2013-01-15 22:12:00,29.4,24.3,30.20,North,0,0.0,0.0,81,0.00,,---,0.14,VWS V14.01,2013-01-16 04:12:00,
2013-01-15 22:13:00,29.4,24.3,30.20,NNW,338,0.6,0.6,81,0.00,,---,0.14,VWS V14.01,2013-01-16 04:13:00,
2013-01-15 22:14:00,29.4,24.3,30.20,NNW,338,0.0,0.6,81,0.00,,---,0.14,VWS V14.01,2013-01-16 04:14:00,
2013-01-15 22:15:00,29.4,24.3,30.20,NNW,338,0.0,0.0,81,0.00,,---,0.14,VWS V14.01,2013-01-16 04:15:00,
2013-01-15 22:16:00,29.4,24.3,30.20,NNW,338,4.9,4.9,81,0.00,,---,0.14,VWS V14.01,2013-01-16 04:16:00,
2013-01-15 22:17:00,29.4,24.3,30.20,NNW,338,4.9,4.9,81,0.00,,---,0.14,VWS V14.01,2013-01-16 04:17:00,
2013-01-15 22:18:00,29.4,24.3,30.20,NNW,338,6.9,6.9,81,0.00,,---,0.14,VWS V14.01,2013-01-16 04:18:00,
2013-01-15 22:19:00,29.4,24.3,30.20,NNW,338,6.9,6.9,81,0.00,,---,0.14,VWS V14.01,2013-01-16 04:19:00,
2013-01-15 22:20:00,29.4,24.3,30.20,NNW,338,0.0,6.9,81,0.00,,---,0.14,VWS V14.01,2013-01-16 04:20:00,
2013-01-15 22:21:00,29.4,24.3,30.20,NNW,338,0.0,0.0,81,0.00,,---,0.14,VWS V14.01,2013-01-16 04:21:00,
2013-01-15 22:22:00,29.4,24.3,30.20,NNW,338,0.0,0.0,81,0.00,,---,0.14,VWS V14.01,2013-01-16 04:22:00,
2013-01-15 22:23:00,29.4,24.3,30.19,North,0,4.0,4.0,81,0.00,,---,0.14,VWS V14.01,2013-01-16 04:23:00,
2013-01-15 22:24:00,29.4,24.3,30.19,North,0,4.0,4.0,81,0.00,,---,0.14,VWS V14.01,2013-01-16 04:24:00,
2013-01-15 22:25:00,29.4,24.3,30.20,North,0,7.1,7.1,81,0.00,,---,0.14,VWS V14.01,2013-01-16 04:25:00,
2013-01-15 22:26:00,29.4,24.3,30.20,North,0,7.1,7.1,81,0.00,,---,0.14,VWS V14.01,2013-01-16 04:26:00,
2013-01-15 22:27:00,29.4,24.3,30.20,North,0,7.1,7.1,81,0.00,,---,0.14,VWS V14.01,2013-01-16 04:27:00,
2013-01-15 22:28:00,29.4,24.3,30.20,North,0,2.2,2.2,81,0.00,,---,0.14,VWS V14.01,2013-01-16 04:28:00,
2013-01-15 22:29:00,29.4,24.3,30.20,NNW,338,4.4,4.4,81,0.00,,---,0.14,VWS V14.01,2013-01-16 04:29:00,
2013-01-15 22:30:00,29.4,24.3,30.20,NNW,338,4.4,4.4,81,0.00,,---,0.14,VWS V14.01,2013-01-16 04:30:00,
2013-01-15 22:31:00,29.4,24.3,30.20,North,0,1.7,4.4,81,0.00,,---,0.14,VWS V14.01,2013-01-16 04:31:00,
2013-01-15 22:32:00,29.4,24.3,30.20,North,0,1.7,1.7,81,0.00,,---,0.14,VWS V14.01,2013-01-16 04:32:00,
2013-01-15 22:33:00,29.4,24.0,30.20,NNW,338,3.5,3.5,80,0.00,,---,0.14,VWS V14.01,2013-01-16 04:33:00,
2013-01-15 22:34:00,29.4,24.0,30.20,NNW,338,3.5,3.5,80,0.00,,---,0.14,VWS V14.01,2013-01-16 04:34:00,
2013-01-15 22:35:00,29.4,24.0,30.20,North,0,2.9,3.5,80,0.00,,---,0.14,VWS V14.01,2013-01-16 04:35:00,
2013-01-15 22:36:00,29.4,24.0,30.20,North,0,2.9,2.9,80,0.00,,---,0.14,VWS V14.01,2013-01-16 04:36:00,
2013-01-15 22:37:00,29.4,24.0,30.20,North,0,2.9,2.9,80,0.00,,---,0.14,VWS V14.01,2013-01-16 04:37:00,
2013-01-15 22:38:00,29.4,24.0,30.20,North,0,2.9,2.9,80,0.00,,---,0.14,VWS V14.01,2013-01-16 04:38:00,
2013-01-15 22:39:00,29.4,24.0,30.20,North,0,2.9,2.9,80,0.00,,---,0.14,VWS V14.01,2013-01-16 04:39:00,
2013-01-15 22:40:00,29.4,24.0,30.20,North,0,6.7,6.7,80,0.00,,---,0.14,VWS V14.01,2013-01-16 04:40:00,
2013-01-15 22:41:00,29.4,24.0,30.19,North,0,6.7,6.7,80,0.00,,---,0.14,VWS V14.01,2013-01-16 04:41:00,
2013-01-15 22:42:00,29.4,24.0,30.19,North,0,6.7,6.7,80,0.00,,---,0.14,VWS V14.01,2013-01-16 04:42:00,
2013-01-15 22:43:00,29.4,24.0,30.19,North,0,3.3,3.3,80,0.00,,---,0.14,VWS V14.01,2013-01-16 04:43:00,
2013-01-15 22:44:00,29.6,24.2,30.19,NNW,338,3.8,3.8,80,0.00,,---,0.14,VWS V14.01,2013-01-16 04:44:00,
2013-01-15 22:45:00,29.6,24.2,30.19,NNW,338,3.8,3.8,80,0.00,,---,0.14,VWS V14.01,2013-01-16 04:45:00,
2013-01-15 22:46:00,29.6,24.2,30.19,NNW,338,2.9,3.8,80,0.00,,---,0.14,VWS V14.01,2013-01-16 04:46:00,
2013-01-15 22:47:00,29.6,24.2,30.19,NNW,338,2.9,2.9,80,0.00,,---,0.14,VWS V14.01,2013-01-16 04:47:00,
2013-01-15 22:48:00,29.6,24.2,30.20,North,0,4.0,4.0,80,0.00,,---,0.14,VWS V14.01,2013-01-16 04:48:00,
2013-01-15 22:49:00,29.6,24.2,30.20,North,0,4.0,4.0,80,0.00,,---,0.14,VWS V14.01,2013-01-16 04:49:00,
2013-01-15 22:50:00,29.6,24.2,30.20,NNW,338,5.5,5.5,80,0.00,,---,0.14,VWS V14.01,2013-01-16 04:50:00,
2013-01-15 22:51:00,29.6,24.2,30.20,NNW,338,5.5,5.5,80,0.00,,---,0.14,VWS V14.01,2013-01-16 04:51:00,
2013-01-15 22:52:00,29.6,24.2,30.20,NNW,338,5.5,5.5,80,0.00,,---,0.14,VWS V14.01,2013-01-16 04:52:00,
2013-01-15 22:53:00,29.6,24.2,30.20,NNW,338,5.3,5.5,80,0.00,,---,0.14,VWS V14.01,2013-01-16 04:53:00,
2013-01-15 22:54:00,29.6,24.2,30.20,NNW,338,5.3,5.3,80,0.00,,---,0.14,VWS V14.01,2013-01-16 04:54:00,
2013-01-15 22:55:00,29.6,24.2,30.20,NNW,338,0.0,5.3,80,0.00,,---,0.14,VWS V14.01,2013-01-16 04:55:00,
2013-01-15 22:56:00,29.6,24.2,30.20,NNW,338,0.0,0.0,80,0.00,,---,0.14,VWS V14.01,2013-01-16 04:56:00,
2013-01-15 22:57:00,29.6,24.2,30.20,NNW,338,0.0,0.0,80,0.00,,---,0.14,VWS V14.01,2013-01-16 04:57:00,
2013-01-15 22:58:00,29.8,24.4,30.20,North,0,0.0,0.0,80,0.00,,---,0.14,VWS V14.01,2013-01-16 04:58:00,
2013-01-15 22:59:00,29.8,24.4,30.20,North,0,0.0,0.0,80,0.00,,---,0.14,VWS V14.01,2013-01-16 04:59:00,
2013-01-15 23:00:00,29.8,24.4,30.20,North,0,0.0,0.0,80,0.00,,---,0.14,VWS V14.01,2013-01-16 05:00:00,
2013-01-15 23:01:00,29.8,24.4,30.20,North,0,0.0,0.0,80,0.00,,---,0.14,VWS V14.01,2013-01-16 05:01:00,
2013-01-15 23:02:00,29.8,24.4,30.20,North,0,0.0,0.0,80,0.00,,---,0.14,VWS V14.01,2013-01-16 05:02:00,
2013-01-15 23:03:00,29.8,24.4,30.20,North,0,0.0,0.0,80,0.00,,---,0.14,VWS V14.01,2013-01-16 05:03:00,
2013-01-15 23:04:00,29.8,24.4,30.20,North,0,0.0,0.0,80,0.00,,---,0.14,VWS V14.01,2013-01-16 05:04:00,
2013-01-15 23:05:00,29.8,24.4,30.20,NW,315,1.1,1.1,80,0.00,,---,0.14,VWS V14.01,2013-01-16 05:05:00,
2013-01-15 23:06:00,29.8,24.4,30.20,NW,315,1.1,1.1,80,0.00,,---,0.14,VWS V14.01,2013-01-16 05:06:00,
2013-01-15 23:07:00,29.8,24.4,30.20,NW,315,1.1,1.1,80,0.00,,---,0.14,VWS V14.01,2013-01-16 05:07:00,
2013-01-15 23:08:00,29.8,24.4,30.20,NW,315,1.1,1.1,80,0.00,,---,0.14,VWS V14.01,2013-01-16 05:08:00,
2013-01-15 23:09:00,29.8,24.4,30.20,North,0,0.0,0.0,80,0.00,,---,0.14,VWS V14.01,2013-01-16 05:09:00,
2013-01-15 23:10:00,29.8,24.4,30.20,North,0,0.0,0.0,80,0.00,,---,0.14,VWS V14.01,2013-01-16 05:10:00,
2013-01-15 23:11:00,29.8,24.4,30.20,North,0,0.0,0.0,80,0.00,,---,0.14,VWS V14.01,2013-01-16 05:11:00,
2013-01-15 23:12:00,29.8,24.4,30.20,North,0,0.0,0.0,80,0.00,,---,0.14,VWS V14.01,2013-01-16 05:12:00,
2013-01-15 23:13:00,29.8,24.4,30.20,North,0,0.0,0.0,80,0.00,,---,0.14,VWS V14.01,2013-01-16 05:13:00,
2013-01-15 23:14:00,29.8,24.4,30.20,NNW,338,0.0,0.0,80,0.00,,---,0.14,VWS V14.01,2013-01-16 05:14:00,
2013-01-15 23:15:00,29.8,24.4,30.20,NNW,338,0.0,0.0,80,0.00,,---,0.14,VWS V14.01,2013-01-16 05:15:00,
2013-01-15 23:16:00,29.8,24.4,30.20,North,0,0.0,0.0,80,0.00,,---,0.14,VWS V14.01,2013-01-16 05:16:00,
2013-01-15 23:17:00,29.8,24.4,30.20,North,0,0.0,0.0,80,0.00,,---,0.14,VWS V14.01,2013-01-16 05:17:00,
2013-01-15 23:18:00,29.8,24.4,30.20,North,0,0.0,0.0,80,0.00,,---,0.14,VWS V14.01,2013-01-16 05:18:00,
2013-01-15 23:19:00,29.8,24.4,30.20,NNW,338,0.0,0.0,80,0.00,,---,0.14,VWS V14.01,2013-01-16 05:19:00,
2013-01-15 23:20:00,29.8,24.4,30.20,NNW,338,0.0,0.0,80,0.00,,---,0.14,VWS V14.01,2013-01-16 05:20:00,
2013-01-15 23:21:00,30.0,24.6,30.20,NNW,338,0.0,0.0,80,0.00,,---,0.14,VWS V14.01,2013-01-16 05:21:00,
2013-01-15 23:22:00,30.0,24.6,30.20,NNW,338,0.0,0.0,80,0.00,,---,0.14,VWS V14.01,2013-01-16 05:22:00,
2013-01-15 23:23:00,30.0,24.6,30.20,NNW,338,0.0,0.0,80,0.00,,---,0.14,VWS V14.01,2013-01-16 05:23:00,
2013-01-15 23:24:00,29.8,24.1,30.20,North,0,0.0,0.0,79,0.00,,---,0.14,VWS V14.01,2013-01-16 05:24:00,
2013-01-15 23:25:00,30.0,24.3,30.20,North,0,0.0,0.0,79,0.00,,---,0.14,VWS V14.01,2013-01-16 05:25:00,
2013-01-15 23:26:00,30.0,24.3,30.20,North,0,0.0,0.0,79,0.00,,---,0.14,VWS V14.01,2013-01-16 05:26:00,
2013-01-15 23:27:00,29.8,24.1,30.20,NNW,338,0.0,0.0,79,0.00,,---,0.14,VWS V14.01,2013-01-16 05:27:00,
2013-01-15 23:28:00,29.8,24.1,30.20,NNW,338,0.0,0.0,79,0.00,,---,0.14,VWS V14.01,2013-01-16 05:28:00,
2013-01-15 23:29:00,30.0,24.3,30.20,North,0,0.0,0.0,79,0.00,,---,0.14,VWS V14.01,2013-01-16 05:29:00,
2013-01-15 23:30:00,30.0,24.3,30.20,North,0,0.0,0.0,79,0.00,,---,0.14,VWS V14.01,2013-01-16 05:30:00,
2013-01-15 23:31:00,30.0,24.3,30.20,NNW,338,0.0,0.0,79,0.00,,---,0.14,VWS V14.01,2013-01-16 05:31:00,
2013-01-15 23:32:00,30.0,24.3,30.20,NNW,338,0.0,0.0,79,0.00,,---,0.14,VWS V14.01,2013-01-16 05:32:00,
2013-01-15 23:33:00,30.0,24.3,30.20,NNW,338,0.0,0.0,79,0.00,,---,0.14,VWS V14.01,2013-01-16 05:33:00,
2013-01-15 23:34:00,30.0,24.3,30.20,NNW,338,0.0,0.0,79,0.00,,---,0.14,VWS V14.01,2013-01-16 05:34:00,
2013-01-15 23:35:00,30.0,24.3,30.21,NNW,338,0.0,0.0,79,0.00,,---,0.14,VWS V14.01,2013-01-16 05:35:00,
2013-01-15 23:36:00,30.0,24.3,30.21,NNW,338,0.0,0.0,79,0.00,,---,0.14,VWS V14.01,2013-01-16 05:36:00,
2013-01-15 23:37:00,30.0,24.3,30.21,NNW,338,0.0,0.0,79,0.00,,---,0.14,VWS V14.01,2013-01-16 05:37:00,
2013-01-15 23:38:00,30.0,24.3,30.21,NNW,338,0.0,0.0,79,0.00,,---,0.14,VWS V14.01,2013-01-16 05:38:00,
2013-01-15 23:39:00,30.0,24.3,30.21,NNW,338,0.0,0.0,79,0.00,,---,0.14,VWS V14.01,2013-01-16 05:39:00,
2013-01-15 23:40:00,30.0,24.3,30.20,NNW,338,0.0,0.0,79,0.00,,---,0.14,VWS V14.01,2013-01-16 05:40:00,
2013-01-15 23:41:00,30.0,24.3,30.21,NNW,338,0.0,0.0,79,0.00,,---,0.14,VWS V14.01,2013-01-16 05:41:00,
2013-01-15 23:42:00,30.0,24.3,30.21,NNW,338,0.8,0.8,79,0.00,,---,0.14,VWS V14.01,2013-01-16 05:42:00,
2013-01-15 23:43:00,30.0,24.3,30.21,NNW,338,0.8,0.8,79,0.00,,---,0.14,VWS V14.01,2013-01-16 05:43:00,
2013-01-15 23:44:00,30.0,24.3,30.21,NNW,338,0.0,0.8,79,0.00,,---,0.14,VWS V14.01,2013-01-16 05:44:00,
2013-01-15 23:45:00,30.0,24.3,30.21,NNW,338,0.0,0.0,79,0.00,,---,0.14,VWS V14.01,2013-01-16 05:45:00,
2013-01-15 23:46:00,30.0,24.3,30.21,NNW,338,0.0,0.0,79,0.00,,---,0.14,VWS V14.01,2013-01-16 05:46:00,
2013-01-15 23:47:00,30.0,24.3,30.21,NNW,338,0.0,0.0,79,0.00,,---,0.14,VWS V14.01,2013-01-16 05:47:00,
2013-01-15 23:48:00,30.0,24.3,30.21,NNW,338,0.0,0.0,79,0.00,,---,0.14,VWS V14.01,2013-01-16 05:48:00,
2013-01-15 23:49:00,30.0,24.3,30.21,NNW,338,0.0,0.0,79,0.00,,---,0.14,VWS V14.01,2013-01-16 05:49:00,
2013-01-15 23:50:00,30.0,24.3,30.21,NNW,338,0.0,0.0,79,0.00,,---,0.14,VWS V14.01,2013-01-16 05:50:00,
2013-01-15 23:51:00,30.0,24.3,30.21,NNW,338,0.0,0.0,79,0.00,,---,0.14,VWS V14.01,2013-01-16 05:51:00,
2013-01-15 23:52:00,30.0,24.3,30.21,NNW,338,0.0,0.0,79,0.00,,---,0.14,VWS V14.01,2013-01-16 05:52:00,
2013-01-15 23:53:00,30.0,24.3,30.21,NNW,338,0.0,0.0,79,0.00,,---,0.14,VWS V14.01,2013-01-16 05:53:00,
2013-01-15 23:54:00,30.0,24.3,30.21,NNW,338,0.0,0.0,79,0.00,,---,0.14,VWS V14.01,2013-01-16 05:54:00,
2013-01-15 23:55:00,30.0,24.3,30.21,NNW,338,0.0,0.0,79,0.00,,---,0.14,VWS V14.01,2013-01-16 05:55:00,
2013-01-15 23:56:00,30.0,24.3,30.21,NNW,338,0.0,0.0,79,0.00,,---,0.14,VWS V14.01,2013-01-16 05:56:00,
2013-01-15 23:57:00,30.0,24.3,30.21,NNW,338,0.0,0.0,79,0.00,,---,0.14,VWS V14.01,2013-01-16 05:57:00,
2013-01-15 23:58:00,30.0,24.3,30.21,NNW,338,0.0,0.0,79,0.00,,---,0.14,VWS V14.01,2013-01-16 05:58:00,
2013-01-15 23:59:00,30.0,24.3,30.21,NNW,338,0.0,0.0,79,0.00,,---,0.14,VWS V14.01,2013-01-16 05:59:00,